Provisional Data: Quittapahilla Creek near Syner, PA


Please select a monitoring station.
Please select start date.
Please select start date.

Toggle Unit: C/F Toggle Unit: C/F
Sample Time Temperature (C) Temperature (F) Specific Conductivity (mS/cm) pH   Turbidity (NTU+) DO (mg/L)
12/4/2020 12:00:00 AM 7.95 46.31 0.647 8.37 659.6 10.45
12/4/2020 12:15:00 AM 7.96 46.328 0.647 8.37 607.6 10.42
12/4/2020 12:30:00 AM 7.96 46.328 0.648 8.37 567.5 10.37
12/4/2020 12:45:00 AM 7.97 46.346 0.648 8.37 152.1 10.33
12/4/2020 1:00:00 AM 7.97 46.346 0.648 8.36 133.4 10.31
12/4/2020 1:15:00 AM 7.98 46.364 0.648 8.36 54.2 10.28
12/4/2020 1:30:00 AM 7.98 46.364 0.648 8.36 113.4 10.24
12/4/2020 1:45:00 AM 7.98 46.364 0.648 8.35 172.4 10.21
12/4/2020 2:00:00 AM 7.99 46.382 0.649 8.35 221 10.19
12/4/2020 2:15:00 AM 7.99 46.382 0.649 8.35 185.3 10.17
12/4/2020 2:30:00 AM 7.99 46.382 0.649 8.34 189.1 10.15
12/4/2020 2:45:00 AM 7.99 46.382 0.65 8.35 157.5 10.14
12/4/2020 3:00:00 AM 8 46.4 0.65 8.34 165.5 10.11
12/4/2020 3:15:00 AM 8.01 46.418 0.651 8.33 134.6 10.11
12/4/2020 3:30:00 AM 8.01 46.418 0.651 8.34 171.2 10.08
12/4/2020 3:45:00 AM 8.03 46.454 0.652 8.33 148.4 10.06
12/4/2020 4:00:00 AM 8.04 46.472 0.652 8.33 180.4 10.04
12/4/2020 4:15:00 AM 8.06 46.508 0.653 8.32 183.2 10.03
12/4/2020 4:30:00 AM 8.07 46.526 0.653 8.32 199.3 10.02
12/4/2020 4:45:00 AM 8.08 46.544 0.653 8.32 208.7 9.99
12/4/2020 5:00:00 AM 8.11 46.598 0.654 8.32 202.9 9.98
12/4/2020 5:15:00 AM 8.12 46.616 0.654 8.32 197.8 9.97
12/4/2020 5:30:00 AM 8.14 46.652 0.654 8.31 205.1 9.93
12/4/2020 5:45:00 AM 8.16 46.688 0.654 8.31 194.8 9.92
12/4/2020 6:00:00 AM 8.17 46.706 0.655 8.31 180 9.91
12/4/2020 6:15:00 AM 8.19 46.742 0.655 8.31 192.3 9.92
12/4/2020 6:30:00 AM 8.2 46.76 0.655 8.31 143.5 9.89
12/4/2020 6:45:00 AM 8.21 46.778 0.655 8.31 149.1 9.9
12/4/2020 7:00:00 AM 8.22 46.796 0.655 8.31 168.8 9.89
12/4/2020 7:15:00 AM 8.23 46.814 0.655 8.31 156.3 9.89
12/4/2020 7:30:00 AM 8.23 46.814 0.655 8.31 151.5 9.9
12/4/2020 7:45:00 AM 8.24 46.832 0.655 8.31 156.1 9.92
12/4/2020 8:00:00 AM 8.25 46.85 0.655 8.31 140 9.95
12/4/2020 8:15:00 AM 8.26 46.868 0.655 8.31 118.3 10.02
12/4/2020 8:30:00 AM 8.28 46.904 0.655 8.31 146 10.09
12/4/2020 8:45:00 AM 8.28 46.904 0.655 8.32 977.5 10.2
12/4/2020 9:00:00 AM 8.3 46.94 0.655 8.32 630.3 10.3
12/4/2020 9:15:00 AM 8.33 46.994 0.655 8.33 737.2 10.42
12/4/2020 9:30:00 AM 8.36 47.048 0.656 8.34 711 10.54
12/4/2020 9:45:00 AM 8.39 47.102 0.656 8.34 558.3 10.66
12/4/2020 10:00:00 AM 8.42 47.156 0.657 8.35 540.4 10.75
12/4/2020 10:15:00 AM 8.45 47.21 0.658 8.35 645.7 10.77
12/4/2020 10:30:00 AM 8.49 47.282 0.658 8.36 733 10.84
12/4/2020 10:45:00 AM 8.53 47.354 0.658 8.36 660.8 10.95
12/4/2020 11:00:00 AM 8.56 47.408 0.657 8.36 533.6 11.05
12/4/2020 11:15:00 AM 8.61 47.498 0.655 8.37 548.3 11.22
12/4/2020 11:30:00 AM 8.67 47.606 0.654 8.38 793.3 11.42
12/4/2020 11:45:00 AM 8.73 47.714 0.653 8.39 677.1 11.62
12/4/2020 12:00:00 PM 8.77 47.786 0.653 8.4 1256 11.73
12/4/2020 12:15:00 PM 8.81 47.858 0.652 8.41 724.7 11.79
12/4/2020 12:30:00 PM 8.84 47.912 0.652 8.41 29.73 11.77
12/4/2020 12:45:00 PM 8.88 47.984 0.651 8.42 11.38 11.78
12/4/2020 1:00:00 PM 8.9 48.02 0.651 8.43 13.99 11.74
12/4/2020 1:15:00 PM 8.93 48.074 0.651 8.43 11.19 11.72
12/4/2020 1:30:00 PM 8.95 48.11 0.651 8.43 11.95 11.67
12/4/2020 1:45:00 PM 8.97 48.146 0.652 8.43 11.12 11.6
12/4/2020 2:00:00 PM 9 48.2 0.652 8.43 13.77 11.55
12/4/2020 2:15:00 PM 9.04 48.272 0.652 8.43 13.18 11.54
12/4/2020 2:30:00 PM 9.08 48.344 0.651 8.43 12.11 11.5
12/4/2020 2:45:00 PM 9.12 48.416 0.65 8.43 13.07 11.48
12/4/2020 3:00:00 PM 9.15 48.47 0.649 8.42 13.43 11.42
12/4/2020 3:15:00 PM 9.17 48.506 0.649 8.42 14.51 11.37
12/4/2020 3:30:00 PM 9.19 48.542 0.649 8.42 13.82 11.31
12/4/2020 3:45:00 PM 9.21 48.578 0.649 8.42 14.36 11.26
12/4/2020 4:00:00 PM 9.22 48.596 0.649 8.42 15.44 11.22
12/4/2020 4:15:00 PM 9.24 48.632 0.649 8.41 15.76 11.14
12/4/2020 4:30:00 PM 9.25 48.65 0.649 8.41 15.44 11.05
12/4/2020 4:45:00 PM 9.26 48.668 0.649 8.4 16.16 10.94
12/4/2020 5:00:00 PM 9.26 48.668 0.649 8.4 14.29 10.84
12/4/2020 5:15:00 PM 9.27 48.686 0.649 8.39 17.44 10.74
12/4/2020 5:30:00 PM 9.29 48.722 0.648 8.39 16.12 10.67
12/4/2020 5:45:00 PM 9.31 48.758 0.647 8.38 19.45 10.59
12/4/2020 6:00:00 PM 9.35 48.83 0.648 8.37 24.44 10.53
12/4/2020 6:15:00 PM 9.36 48.848 0.651 8.37 21.96 10.48
12/4/2020 6:30:00 PM 9.35 48.83 0.655 8.36 204.8 10.45
12/4/2020 6:45:00 PM 9.32 48.776 0.657 8.36 1078 10.43
12/4/2020 7:00:00 PM 9.3 48.74 0.658 8.36 1141 10.4
12/4/2020 7:15:00 PM 9.28 48.704 0.657 8.36 781.4 10.37
12/4/2020 7:30:00 PM 9.27 48.686 0.655 8.36 339.1 10.35
12/4/2020 7:45:00 PM 9.28 48.704 0.65 8.36 175.1 10.34
12/4/2020 8:00:00 PM 9.28 48.704 0.648 8.36 245.5 10.32
12/4/2020 8:15:00 PM 9.28 48.704 0.648 8.36 225.6 10.29
12/4/2020 8:30:00 PM 9.28 48.704 0.648 8.35 203.7 10.26
12/4/2020 8:45:00 PM 9.28 48.704 0.646 8.35 192.7 10.22
12/4/2020 9:00:00 PM 9.27 48.686 0.644 8.35 197.4 10.19
12/4/2020 9:15:00 PM 9.27 48.686 0.642 8.35 318.8 10.17
12/4/2020 9:30:00 PM 9.26 48.668 0.641 8.35 236.1 10.16
12/4/2020 9:45:00 PM 9.26 48.668 0.64 8.35 188.8 10.14
12/4/2020 10:00:00 PM 9.26 48.668 0.639 8.35 182 10.12
12/4/2020 10:15:00 PM 9.26 48.668 0.638 8.34 247 10.11
12/4/2020 10:30:00 PM 9.26 48.668 0.637 8.34 249.5 10.08
12/4/2020 10:45:00 PM 9.26 48.668 0.637 8.34 230.1 10.07
12/4/2020 11:00:00 PM 9.25 48.65 0.636 8.34 206.6 10.07
12/4/2020 11:15:00 PM 9.26 48.668 0.635 8.34 199 10.06
12/4/2020 11:30:00 PM 9.26 48.668 0.635 8.33 230.7 10.06
12/4/2020 11:45:00 PM 9.26 48.668 0.635 8.34 187.7 10.03
12/5/2020 12:00:00 AM 9.26 48.668 0.634 8.33 228.1 10.01
12/5/2020 12:15:00 AM 9.26 48.668 0.634 8.33 238.8 10
12/5/2020 12:30:00 AM 9.26 48.668 0.634 8.33 249.8 9.97
12/5/2020 12:45:00 AM 9.27 48.686 0.633 8.32 253.7 9.95
12/5/2020 1:00:00 AM 9.27 48.686 0.632 8.32 272.5 9.92
12/5/2020 1:15:00 AM 9.27 48.686 0.63 8.32 264.3 9.91
12/5/2020 1:30:00 AM 9.27 48.686 0.629 8.32 257.6 9.9
12/5/2020 1:45:00 AM 9.28 48.704 0.628 8.32 229.9 9.87
12/5/2020 2:00:00 AM 9.29 48.722 0.627 8.31 221.8 9.86
12/5/2020 2:15:00 AM 9.3 48.74 0.627 8.31 236.7 9.85
12/5/2020 2:30:00 AM 9.32 48.776 0.628 8.3 237.5 9.82
12/5/2020 2:45:00 AM 9.35 48.83 0.627 8.3 234.6 9.82
12/5/2020 3:00:00 AM 9.38 48.884 0.628 8.3 234.5 9.81
12/5/2020 3:15:00 AM 9.4 48.92 0.63 8.29 263.8 9.76
12/5/2020 3:30:00 AM 9.4 48.92 0.632 8.28 288 9.75
12/5/2020 3:45:00 AM 9.39 48.902 0.632 8.28 317.8 9.73
12/5/2020 4:00:00 AM 9.39 48.902 0.632 8.28 352.6 9.74
12/5/2020 4:15:00 AM 9.4 48.92 0.631 8.28 384.3 9.74
12/5/2020 4:30:00 AM 9.4 48.92 0.63 8.28 376.5 9.74
12/5/2020 4:45:00 AM 9.41 48.938 0.63 8.28 365.3 9.72
12/5/2020 5:00:00 AM 9.41 48.938 0.63 8.28 385.4 9.74
12/5/2020 5:15:00 AM 9.42 48.956 0.629 8.28 412.5 9.72
12/5/2020 5:30:00 AM 9.43 48.974 0.628 8.28 355.5 9.72
12/5/2020 5:45:00 AM 9.44 48.992 0.627 8.28 348.5 9.71
12/5/2020 6:00:00 AM 9.44 48.992 0.627 8.28 363.2 9.71
12/5/2020 6:15:00 AM 9.45 49.01 0.626 8.28 328 9.69
12/5/2020 6:30:00 AM 9.45 49.01 0.627 8.28 346.7 9.68
12/5/2020 6:45:00 AM 9.46 49.028 0.627 8.28 339.9 9.66
12/5/2020 7:00:00 AM 9.46 49.028 0.627 8.28 312.2 9.63
12/5/2020 7:15:00 AM 9.47 49.046 0.628 8.28 334 9.63
12/5/2020 7:30:00 AM 9.47 49.046 0.628 8.27 305.1 9.63
12/5/2020 7:45:00 AM 9.48 49.064 0.629 8.27 330.9 9.63
12/5/2020 8:00:00 AM 9.48 49.064 0.629 8.27 330.8 9.67
12/5/2020 8:15:00 AM 9.49 49.082 0.629 8.27 325.1 9.72
12/5/2020 8:30:00 AM 9.5 49.1 0.628 8.27 315.1 9.8
12/5/2020 8:45:00 AM 9.52 49.136 0.628 8.28 315.9 9.9
12/5/2020 9:00:00 AM 9.54 49.172 0.627 8.28 370.1 10.04
12/5/2020 9:15:00 AM 9.56 49.208 0.625 8.29 328.3 10.19
12/5/2020 9:30:00 AM 9.57 49.226 0.623 8.29 327.3 10.31
12/5/2020 9:45:00 AM 9.58 49.244 0.62 8.3 326.4 10.42
12/5/2020 10:00:00 AM 9.58 49.244 0.617 8.31 366 10.47
12/5/2020 10:15:00 AM 9.59 49.262 0.615 8.31 322 10.55
12/5/2020 10:30:00 AM 9.6 49.28 0.612 8.31 360.1 10.67
12/5/2020 10:45:00 AM 9.61 49.298 0.607 8.32 378.4 10.81
12/5/2020 11:00:00 AM 9.61 49.298 0.602 8.32 373 10.94
12/5/2020 11:15:00 AM 9.62 49.316 0.596 8.33 376.1 11.05
12/5/2020 11:30:00 AM 9.62 49.316 0.591 8.34 367.2 11.14
12/5/2020 11:45:00 AM 9.64 49.352 0.586 8.35 358.8 11.28
12/5/2020 12:00:00 PM 9.64 49.352 0.582 8.35 350.3 11.41
12/5/2020 12:15:00 PM 9.65 49.37 0.578 8.36 346.3 11.54
12/5/2020 12:30:00 PM 9.65 49.37 0.574 8.36 353.2 11.6
12/5/2020 12:45:00 PM 9.64 49.352 0.572 8.37 322.4 11.57
12/5/2020 1:00:00 PM 9.61 49.298 0.57 8.37 357.5 11.47
12/5/2020 1:15:00 PM 9.59 49.262 0.568 8.37 353.5 11.46
12/5/2020 1:30:00 PM 9.57 49.226 0.567 8.37 345.8 11.48
12/5/2020 1:45:00 PM 9.57 49.226 0.566 8.38 348.9 11.56
12/5/2020 2:00:00 PM 9.56 49.208 0.565 8.38 350.7 11.64
12/5/2020 2:15:00 PM 9.55 49.19 0.563 8.38 362 11.71
12/5/2020 2:30:00 PM 9.53 49.154 0.563 8.39 363.4 11.79
12/5/2020 2:45:00 PM 9.54 49.172 0.562 8.39 390.8 11.91
12/5/2020 3:00:00 PM 9.53 49.154 0.562 8.4 324.4 11.93
12/5/2020 3:15:00 PM 9.49 49.082 0.561 8.41 327.2 11.86
12/5/2020 3:30:00 PM 9.46 49.028 0.561 8.41 311.6 11.71
12/5/2020 3:45:00 PM 9.44 48.992 0.561 8.41 331.2 11.62
12/5/2020 4:00:00 PM 9.41 48.938 0.561 8.4 333.4 11.45
12/5/2020 4:15:00 PM 9.38 48.884 0.562 8.4 359.1 11.34
12/5/2020 4:30:00 PM 9.35 48.83 0.563 8.39 310.7 11.21
12/5/2020 4:45:00 PM 9.32 48.776 0.564 8.39 339 11.08
12/5/2020 5:00:00 PM 9.28 48.704 0.566 8.38 334.3 10.94
12/5/2020 5:15:00 PM 9.23 48.614 0.567 8.38 319.6 10.85
12/5/2020 5:30:00 PM 9.19 48.542 0.568 8.37 337.8 10.78
12/5/2020 5:45:00 PM 9.16 48.488 0.567 8.36 311.9 10.72
12/5/2020 6:00:00 PM 9.14 48.452 0.566 8.36 334.3 10.66
12/5/2020 6:15:00 PM 9.12 48.416 0.566 8.35 330.6 10.61
12/5/2020 6:30:00 PM 9.11 48.398 0.567 8.35 337.8 10.55
12/5/2020 6:45:00 PM 9.1 48.38 0.568 8.34 339.7 10.52
12/5/2020 7:00:00 PM 9.09 48.362 0.569 8.34 295.9 10.46
12/5/2020 7:15:00 PM 9.08 48.344 0.571 8.34 216.5 10.43
12/5/2020 7:30:00 PM 9.07 48.326 0.572 8.33 289 10.38
12/5/2020 7:45:00 PM 9.06 48.308 0.574 8.33 221.7 10.33
12/5/2020 8:00:00 PM 9.05 48.29 0.576 8.32 324.1 10.27
12/5/2020 8:15:00 PM 9.04 48.272 0.577 8.32 332.5 10.23
12/5/2020 8:30:00 PM 9.03 48.254 0.579 8.31 315.4 10.19
12/5/2020 8:45:00 PM 9.02 48.236 0.58 8.31 334 10.17
12/5/2020 9:00:00 PM 9 48.2 0.582 8.31 419.1 10.15
12/5/2020 9:15:00 PM 8.97 48.146 0.583 8.31 426.7 10.12
12/5/2020 9:30:00 PM 8.94 48.092 0.584 8.31 340.5 10.1
12/5/2020 9:45:00 PM 8.92 48.056 0.585 8.31 374.5 10.08
12/5/2020 10:00:00 PM 8.89 48.002 0.586 8.3 366.9 10.05
12/5/2020 10:15:00 PM 8.87 47.966 0.588 8.3 407.3 10.02
12/5/2020 10:30:00 PM 8.84 47.912 0.589 8.31 395.1 10.01
12/5/2020 10:45:00 PM 8.82 47.876 0.59 8.3 395.8 9.99
12/5/2020 11:00:00 PM 8.78 47.804 0.592 8.3 402.3 9.97
12/5/2020 11:15:00 PM 8.76 47.768 0.594 8.3 413.5 9.95
12/5/2020 11:30:00 PM 8.76 47.768 0.596 8.3 445.2 9.93
12/5/2020 11:45:00 PM 8.76 47.768 0.598 8.3 417.5 9.93
12/6/2020 12:00:00 AM 8.74 47.732 0.602 8.29 473.6 9.89
12/6/2020 12:15:00 AM 8.73 47.714 0.606 8.3 538.9 9.87
12/6/2020 12:30:00 AM 8.7 47.66 0.608 8.29 575.1 9.86
12/6/2020 12:45:00 AM 8.68 47.624 0.608 8.3 578.1 9.87
12/6/2020 1:00:00 AM 8.66 47.588 0.609 8.3 553.6 9.87
12/6/2020 1:15:00 AM 8.65 47.57 0.61 8.3 583.8 9.88
12/6/2020 1:30:00 AM 8.63 47.534 0.611 8.3 569.6 9.87
12/6/2020 1:45:00 AM 8.61 47.498 0.612 8.3 620.5 9.89
12/6/2020 2:00:00 AM 8.59 47.462 0.613 8.3 734.5 9.88
12/6/2020 2:15:00 AM 8.57 47.426 0.614 8.3 635.9 9.88
12/6/2020 2:30:00 AM 8.54 47.372 0.615 8.3 561.1 9.88
12/6/2020 2:45:00 AM 8.51 47.318 0.616 8.3 563.3 9.88
12/6/2020 3:00:00 AM 8.48 47.264 0.616 8.31 558.7 9.9
12/6/2020 3:15:00 AM 8.44 47.192 0.617 8.31 525.9 9.9
12/6/2020 3:30:00 AM 8.41 47.138 0.618 8.31 526.1 9.9
12/6/2020 4:00:00 AM 8.35 47.03 0.619 8.31 597.5 9.91
12/6/2020 4:15:00 AM 8.32 46.976 0.62 8.31 564 9.92
12/6/2020 4:30:00 AM 8.29 46.922 0.621 8.32 607.9 9.93
12/6/2020 4:45:00 AM 8.26 46.868 0.622 8.32 635.8 9.93
12/6/2020 5:00:00 AM 8.23 46.814 0.622 8.32 564.2 9.95
12/6/2020 5:15:00 AM 8.19 46.742 0.623 8.32 718.7 9.95
12/6/2020 5:30:00 AM 8.16 46.688 0.623 8.32 745.1 9.96
12/6/2020 5:45:00 AM 8.12 46.616 0.624 8.32 651.2 9.95
12/6/2020 6:00:00 AM 8.08 46.544 0.624 8.32 577.8 9.97
12/6/2020 6:15:00 AM 8.04 46.472 0.625 8.33 594.4 9.96
12/6/2020 6:30:00 AM 8 46.4 0.626 8.33 596.7 9.96
12/6/2020 6:45:00 AM 7.95 46.31 0.627 8.33 659.3 9.94
12/6/2020 7:00:00 AM 7.91 46.238 0.628 8.33 708.4 9.94
12/6/2020 7:15:00 AM 7.88 46.184 0.628 8.33 570.5 9.93
12/6/2020 7:30:00 AM 7.87 46.166 0.629 8.33 686.7 9.98
12/6/2020 7:45:00 AM 7.87 46.166 0.629 8.33 728.5 10.03
12/6/2020 8:00:00 AM 7.86 46.148 0.632 8.33 723.9 10.09
12/6/2020 8:15:00 AM 7.86 46.148 0.637 8.33 594.7 10.2
12/6/2020 8:30:00 AM 7.86 46.148 0.64 8.34 600.1 10.33
12/6/2020 8:45:00 AM 7.88 46.184 0.639 8.34 554 10.51
12/6/2020 9:00:00 AM 7.92 46.256 0.637 8.35 486 10.69
12/6/2020 9:15:00 AM 7.94 46.292 0.634 8.36 545.7 10.88
12/6/2020 9:30:00 AM 7.94 46.292 0.632 8.37 546.4 11.01
12/6/2020 9:45:00 AM 7.95 46.31 0.631 8.37 512.3 11.17
12/6/2020 10:00:00 AM 7.97 46.346 0.631 8.38 546.4 11.34
12/6/2020 10:15:00 AM 8.01 46.418 0.63 8.39 523 11.52
12/6/2020 10:30:00 AM 8.07 46.526 0.63 8.4 522.8 11.75
12/6/2020 10:45:00 AM 8.13 46.634 0.63 8.42 500.7 11.98
12/6/2020 11:00:00 AM 8.21 46.778 0.63 8.42 525.3 12.15
12/6/2020 11:15:00 AM 8.28 46.904 0.63 8.44 540.9 12.32
12/6/2020 11:30:00 AM 8.37 47.066 0.63 8.45 585.4 12.5
12/6/2020 11:45:00 AM 8.47 47.246 0.63 8.46 579.6 12.68
12/6/2020 12:00:00 PM 8.56 47.408 0.63 8.46 578.4 12.82
12/6/2020 12:15:00 PM 8.62 47.516 0.631 8.48 713.2 12.88
12/6/2020 12:30:00 PM 8.66 47.588 0.63 8.49 743.4 13
12/6/2020 12:45:00 PM 8.69 47.642 0.631 8.5 754.8 13.05
12/6/2020 1:00:00 PM 8.71 47.678 0.631 8.51 685 13.08
12/6/2020 1:15:00 PM 8.74 47.732 0.631 8.52 670.3 13.18
12/6/2020 1:30:00 PM 8.75 47.75 0.632 8.52 725 13.2
12/6/2020 1:45:00 PM 8.72 47.696 0.632 8.53 785 13.2
12/6/2020 2:00:00 PM 8.71 47.678 0.633 8.53 773.7 13.22
12/6/2020 2:15:00 PM 8.71 47.678 0.633 8.54 814.9 13.23
12/6/2020 2:30:00 PM 8.68 47.624 0.634 8.55 841.7 13.22
12/6/2020 2:45:00 PM 8.64 47.552 0.634 8.55 714 13.16
12/6/2020 3:00:00 PM 8.62 47.516 0.634 8.56 872.5 13.12
12/6/2020 3:15:00 PM 8.61 47.498 0.635 8.56 915.3 13.06
12/6/2020 3:30:00 PM 8.57 47.426 0.638 8.56 659.2 12.95
12/6/2020 3:45:00 PM 8.52 47.336 0.64 8.55 812.5 12.85
12/6/2020 4:00:00 PM 8.47 47.246 0.64 8.56 709.3 12.75
12/6/2020 4:15:00 PM 8.42 47.156 0.64 8.56 870.1 12.62
12/6/2020 4:30:00 PM 8.37 47.066 0.64 8.55 776.5 12.47
12/6/2020 4:45:00 PM 8.31 46.958 0.639 8.55 714.2 12.3
12/6/2020 5:00:00 PM 8.27 46.886 0.638 8.54 741.4 12.15
12/6/2020 5:15:00 PM 8.22 46.796 0.638 8.54 843.7 11.99
12/6/2020 5:30:00 PM 8.17 46.706 0.638 8.53 880 11.84
12/6/2020 5:45:00 PM 8.13 46.634 0.637 8.52 716.1 11.7
12/6/2020 6:00:00 PM 8.08 46.544 0.637 8.51 1019 11.57
12/6/2020 6:15:00 PM 8.05 46.49 0.637 8.51 901.9 11.47
12/6/2020 6:30:00 PM 8.01 46.418 0.638 8.5 946.7 11.38
12/6/2020 6:45:00 PM 7.97 46.346 0.638 8.49 947.8 11.28
12/6/2020 7:00:00 PM 7.93 46.274 0.638 8.49 784.6 11.21
12/6/2020 7:15:00 PM 7.9 46.22 0.637 8.48 793.1 11.13
12/6/2020 7:30:00 PM 7.86 46.148 0.637 8.48 765.5 11.08
12/6/2020 7:45:00 PM 7.83 46.094 0.637 8.48 762.7 11.04
12/6/2020 8:00:00 PM 7.79 46.022 0.638 8.47 911.3 11
12/6/2020 8:15:00 PM 7.76 45.968 0.638 8.47 1061 10.97
12/6/2020 8:30:00 PM 7.72 45.896 0.638 8.47 712.6 10.93
12/6/2020 8:45:00 PM 7.69 45.842 0.638 8.46 789.1 10.88
12/6/2020 9:00:00 PM 7.65 45.77 0.638 8.46 752.3 10.84
12/6/2020 9:15:00 PM 7.62 45.716 0.638 8.46 838.6 10.83
12/6/2020 9:30:00 PM 7.58 45.644 0.639 8.46 796.2 10.79
12/6/2020 9:45:00 PM 7.55 45.59 0.639 8.46 670.1 10.74
12/6/2020 10:00:00 PM 7.52 45.536 0.639 8.45 510.3 10.73
12/6/2020 10:15:00 PM 7.48 45.464 0.64 8.45 411.7 10.71
12/6/2020 10:30:00 PM 7.46 45.428 0.64 8.45 358.1 10.67
12/6/2020 10:45:00 PM 7.43 45.374 0.64 8.44 328.1 10.65
12/6/2020 11:00:00 PM 7.4 45.32 0.64 8.44 282.5 10.63
12/6/2020 11:15:00 PM 7.37 45.266 0.641 8.44 292.8 10.61
12/6/2020 11:30:00 PM 7.35 45.23 0.641 8.44 294.1 10.58
12/6/2020 11:45:00 PM 7.32 45.176 0.641 8.44 330.2 10.57
12/7/2020 12:00:00 AM 7.29 45.122 0.642 8.44 286.9 10.56
12/7/2020 12:15:00 AM 7.26 45.068 0.642 8.43 365.6 10.53
12/7/2020 12:30:00 AM 7.24 45.032 0.642 8.43 392.3 10.53
12/7/2020 12:45:00 AM 7.22 44.996 0.642 8.43 362.6 10.51
12/7/2020 1:00:00 AM 7.19 44.942 0.643 8.43 335 10.48
12/7/2020 1:15:00 AM 7.16 44.888 0.643 8.43 325.8 10.47
12/7/2020 1:30:00 AM 7.14 44.852 0.643 8.43 310.1 10.46
12/7/2020 1:45:00 AM 7.12 44.816 0.643 8.42 282.3 10.45
12/7/2020 2:00:00 AM 7.11 44.798 0.644 8.42 277.7 10.43
12/7/2020 2:15:00 AM 7.09 44.762 0.644 8.42 305.6 10.41
12/7/2020 2:30:00 AM 7.08 44.744 0.645 8.42 282 10.41
12/7/2020 2:45:00 AM 7.06 44.708 0.645 8.41 288.5 10.38
12/7/2020 3:00:00 AM 7.05 44.69 0.645 8.41 484.7 10.38
12/7/2020 3:15:00 AM 7.03 44.654 0.646 8.41 255.6 10.37
12/7/2020 3:30:00 AM 7.02 44.636 0.646 8.41 275.7 10.35
12/7/2020 3:45:00 AM 7.01 44.618 0.647 8.41 337 10.36
12/7/2020 4:00:00 AM 6.99 44.582 0.647 8.4 825.6 10.35
12/7/2020 4:15:00 AM 6.97 44.546 0.648 8.4 324.2 10.36
12/7/2020 4:30:00 AM 6.94 44.492 0.648 8.4 315.9 10.35
12/7/2020 4:45:00 AM 6.92 44.456 0.648 8.4 227.7 10.35
12/7/2020 5:00:00 AM 6.89 44.402 0.648 8.4 312.5 10.35
12/7/2020 5:15:00 AM 6.86 44.348 0.648 8.4 515.4 10.35
12/7/2020 5:30:00 AM 6.84 44.312 0.648 8.4 240.5 10.36
12/7/2020 5:45:00 AM 6.81 44.258 0.648 8.4 230.7 10.38
12/7/2020 6:00:00 AM 6.78 44.204 0.648 8.4 225.6 10.4
12/7/2020 6:15:00 AM 6.76 44.168 0.647 8.4 275.9 10.42
12/7/2020 6:30:00 AM 6.74 44.132 0.647 8.4 274.8 10.43
12/7/2020 6:45:00 AM 6.72 44.096 0.647 8.4 485.7 10.43
12/7/2020 7:00:00 AM 6.72 44.096 0.646 8.39 372.3 10.44
12/7/2020 7:15:00 AM 6.72 44.096 0.645 8.39 334.4 10.45
12/7/2020 7:30:00 AM 6.73 44.114 0.647 8.39 531.9 10.46
12/7/2020 7:45:00 AM 6.72 44.096 0.651 8.39 458.3 10.48
12/7/2020 8:00:00 AM 6.68 44.024 0.656 8.39 634.8 10.56
12/7/2020 8:15:00 AM 6.63 43.934 0.66 8.39 249.8 10.68
12/7/2020 8:30:00 AM 6.6 43.88 0.661 8.4 185.2 10.84
12/7/2020 8:45:00 AM 6.58 43.844 0.659 8.41 143 10.97
12/7/2020 9:00:00 AM 6.57 43.826 0.655 8.42 139.2 11.11
12/7/2020 9:15:00 AM 6.56 43.808 0.652 8.42 156.3 11.28
12/7/2020 9:30:00 AM 6.55 43.79 0.65 8.43 156.2 11.44
12/7/2020 9:45:00 AM 6.57 43.826 0.649 8.44 157.9 11.66
12/7/2020 10:00:00 AM 6.59 43.862 0.648 8.45 127.7 11.87
12/7/2020 10:15:00 AM 6.64 43.952 0.647 8.45 164.8 12.09
12/7/2020 10:30:00 AM 6.7 44.06 0.646 8.46 137.6 12.3
12/7/2020 10:45:00 AM 6.79 44.222 0.645 8.47 247.6 12.53
12/7/2020 11:00:00 AM 6.87 44.366 0.645 8.48 206.2 12.73
12/7/2020 11:15:00 AM 6.95 44.51 0.644 8.49 283.1 12.9
12/7/2020 11:30:00 AM 7.02 44.636 0.644 8.5 225.1 13.03
12/7/2020 11:45:00 AM 7.08 44.744 0.643 8.5 203.8 13.12
12/7/2020 12:00:00 PM 7.13 44.834 0.643 8.51 280.7 13.16
12/7/2020 12:15:00 PM 7.2 44.96 0.643 8.52 179.3 13.22
12/7/2020 12:30:00 PM 7.27 45.086 0.642 8.52 228.9 13.28
12/7/2020 12:45:00 PM 7.34 45.212 0.642 8.53 386.6 13.35
12/7/2020 1:00:00 PM 7.41 45.338 0.642 8.53 249.9 13.39
12/7/2020 1:15:00 PM 7.47 45.446 0.642 8.54 93.93 13.47
12/7/2020 1:30:00 PM 7.5 45.5 0.642 8.54 66.99 13.49
12/7/2020 1:45:00 PM 7.52 45.536 0.643 8.54 65.16 13.52
12/7/2020 2:00:00 PM 7.53 45.554 0.643 8.55 61.77 13.53
12/7/2020 2:15:00 PM 7.51 45.518 0.643 8.55 8.88 13.52
12/7/2020 2:30:00 PM 7.48 45.464 0.643 8.56 62.5 13.48
12/7/2020 2:45:00 PM 7.46 45.428 0.643 8.56 45.32 13.43
12/7/2020 3:00:00 PM 7.42 45.356 0.643 8.56 7.55 13.32
12/7/2020 3:15:00 PM 7.38 45.284 0.644 8.56 6.51 13.2
12/7/2020 3:30:00 PM 7.37 45.266 0.643 8.56 6.47 13.07
12/7/2020 3:45:00 PM 7.36 45.248 0.643 8.55 5.16 12.94
12/7/2020 4:00:00 PM 7.37 45.266 0.642 8.55 5.41 12.79
12/7/2020 4:15:00 PM 7.37 45.266 0.641 8.54 5.71 12.6
12/7/2020 4:30:00 PM 7.36 45.248 0.641 8.54 6.86 12.42
12/7/2020 4:45:00 PM 7.35 45.23 0.641 8.52 5.5 12.26
12/7/2020 5:00:00 PM 7.33 45.194 0.641 8.52 5.78 12.08
12/7/2020 5:15:00 PM 7.3 45.14 0.641 8.51 5.85 11.91
12/7/2020 5:30:00 PM 7.27 45.086 0.641 8.5 4.38 11.77
12/7/2020 5:45:00 PM 7.24 45.032 0.641 8.49 4.6 11.66
12/7/2020 6:00:00 PM 7.21 44.978 0.641 8.49 5.11 11.57
12/7/2020 6:15:00 PM 7.18 44.924 0.641 8.48 5.37 11.5
12/7/2020 6:30:00 PM 7.13 44.834 0.641 8.48 5.29 11.42
12/7/2020 6:45:00 PM 7.08 44.744 0.641 8.48 4.64 11.37
12/7/2020 7:00:00 PM 7 44.6 0.642 8.47 3.34 11.33
12/7/2020 7:15:00 PM 6.92 44.456 0.643 8.47 4.36 11.3
12/7/2020 7:30:00 PM 6.85 44.33 0.644 8.47 3.88 11.27
12/7/2020 7:45:00 PM 6.78 44.204 0.644 8.47 3.9 11.24
12/7/2020 8:00:00 PM 6.71 44.078 0.645 8.47 3.51 11.2
12/7/2020 8:15:00 PM 6.66 43.988 0.645 8.46 3.11 11.15
12/7/2020 8:30:00 PM 6.61 43.898 0.646 8.46 3.76 11.09
12/7/2020 8:45:00 PM 6.56 43.808 0.646 8.46 3.89 11.04
12/7/2020 9:00:00 PM 6.52 43.736 0.646 8.45 4.14 11
12/7/2020 9:15:00 PM 6.47 43.646 0.646 8.45 10.48 10.95
12/7/2020 9:30:00 PM 6.43 43.574 0.646 8.45 7.42 10.92
12/7/2020 9:45:00 PM 6.39 43.502 0.646 8.45 3.82 10.89
12/7/2020 10:00:00 PM 6.35 43.43 0.646 8.44 15.79 10.86
12/7/2020 10:15:00 PM 6.31 43.358 0.646 8.44 5.59 10.84
12/7/2020 10:30:00 PM 6.28 43.304 0.647 8.44 34.89 10.83
12/7/2020 10:45:00 PM 6.26 43.268 0.647 8.44 7.55 10.78
12/7/2020 11:00:00 PM 6.23 43.214 0.647 8.43 7.87 10.79
12/7/2020 11:15:00 PM 6.21 43.178 0.647 8.43 5.51 10.76
12/7/2020 11:30:00 PM 6.2 43.16 0.647 8.43 3.83 10.74
12/7/2020 11:45:00 PM 6.18 43.124 0.647 8.43 3.63 10.72
12/8/2020 12:00:00 AM 6.17 43.106 0.647 8.42 5.89 10.68
12/8/2020 12:15:00 AM 6.15 43.07 0.648 8.42 133.2 10.66
12/8/2020 12:30:00 AM 6.15 43.07 0.648 8.42 4.5 10.64
12/8/2020 12:45:00 AM 6.14 43.052 0.648 8.41 6.79 10.61
12/8/2020 1:00:00 AM 6.14 43.052 0.649 8.41 3.53 10.57
12/8/2020 1:15:00 AM 6.13 43.034 0.649 8.41 5.53 10.56
12/8/2020 1:30:00 AM 6.12 43.016 0.649 8.41 7.74 10.53
12/8/2020 1:45:00 AM 6.12 43.016 0.65 8.41 4.07 10.49
12/8/2020 2:00:00 AM 6.12 43.016 0.65 8.4 5.48 10.47
12/8/2020 2:15:00 AM 6.12 43.016 0.651 8.4 5.26 10.45
12/8/2020 2:30:00 AM 6.11 42.998 0.652 8.4 9.1 10.42
12/8/2020 2:45:00 AM 6.11 42.998 0.652 8.4 4.79 10.42
12/8/2020 3:00:00 AM 6.11 42.998 0.653 8.4 7.07 10.4
12/8/2020 3:15:00 AM 6.12 43.016 0.653 8.4 430.7 10.4
12/8/2020 3:30:00 AM 6.13 43.034 0.654 8.39 19.83 10.38
12/8/2020 3:45:00 AM 6.14 43.052 0.654 8.39 6.03 10.37
12/8/2020 4:00:00 AM 6.15 43.07 0.655 8.39 5.16 10.36
12/8/2020 4:15:00 AM 6.15 43.07 0.655 8.39 3.96 10.36
12/8/2020 4:30:00 AM 6.15 43.07 0.656 8.39 4.83 10.35
12/8/2020 4:45:00 AM 6.15 43.07 0.656 8.38 6.45 10.34
12/8/2020 5:00:00 AM 6.14 43.052 0.657 8.38 533.4 10.34
12/8/2020 5:15:00 AM 6.14 43.052 0.657 8.39 18.82 10.34
12/8/2020 5:30:00 AM 6.13 43.034 0.657 8.39 513.3 10.34
12/8/2020 5:45:00 AM 6.12 43.016 0.658 8.38 4.31 10.34
12/8/2020 6:00:00 AM 6.1 42.98 0.658 8.38 4.91 10.34
12/8/2020 6:15:00 AM 6.08 42.944 0.658 8.38 8.45 10.35
12/8/2020 6:30:00 AM 6.05 42.89 0.658 8.39 4.82 10.36
12/8/2020 6:45:00 AM 6.01 42.818 0.658 8.39 11.15 10.36
12/8/2020 7:00:00 AM 5.98 42.764 0.659 8.39 35.93 10.36
12/8/2020 7:15:00 AM 5.95 42.71 0.659 8.39 4.33 10.38
12/8/2020 7:30:00 AM 5.91 42.638 0.659 8.39 4.88 10.39
12/8/2020 7:45:00 AM 5.89 42.602 0.659 8.39 3.42 10.42
12/8/2020 8:00:00 AM 5.86 42.548 0.659 8.39 3.69 10.49
12/8/2020 8:15:00 AM 5.84 42.512 0.66 8.4 3.71 10.58
12/8/2020 8:30:00 AM 5.82 42.476 0.66 8.4 961.5 10.68
12/8/2020 8:45:00 AM 5.82 42.476 0.66 8.4 4.04 10.82
12/8/2020 9:00:00 AM 5.82 42.476 0.66 8.41 3.79 10.98
12/8/2020 9:15:00 AM 5.82 42.476 0.66 8.42 3.1 11.15
12/8/2020 9:30:00 AM 5.83 42.494 0.66 8.42 416.5 11.34
12/8/2020 9:45:00 AM 5.88 42.584 0.66 8.43 598.1 11.56
12/8/2020 10:00:00 AM 5.93 42.674 0.659 8.44 188.8 11.8
12/8/2020 10:15:00 AM 6 42.8 0.659 8.45 296.5 12.06
12/8/2020 10:30:00 AM 6.09 42.962 0.658 8.47 3.56 12.31
12/8/2020 10:45:00 AM 6.19 43.142 0.658 8.48 4.05 12.57
12/8/2020 11:00:00 AM 6.27 43.286 0.658 8.49 22.92 12.79
12/8/2020 11:15:00 AM 6.36 43.448 0.657 8.5 70.72 12.97
12/8/2020 11:30:00 AM 6.46 43.628 0.657 8.51 8.05 13.17
12/8/2020 11:45:00 AM 6.58 43.844 0.656 8.52 2409 13.34
12/8/2020 12:00:00 PM 6.72 44.096 0.656 8.54 259.2 13.57
12/8/2020 12:15:00 PM 6.83 44.294 0.655 8.55 532.8 13.76
12/8/2020 12:30:00 PM 6.93 44.474 0.655 8.56 54.93 13.95
12/8/2020 12:45:00 PM 6.97 44.546 0.654 8.57 3.81 14.06
12/8/2020 1:00:00 PM 7.02 44.636 0.654 8.59 2.96 14.15
12/8/2020 1:15:00 PM 7.08 44.744 0.653 8.6 3.12 14.25
12/8/2020 1:30:00 PM 7.14 44.852 0.653 8.61 2.78 14.34
12/8/2020 1:45:00 PM 7.15 44.87 0.653 8.62 3.06 14.39
12/8/2020 2:00:00 PM 7.13 44.834 0.652 8.63 3.4 14.38
12/8/2020 2:15:00 PM 7.09 44.762 0.652 8.64 3.68 14.32
12/8/2020 2:30:00 PM 7.08 44.744 0.652 8.64 4.17 14.28
12/8/2020 2:45:00 PM 7.07 44.726 0.652 8.65 7.8 14.17
12/8/2020 3:00:00 PM 7.04 44.672 0.653 8.65 4.06 14.01
12/8/2020 3:15:00 PM 7.04 44.672 0.653 8.65 4.35 13.88
12/8/2020 3:30:00 PM 7.03 44.654 0.654 8.65 5.69 13.74
12/8/2020 3:45:00 PM 7.03 44.654 0.654 8.65 4.97 13.6
12/8/2020 4:00:00 PM 7.03 44.654 0.653 8.64 4.91 13.41
12/8/2020 4:15:00 PM 7.02 44.636 0.651 8.63 9.34 13.22
12/8/2020 4:30:00 PM 7.02 44.636 0.649 8.63 5.87 13.03
12/8/2020 4:45:00 PM 7.03 44.654 0.647 8.62 5.5 12.86
12/8/2020 5:00:00 PM 7.03 44.654 0.646 8.61 5.3 12.66
12/8/2020 5:15:00 PM 7.01 44.618 0.646 8.6 5.12 12.48
12/8/2020 5:30:00 PM 6.97 44.546 0.647 8.6 10.07 12.33
12/8/2020 5:45:00 PM 6.93 44.474 0.647 8.59 8.98 12.19
12/8/2020 6:00:00 PM 6.9 44.42 0.647 8.58 4.57 12.08
12/8/2020 6:15:00 PM 6.86 44.348 0.648 8.57 5.31 11.98
12/8/2020 6:30:00 PM 6.85 44.33 0.648 8.57 16.39 11.9
12/8/2020 6:45:00 PM 6.83 44.294 0.648 8.56 5.43 11.85
12/8/2020 7:00:00 PM 6.81 44.258 0.648 8.56 8.49 11.77
12/8/2020 7:15:00 PM 6.81 44.258 0.648 8.55 8.49 11.72
12/8/2020 7:30:00 PM 6.8 44.24 0.647 8.54 32.27 11.64
12/8/2020 7:45:00 PM 6.8 44.24 0.647 8.54 5.75 11.57
12/8/2020 8:00:00 PM 6.81 44.258 0.646 8.53 7.43 11.49
12/8/2020 8:15:00 PM 6.82 44.276 0.645 8.53 6.13 11.41
12/8/2020 8:30:00 PM 6.83 44.294 0.644 8.52 4.81 11.35
12/8/2020 8:45:00 PM 6.83 44.294 0.643 8.52 6.36 11.3
12/8/2020 9:00:00 PM 6.82 44.276 0.643 8.51 9.12 11.25
12/8/2020 9:15:00 PM 6.79 44.222 0.643 8.51 6.63 11.2
12/8/2020 9:30:00 PM 6.75 44.15 0.644 8.51 5.83 11.16
12/8/2020 9:45:00 PM 6.71 44.078 0.645 8.5 6.14 11.13
12/8/2020 10:00:00 PM 6.68 44.024 0.645 8.5 4.88 11.1
12/8/2020 10:15:00 PM 6.65 43.97 0.646 8.49 7.36 11.07
12/8/2020 10:30:00 PM 6.64 43.952 0.646 8.49 5.02 11.02
12/8/2020 10:45:00 PM 6.62 43.916 0.647 8.49 30.98 10.96
12/8/2020 11:00:00 PM 6.64 43.952 0.647 8.48 8.55 10.93
12/8/2020 11:15:00 PM 6.67 44.006 0.646 8.48 8.1 10.91
12/8/2020 11:30:00 PM 6.7 44.06 0.645 8.47 7.25 10.88
12/8/2020 11:45:00 PM 6.72 44.096 0.644 8.47 7.27 10.86
12/9/2020 12:00:00 AM 6.73 44.114 0.644 8.46 8.6 10.85
12/9/2020 12:15:00 AM 6.74 44.132 0.644 8.46 11.01 10.82
12/9/2020 12:30:00 AM 6.74 44.132 0.644 8.46 6.76 10.81
12/9/2020 12:45:00 AM 6.73 44.114 0.644 8.45 8.22 10.79
12/9/2020 1:00:00 AM 6.72 44.096 0.644 8.45 5.74 10.78
12/9/2020 1:15:00 AM 6.72 44.096 0.644 8.45 6.6 10.76
12/9/2020 1:30:00 AM 6.72 44.096 0.643 8.45 5.93 10.72
12/9/2020 1:45:00 AM 6.73 44.114 0.643 8.44 5.38 10.7
12/9/2020 2:00:00 AM 6.74 44.132 0.643 8.44 8.47 10.68
12/9/2020 2:15:00 AM 6.75 44.15 0.643 8.44 6.67 10.64
12/9/2020 2:30:00 AM 6.77 44.186 0.643 8.44 5.62 10.62
12/9/2020 2:45:00 AM 6.77 44.186 0.643 8.43 8.02 10.59
12/9/2020 3:00:00 AM 6.76 44.168 0.643 8.43 7.31 10.56
12/9/2020 3:15:00 AM 6.76 44.168 0.643 8.43 8.06 10.55
12/9/2020 3:30:00 AM 6.76 44.168 0.644 8.43 6.64 10.52
12/9/2020 3:45:00 AM 6.75 44.15 0.644 8.43 7.02 10.53
12/9/2020 4:00:00 AM 6.75 44.15 0.643 8.42 7.72 10.51
12/9/2020 4:15:00 AM 6.75 44.15 0.643 8.42 7.61 10.51
12/9/2020 4:30:00 AM 6.75 44.15 0.643 8.42 8.84 10.52
12/9/2020 4:45:00 AM 6.74 44.132 0.643 8.42 9.13 10.53
12/9/2020 5:00:00 AM 6.73 44.114 0.643 8.42 8.82 10.53
12/9/2020 5:15:00 AM 6.73 44.114 0.644 8.42 7.71 10.54
12/9/2020 5:30:00 AM 6.73 44.114 0.644 8.41 6.93 10.54
12/9/2020 5:45:00 AM 6.72 44.096 0.644 8.42 8.12 10.55
12/9/2020 6:00:00 AM 6.72 44.096 0.643 8.41 7.46 10.53
12/9/2020 6:15:00 AM 6.73 44.114 0.643 8.41 6.55 10.54
12/9/2020 6:30:00 AM 6.73 44.114 0.644 8.42 9.81 10.54
12/9/2020 6:45:00 AM 6.73 44.114 0.644 8.41 9.75 10.53
12/9/2020 7:00:00 AM 6.73 44.114 0.643 8.41 6.71 10.51
12/9/2020 7:15:00 AM 6.73 44.114 0.643 8.41 8.6 10.5
12/9/2020 7:30:00 AM 6.72 44.096 0.644 8.41 6.52 10.5
12/9/2020 7:45:00 AM 6.72 44.096 0.643 8.41 6.32 10.49
12/9/2020 8:00:00 AM 6.73 44.114 0.643 8.41 12.31 10.51
12/9/2020 8:15:00 AM 6.73 44.114 0.643 8.41 19.16 10.54
12/9/2020 8:30:00 AM 6.74 44.132 0.643 8.41 40.83 10.58
12/9/2020 8:45:00 AM 6.75 44.15 0.643 8.41 7.93 10.62
12/9/2020 9:00:00 AM 6.76 44.168 0.643 8.41 1109 10.71
12/9/2020 9:15:00 AM 6.77 44.186 0.643 8.42 5.02 10.79
12/9/2020 9:30:00 AM 6.78 44.204 0.643 8.42 4.1 10.88
12/9/2020 9:45:00 AM 6.8 44.24 0.643 8.42 3.55 10.97
12/9/2020 10:00:00 AM 6.81 44.258 0.644 8.43 3.2 11.03
12/9/2020 10:15:00 AM 6.76 44.168 0.643 8.43 3.86 11.08
12/9/2020 10:30:00 AM 6.74 44.132 0.643 8.43 3.52 11.16
12/9/2020 10:45:00 AM 6.77 44.186 0.643 8.44 3.45 11.3
12/9/2020 11:00:00 AM 6.79 44.222 0.643 8.45 3.36 11.44
12/9/2020 11:15:00 AM 6.8 44.24 0.643 8.46 3.46 11.56
12/9/2020 11:30:00 AM 6.85 44.33 0.643 8.46 3.28 11.75
12/9/2020 11:45:00 AM 6.91 44.438 0.643 8.47 3.97 11.93
12/9/2020 12:00:00 PM 6.95 44.51 0.643 8.47 4.49 12.09
12/9/2020 12:15:00 PM 6.99 44.582 0.642 8.48 3.4 12.22
12/9/2020 12:30:00 PM 7.03 44.654 0.642 8.49 3.55 12.32
12/9/2020 12:45:00 PM 7.08 44.744 0.642 8.5 4.09 12.45
12/9/2020 1:00:00 PM 7.12 44.816 0.642 8.51 3.71 12.57
12/9/2020 1:15:00 PM 7.17 44.906 0.642 8.52 4.1 12.72
12/9/2020 1:30:00 PM 7.21 44.978 0.642 8.53 3.86 12.83
12/9/2020 1:45:00 PM 7.25 45.05 0.642 8.53 3.67 12.91
12/9/2020 2:00:00 PM 7.29 45.122 0.642 8.54 3.07 12.97
12/9/2020 2:15:00 PM 7.33 45.194 0.642 8.54 3.96 13.03
12/9/2020 2:30:00 PM 7.35 45.23 0.642 8.55 4.13 13.06
12/9/2020 2:45:00 PM 7.37 45.266 0.641 8.55 3.51 13.09
12/9/2020 3:00:00 PM 7.39 45.302 0.641 8.56 3.52 13.16
12/9/2020 3:15:00 PM 7.41 45.338 0.641 8.57 3.43 13.17
12/9/2020 3:30:00 PM 7.42 45.356 0.641 8.57 3.33 13.09
12/9/2020 3:45:00 PM 7.43 45.374 0.642 8.57 3.15 13.02
12/9/2020 4:00:00 PM 7.44 45.392 0.642 8.57 3.55 12.95
12/9/2020 4:15:00 PM 7.44 45.392 0.642 8.57 3.38 12.82
12/9/2020 4:30:00 PM 7.44 45.392 0.642 8.56 3.65 12.64
12/9/2020 4:45:00 PM 7.44 45.392 0.642 8.56 3.79 12.5
12/9/2020 5:00:00 PM 7.42 45.356 0.643 8.55 3.51 12.34
12/9/2020 5:15:00 PM 7.41 45.338 0.643 8.55 4.71 12.2
12/9/2020 5:30:00 PM 7.4 45.32 0.643 8.54 3.38 12.06
12/9/2020 5:45:00 PM 7.39 45.302 0.643 8.53 5.5 11.93
12/9/2020 6:00:00 PM 7.37 45.266 0.644 8.53 6.74 11.84
12/9/2020 6:15:00 PM 7.35 45.23 0.645 8.52 3.99 11.75
12/9/2020 6:30:00 PM 7.32 45.176 0.645 8.52 3.31 11.68
12/9/2020 6:45:00 PM 7.3 45.14 0.646 8.51 3.96 11.61
12/9/2020 7:00:00 PM 7.28 45.104 0.647 8.51 4.46 11.53
12/9/2020 7:15:00 PM 7.27 45.086 0.647 8.5 3.59 11.47
12/9/2020 7:30:00 PM 7.26 45.068 0.648 8.5 3.98 11.4
12/9/2020 7:45:00 PM 7.27 45.086 0.648 8.5 3.63 11.34
12/9/2020 8:00:00 PM 7.29 45.122 0.647 8.49 3.19 11.26
12/9/2020 8:15:00 PM 7.32 45.176 0.646 8.48 2.94 11.2
12/9/2020 8:30:00 PM 7.35 45.23 0.646 8.48 4.34 11.15
12/9/2020 8:45:00 PM 7.38 45.284 0.645 8.47 3.39 11.12
12/9/2020 9:00:00 PM 7.4 45.32 0.645 8.47 4.06 11.08
12/9/2020 9:15:00 PM 7.42 45.356 0.644 8.46 3.72 11.05
12/9/2020 9:30:00 PM 7.43 45.374 0.644 8.46 4.14 11.02
12/9/2020 9:45:00 PM 7.44 45.392 0.645 8.46 3.83 10.98
12/9/2020 10:00:00 PM 7.45 45.41 0.645 8.45 4.21 10.96
12/9/2020 10:15:00 PM 7.47 45.446 0.645 8.45 3.96 10.92
12/9/2020 10:30:00 PM 7.47 45.446 0.644 8.45 4.16 10.91
12/9/2020 10:45:00 PM 7.48 45.464 0.645 8.45 3.82 10.88
12/9/2020 11:00:00 PM 7.49 45.482 0.645 8.44 3.79 10.85
12/9/2020 11:15:00 PM 7.5 45.5 0.644 8.44 4.48 10.83
12/9/2020 11:30:00 PM 7.51 45.518 0.645 8.44 4.9 10.8
12/9/2020 11:45:00 PM 7.52 45.536 0.645 8.44 4.53 10.78
12/10/2020 12:00:00 AM 7.52 45.536 0.644 8.44 5.13 10.75
12/10/2020 12:15:00 AM 7.53 45.554 0.644 8.43 5.19 10.74
12/10/2020 12:30:00 AM 7.54 45.572 0.644 8.43 4.37 10.71
12/10/2020 12:45:00 AM 7.55 45.59 0.644 8.43 3.94 10.68
12/10/2020 1:00:00 AM 7.56 45.608 0.644 8.42 5.48 10.65
12/10/2020 1:15:00 AM 7.57 45.626 0.644 8.42 4.27 10.62
12/10/2020 1:30:00 AM 7.59 45.662 0.644 8.42 4.04 10.59
12/10/2020 1:45:00 AM 7.6 45.68 0.644 8.41 4.18 10.56
12/10/2020 2:00:00 AM 7.61 45.698 0.645 8.41 5.3 10.54
12/10/2020 2:15:00 AM 7.63 45.734 0.644 8.41 4.98 10.53
12/10/2020 2:30:00 AM 7.64 45.752 0.645 8.41 6.62 10.5
12/10/2020 2:45:00 AM 7.65 45.77 0.645 8.4 6.24 10.48
12/10/2020 3:00:00 AM 7.66 45.788 0.645 8.4 4.96 10.48
12/10/2020 3:15:00 AM 7.68 45.824 0.645 8.4 7.47 10.46
12/10/2020 3:30:00 AM 7.69 45.842 0.645 8.4 5.9 10.46
12/10/2020 3:45:00 AM 7.7 45.86 0.645 8.39 5.37 10.43
12/10/2020 4:00:00 AM 7.71 45.878 0.645 8.39 4.71 10.44
12/10/2020 4:15:00 AM 7.71 45.878 0.645 8.39 5.26 10.42
12/10/2020 4:30:00 AM 7.69 45.842 0.645 8.39 6.35 10.42
12/10/2020 4:45:00 AM 7.67 45.806 0.645 8.39 6.61 10.41
12/10/2020 5:00:00 AM 7.65 45.77 0.645 8.39 5.78 10.41
12/10/2020 5:15:00 AM 7.62 45.716 0.644 8.39 6.94 10.4
12/10/2020 5:30:00 AM 7.6 45.68 0.644 8.39 8.63 10.41
12/10/2020 5:45:00 AM 7.59 45.662 0.644 8.39 5.89 10.4
12/10/2020 6:00:00 AM 7.57 45.626 0.644 8.39 6.44 10.41
12/10/2020 6:15:00 AM 7.55 45.59 0.644 8.39 4.94 10.4
12/10/2020 6:30:00 AM 7.54 45.572 0.644 8.39 7.05 10.41
12/10/2020 6:45:00 AM 7.52 45.536 0.644 8.39 6.57 10.42
12/10/2020 7:00:00 AM 7.5 45.5 0.644 8.39 5.66 10.41
12/10/2020 7:15:00 AM 7.49 45.482 0.644 8.39 5.22 10.43
12/10/2020 7:30:00 AM 7.49 45.482 0.644 8.39 5.21 10.43
12/10/2020 7:45:00 AM 7.5 45.5 0.643 8.39 4.38 10.47
12/10/2020 8:00:00 AM 7.51 45.518 0.643 8.39 4.48 10.55
12/10/2020 8:15:00 AM 7.53 45.554 0.643 8.39 3.82 10.67
12/10/2020 8:30:00 AM 7.56 45.608 0.643 8.4 3.98 10.78
12/10/2020 8:45:00 AM 7.59 45.662 0.642 8.4 4.46 10.94
12/10/2020 9:00:00 AM 7.62 45.716 0.642 8.41 4.11 11.12
12/10/2020 9:15:00 AM 7.65 45.77 0.642 8.41 3.53 11.32
12/10/2020 9:30:00 AM 7.7 45.86 0.642 8.43 3.54 11.57
12/10/2020 9:45:00 AM 7.72 45.896 0.641 8.44 3.62 11.79
12/10/2020 10:00:00 AM 7.74 45.932 0.641 8.45 2.99 11.96
12/10/2020 10:15:00 AM 7.77 45.986 0.642 8.46 2.85 12.16
12/10/2020 10:30:00 AM 7.82 46.076 0.642 8.48 2.77 12.44
12/10/2020 10:45:00 AM 7.87 46.166 0.643 8.49 2.98 12.67
12/10/2020 11:00:00 AM 7.95 46.31 0.643 8.5 5.02 12.91
12/10/2020 11:15:00 AM 8.04 46.472 0.643 8.51 3.01 13.22
12/10/2020 11:30:00 AM 8.12 46.616 0.642 8.53 3.11 13.45
12/10/2020 11:45:00 AM 8.2 46.76 0.642 8.54 2.98 13.64
12/10/2020 12:00:00 PM 8.28 46.904 0.642 8.55 2.79 13.83
12/10/2020 12:15:00 PM 8.33 46.994 0.641 8.57 3.07 13.93
12/10/2020 12:30:00 PM 8.39 47.102 0.641 8.58 3.38 14.02
12/10/2020 12:45:00 PM 8.48 47.264 0.641 8.59 4.02 14.17
12/10/2020 1:00:00 PM 8.54 47.372 0.64 8.6 3.95 14.21
12/10/2020 1:15:00 PM 8.6 47.48 0.64 8.6 3.97 14.27
12/10/2020 1:30:00 PM 8.66 47.588 0.64 8.61 3.75 14.33
12/10/2020 1:45:00 PM 8.73 47.714 0.64 8.62 3.01 14.37
12/10/2020 2:00:00 PM 8.78 47.804 0.64 8.62 3.38 14.36
12/10/2020 2:15:00 PM 8.81 47.858 0.64 8.62 2.7 14.35
12/10/2020 2:30:00 PM 8.83 47.894 0.64 8.63 2.96 14.31
12/10/2020 2:45:00 PM 8.84 47.912 0.639 8.63 3.18 14.24
12/10/2020 3:00:00 PM 8.84 47.912 0.639 8.63 3.04 14.14
12/10/2020 3:15:00 PM 8.82 47.876 0.638 8.63 3.4 14
12/10/2020 3:30:00 PM 8.8 47.84 0.638 8.63 3.39 13.84
12/10/2020 3:45:00 PM 8.76 47.768 0.638 8.63 4.9 13.65
12/10/2020 4:00:00 PM 8.72 47.696 0.638 8.63 2.99 13.47
12/10/2020 4:15:00 PM 8.68 47.624 0.639 8.62 3.38 13.28
12/10/2020 4:30:00 PM 8.64 47.552 0.639 8.62 3.63 13.06
12/10/2020 4:45:00 PM 8.6 47.48 0.639 8.61 3.69 12.85
12/10/2020 5:00:00 PM 8.57 47.426 0.639 8.6 3.29 12.63
12/10/2020 5:15:00 PM 8.54 47.372 0.639 8.59 6.54 12.42
12/10/2020 5:30:00 PM 8.5 47.3 0.64 8.58 4.2 12.23
12/10/2020 5:45:00 PM 8.47 47.246 0.64 8.57 4.12 12.04
12/10/2020 6:00:00 PM 8.44 47.192 0.64 8.56 3.09 11.93
12/10/2020 6:15:00 PM 8.41 47.138 0.64 8.55 4.12 11.83
12/10/2020 6:30:00 PM 8.38 47.084 0.641 8.54 3.64 11.72
12/10/2020 6:45:00 PM 8.36 47.048 0.641 8.53 3.93 11.64
12/10/2020 7:00:00 PM 8.33 46.994 0.641 8.53 5.81 11.57
12/10/2020 7:15:00 PM 8.29 46.922 0.641 8.52 3.42 11.5
12/10/2020 7:30:00 PM 8.26 46.868 0.642 8.52 4.24 11.43
12/10/2020 7:45:00 PM 8.22 46.796 0.642 8.51 15.28 11.36
12/10/2020 8:00:00 PM 8.18 46.724 0.642 8.51 5.57 11.29
12/10/2020 8:15:00 PM 8.14 46.652 0.642 8.5 5.55 11.24
12/10/2020 8:30:00 PM 8.1 46.58 0.642 8.5 3.48 11.19
12/10/2020 8:45:00 PM 8.06 46.508 0.642 8.5 4.19 11.12
12/10/2020 9:00:00 PM 8.02 46.436 0.643 8.5 4.34 11.07
12/10/2020 9:15:00 PM 7.98 46.364 0.643 8.49 3.86 11.03
12/10/2020 9:30:00 PM 7.94 46.292 0.643 8.49 4.09 11
12/10/2020 9:45:00 PM 7.9 46.22 0.643 8.48 3.37 10.95
12/10/2020 10:00:00 PM 7.86 46.148 0.643 8.48 3.82 10.92
12/10/2020 10:15:00 PM 7.82 46.076 0.643 8.48 4.19 10.88
12/10/2020 10:30:00 PM 7.79 46.022 0.643 8.48 6 10.87
12/10/2020 10:45:00 PM 7.75 45.95 0.643 8.48 3.84 10.84
12/10/2020 11:00:00 PM 7.72 45.896 0.643 8.47 4.05 10.81
12/10/2020 11:15:00 PM 7.69 45.842 0.643 8.47 4.7 10.78
12/10/2020 11:30:00 PM 7.66 45.788 0.643 8.47 3.92 10.77
12/10/2020 11:45:00 PM 7.63 45.734 0.643 8.47 4.4 10.74
12/11/2020 12:00:00 AM 7.61 45.698 0.643 8.46 4.11 10.71
12/11/2020 12:15:00 AM 7.58 45.644 0.644 8.46 7.44 10.69
12/11/2020 12:30:00 AM 7.55 45.59 0.643 8.46 4.61 10.67
12/11/2020 12:45:00 AM 7.53 45.554 0.644 8.46 5.8 10.66
12/11/2020 1:00:00 AM 7.5 45.5 0.644 8.45 3.78 10.63
12/11/2020 1:15:00 AM 7.47 45.446 0.644 8.45 4.21 10.63
12/11/2020 1:30:00 AM 7.45 45.41 0.644 8.45 5.8 10.6
12/11/2020 1:45:00 AM 7.42 45.356 0.644 8.45 4.22 10.59
12/11/2020 2:00:00 AM 7.39 45.302 0.644 8.44 5.42 10.57
12/11/2020 2:15:00 AM 7.36 45.248 0.644 8.44 6.85 10.57
12/11/2020 2:30:00 AM 7.33 45.194 0.644 8.44 4.49 10.57
12/11/2020 2:45:00 AM 7.3 45.14 0.644 8.44 5.47 10.57
12/11/2020 3:00:00 AM 7.28 45.104 0.644 8.43 3.99 10.57
12/11/2020 3:15:00 AM 7.26 45.068 0.644 8.43 4.91 10.57
12/11/2020 3:30:00 AM 7.23 45.014 0.644 8.43 5.45 10.55
12/11/2020 3:45:00 AM 7.21 44.978 0.644 8.43 4.63 10.55
12/11/2020 4:00:00 AM 7.19 44.942 0.644 8.43 5.89 10.55
12/11/2020 4:15:00 AM 7.16 44.888 0.642 8.43 5.61 10.54
12/11/2020 4:30:00 AM 7.15 44.87 0.643 8.42 4.32 10.53
12/11/2020 4:45:00 AM 7.13 44.834 0.643 8.42 4.37 10.53
12/11/2020 5:00:00 AM 7.11 44.798 0.643 8.42 6.32 10.53
12/11/2020 5:15:00 AM 7.1 44.78 0.643 8.42 6.97 10.52
12/11/2020 5:30:00 AM 7.08 44.744 0.643 8.41 6.45 10.52
12/11/2020 5:45:00 AM 7.07 44.726 0.643 8.41 4.98 10.52
12/11/2020 6:00:00 AM 7.06 44.708 0.643 8.41 7.39 10.52
12/11/2020 6:15:00 AM 7.04 44.672 0.643 8.41 5.26 10.53
12/11/2020 6:30:00 AM 7.02 44.636 0.643 8.41 4.74 10.52
12/11/2020 6:45:00 AM 7.01 44.618 0.643 8.41 4.17 10.53
12/11/2020 7:00:00 AM 6.99 44.582 0.643 8.41 4.34 10.53
12/11/2020 7:15:00 AM 6.97 44.546 0.643 8.4 4.44 10.54
12/11/2020 7:30:00 AM 6.95 44.51 0.643 8.4 4.76 10.55
12/11/2020 7:45:00 AM 6.93 44.474 0.643 8.4 3.65 10.6
12/11/2020 8:00:00 AM 6.92 44.456 0.642 8.4 5.06 10.68
12/11/2020 8:15:00 AM 6.9 44.42 0.642 8.41 5.38 10.78
12/11/2020 8:30:00 AM 6.89 44.402 0.642 8.41 6.07 10.94
12/11/2020 8:45:00 AM 6.88 44.384 0.642 8.42 4.2 11.12
12/11/2020 9:00:00 AM 6.89 44.402 0.641 8.42 4.53 11.33
12/11/2020 9:15:00 AM 6.9 44.42 0.641 8.43 6.48 11.54
12/11/2020 9:30:00 AM 6.92 44.456 0.641 8.45 3.96 11.8
12/11/2020 9:45:00 AM 6.95 44.51 0.641 8.46 3.65 12.09
12/11/2020 10:00:00 AM 6.97 44.546 0.642 8.47 4.06 12.36
12/11/2020 10:15:00 AM 7 44.6 0.643 8.49 5.21 12.62
12/11/2020 10:30:00 AM 7.04 44.672 0.643 8.5 4.05 12.89
12/11/2020 10:45:00 AM 7.09 44.762 0.644 8.51 4.82 13.13
12/11/2020 11:00:00 AM 7.15 44.87 0.644 8.53 3.96 13.38
12/11/2020 11:15:00 AM 7.23 45.014 0.645 8.54 4.93 13.6
12/11/2020 11:30:00 AM 7.33 45.194 0.645 8.55 31.82 13.83
12/11/2020 11:45:00 AM 7.43 45.374 0.644 8.57 7.79 14.06
12/11/2020 12:00:00 PM 7.53 45.554 0.644 8.58 7.53 14.25
12/11/2020 12:15:00 PM 7.63 45.734 0.644 8.59 7.03 14.42
12/11/2020 12:30:00 PM 7.74 45.932 0.644 8.6 2.56 14.59
12/11/2020 12:45:00 PM 7.83 46.094 0.643 8.62 3.17 14.72
12/11/2020 1:00:00 PM 7.9 46.22 0.643 8.63 3.79 14.83
12/11/2020 1:15:00 PM 7.99 46.382 0.643 8.64 5.21 14.94
12/11/2020 1:30:00 PM 8.07 46.526 0.642 8.65 3.21 15.08
12/11/2020 1:45:00 PM 8.14 46.652 0.642 8.66 3.56 15.21
12/11/2020 2:00:00 PM 8.2 46.76 0.642 8.67 2.97 15.29
12/11/2020 2:15:00 PM 8.23 46.814 0.641 8.68 2.95 15.36
12/11/2020 2:30:00 PM 8.24 46.832 0.641 8.68 2.55 15.33
12/11/2020 2:45:00 PM 8.25 46.85 0.641 8.69 3.15 15.27
12/11/2020 3:00:00 PM 8.26 46.868 0.641 8.7 2.41 15.22
12/11/2020 3:15:00 PM 8.26 46.868 0.641 8.7 2.69 15.15
12/11/2020 3:30:00 PM 8.25 46.85 0.64 8.7 2.97 15.05
12/11/2020 3:45:00 PM 8.22 46.796 0.641 8.7 2.74 14.86
12/11/2020 4:00:00 PM 8.21 46.778 0.641 8.7 3.34 14.69
12/11/2020 4:15:00 PM 8.2 46.76 0.642 8.69 2.7 14.48
12/11/2020 4:30:00 PM 8.19 46.742 0.642 8.69 2.79 14.25
12/11/2020 4:45:00 PM 8.18 46.724 0.643 8.68 2.69 13.99
12/11/2020 5:00:00 PM 8.17 46.706 0.643 8.67 2.65 13.7
12/11/2020 5:15:00 PM 8.16 46.688 0.644 8.65 2.85 13.4
12/11/2020 5:30:00 PM 8.15 46.67 0.645 8.64 3.3 13.16
12/11/2020 5:45:00 PM 8.13 46.634 0.645 8.62 3.73 12.92
12/11/2020 6:00:00 PM 8.11 46.598 0.646 8.61 2.8 12.7
12/11/2020 6:15:00 PM 8.1 46.58 0.647 8.59 3.78 12.51
12/11/2020 6:30:00 PM 8.08 46.544 0.647 8.59 4.25 12.36
12/11/2020 6:45:00 PM 8.07 46.526 0.647 8.57 3.99 12.22
12/11/2020 7:00:00 PM 8.05 46.49 0.647 8.56 3.35 12.11
12/11/2020 7:15:00 PM 8.04 46.472 0.648 8.55 3.81 11.99
12/11/2020 7:30:00 PM 8.02 46.436 0.648 8.55 4.18 11.87
12/11/2020 7:45:00 PM 8 46.4 0.649 8.54 3.39 11.78
12/11/2020 8:00:00 PM 7.98 46.364 0.649 8.53 2.77 11.67
12/11/2020 8:15:00 PM 7.96 46.328 0.649 8.52 3.14 11.57
12/11/2020 8:30:00 PM 7.94 46.292 0.649 8.52 4.58 11.48
12/11/2020 8:45:00 PM 7.92 46.256 0.65 8.51 4.17 11.39
12/11/2020 9:00:00 PM 7.9 46.22 0.65 8.5 3.65 11.33
12/11/2020 9:15:00 PM 7.87 46.166 0.65 8.5 3.41 11.23
12/11/2020 9:30:00 PM 7.85 46.13 0.65 8.49 3.47 11.14
12/11/2020 9:45:00 PM 7.83 46.094 0.65 8.49 3.65 11.09
12/11/2020 10:00:00 PM 7.8 46.04 0.651 8.48 3.83 11.04
12/11/2020 10:15:00 PM 7.78 46.004 0.651 8.48 3.32 10.96
12/11/2020 10:30:00 PM 7.76 45.968 0.651 8.47 4 10.91
12/11/2020 10:45:00 PM 7.73 45.914 0.651 8.47 3.15 10.86
12/11/2020 11:00:00 PM 7.71 45.878 0.651 8.47 3.21 10.81
12/11/2020 11:15:00 PM 7.69 45.842 0.651 8.46 3.33 10.76
12/11/2020 11:30:00 PM 7.66 45.788 0.651 8.46 2.99 10.72
12/11/2020 11:45:00 PM 7.64 45.752 0.652 8.45 3.56 10.68
12/12/2020 12:00:00 AM 7.62 45.716 0.652 8.45 4.02 10.63
12/12/2020 12:15:00 AM 7.59 45.662 0.652 8.45 3.4 10.6
12/12/2020 12:30:00 AM 7.57 45.626 0.652 8.44 3.43 10.57
12/12/2020 12:45:00 AM 7.55 45.59 0.652 8.44 3.64 10.53
12/12/2020 1:00:00 AM 7.53 45.554 0.652 8.44 3.35 10.49
12/12/2020 1:15:00 AM 7.5 45.5 0.652 8.43 4.3 10.47
12/12/2020 1:30:00 AM 7.48 45.464 0.652 8.43 3.73 10.42
12/12/2020 1:45:00 AM 7.46 45.428 0.652 8.43 4.4 10.38
12/12/2020 2:00:00 AM 7.44 45.392 0.653 8.43 4.45 10.36
12/12/2020 2:15:00 AM 7.42 45.356 0.653 8.42 4.27 10.34
12/12/2020 2:30:00 AM 7.4 45.32 0.653 8.42 2248 10.32
12/12/2020 2:45:00 AM 7.39 45.302 0.653 8.42 2623 10.3
12/12/2020 3:00:00 AM 7.37 45.266 0.653 8.42 455.6 10.28
12/12/2020 3:15:00 AM 7.36 45.248 0.653 8.41 142.7 10.26
12/12/2020 3:30:00 AM 7.34 45.212 0.654 8.41 1602 10.26
12/12/2020 3:45:00 AM 7.32 45.176 0.654 8.41 2952 10.24
12/12/2020 4:00:00 AM 7.3 45.14 0.653 8.4 703.2 10.21
12/12/2020 4:15:00 AM 7.29 45.122 0.654 8.4 908.6 10.22
12/12/2020 4:30:00 AM 7.28 45.104 0.654 8.4 70.86 10.22
12/12/2020 4:45:00 AM 7.26 45.068 0.654 8.4 813 10.19
12/12/2020 5:00:00 AM 7.25 45.05 0.655 8.4 154.5 10.21
12/12/2020 5:15:00 AM 7.23 45.014 0.655 8.4 1212 10.18
12/12/2020 5:30:00 AM 7.22 44.996 0.655 8.39 647.6 10.19
12/12/2020 5:45:00 AM 7.2 44.96 0.655 8.39 331.9 10.17
12/12/2020 6:00:00 AM 7.19 44.942 0.655 8.39 331 10.18
12/12/2020 6:15:00 AM 7.18 44.924 0.656 8.39 13.09 10.17
12/12/2020 6:30:00 AM 7.19 44.942 0.656 8.38 4.39 10.16
12/12/2020 6:45:00 AM 7.21 44.978 0.656 8.38 331.4 10.17
12/12/2020 7:00:00 AM 7.23 45.014 0.656 8.38 913 10.17
12/12/2020 7:15:00 AM 7.24 45.032 0.656 8.37 4.92 10.17
12/12/2020 7:30:00 AM 7.25 45.05 0.656 8.37 52.21 10.18
12/12/2020 7:45:00 AM 7.27 45.086 0.656 8.37 4.32 10.18
12/12/2020 8:00:00 AM 7.29 45.122 0.656 8.37 3.12 10.21
12/12/2020 8:15:00 AM 7.3 45.14 0.656 8.37 3.43 10.26
12/12/2020 8:30:00 AM 7.33 45.194 0.656 8.37 3.57 10.36
12/12/2020 8:45:00 AM 7.37 45.266 0.656 8.37 3.93 10.48
12/12/2020 9:00:00 AM 7.4 45.32 0.656 8.37 3.53 10.61
12/12/2020 9:15:00 AM 7.44 45.392 0.656 8.38 4.21 10.75
12/12/2020 9:30:00 AM 7.47 45.446 0.656 8.38 3.77 10.9
12/12/2020 9:45:00 AM 7.49 45.482 0.657 8.39 4.19 11
12/12/2020 10:00:00 AM 7.53 45.554 0.656 8.39 4.08 11.16
12/12/2020 10:15:00 AM 7.59 45.662 0.654 8.4 4.82 11.37
12/12/2020 10:30:00 AM 7.67 45.806 0.651 8.41 5.1 11.62
12/12/2020 10:45:00 AM 7.76 45.968 0.648 8.42 4.24 11.82
12/12/2020 11:00:00 AM 7.86 46.148 0.647 8.43 3.69 11.98
12/12/2020 11:15:00 AM 7.95 46.31 0.646 8.44 3.73 12.15
12/12/2020 11:30:00 AM 8.04 46.472 0.645 8.45 3.59 12.29
12/12/2020 11:45:00 AM 8.11 46.598 0.645 8.46 3.39 12.4
12/12/2020 12:00:00 PM 8.19 46.742 0.644 8.47 4.73 12.52
12/12/2020 12:15:00 PM 8.26 46.868 0.644 8.47 3.51 12.61
12/12/2020 12:30:00 PM 8.32 46.976 0.644 8.48 3.62 12.68
12/12/2020 12:45:00 PM 8.37 47.066 0.643 8.49 4.9 12.76
12/12/2020 1:00:00 PM 8.42 47.156 0.643 8.5 3.26 12.76
12/12/2020 1:15:00 PM 8.47 47.246 0.643 8.5 3.92 12.79
12/12/2020 1:30:00 PM 8.52 47.336 0.643 8.51 3.91 12.83
12/12/2020 1:45:00 PM 8.57 47.426 0.643 8.51 3.57 12.86
12/12/2020 2:00:00 PM 8.61 47.498 0.643 8.52 3.94 12.88
12/12/2020 2:15:00 PM 8.67 47.606 0.643 8.52 3.71 13
12/12/2020 2:30:00 PM 8.72 47.696 0.643 8.53 3.7 13.13
12/12/2020 2:45:00 PM 8.78 47.804 0.642 8.54 3.89 13.3
12/12/2020 3:00:00 PM 8.82 47.876 0.642 8.55 3.38 13.45
12/12/2020 3:15:00 PM 8.84 47.912 0.642 8.56 3.53 13.47
12/12/2020 3:30:00 PM 8.86 47.948 0.642 8.56 4.07 13.45
12/12/2020 3:45:00 PM 8.88 47.984 0.642 8.57 4.68 13.39
12/12/2020 4:00:00 PM 8.91 48.038 0.642 8.57 3.75 13.38
12/12/2020 4:15:00 PM 8.93 48.074 0.642 8.57 3.44 13.25
12/12/2020 4:30:00 PM 8.94 48.092 0.643 8.57 3.43 13.07
12/12/2020 4:45:00 PM 8.95 48.11 0.643 8.56 3.33 12.83
12/12/2020 5:00:00 PM 8.94 48.092 0.643 8.55 3.64 12.57
12/12/2020 5:15:00 PM 8.94 48.092 0.644 8.54 3.95 12.3
12/12/2020 5:30:00 PM 8.93 48.074 0.644 8.53 4.09 12.08
12/12/2020 5:45:00 PM 8.93 48.074 0.645 8.52 4.03 11.87
12/12/2020 6:00:00 PM 8.93 48.074 0.645 8.51 4.51 11.68
12/12/2020 6:15:00 PM 8.93 48.074 0.645 8.49 5.35 11.53
12/12/2020 6:30:00 PM 8.93 48.074 0.645 8.48 4.82 11.39
12/12/2020 6:45:00 PM 8.94 48.092 0.645 8.47 4.49 11.29
12/12/2020 7:00:00 PM 8.95 48.11 0.645 8.47 4.53 11.2
12/12/2020 7:15:00 PM 8.96 48.128 0.646 8.46 5.62 11.14
12/12/2020 7:30:00 PM 8.97 48.146 0.646 8.45 4.82 11.06
12/12/2020 7:45:00 PM 8.99 48.182 0.646 8.44 4.71 10.99
12/12/2020 8:00:00 PM 9 48.2 0.646 8.44 4.27 10.92
12/12/2020 8:15:00 PM 9.01 48.218 0.646 8.43 5.45 10.85
12/12/2020 8:30:00 PM 9.03 48.254 0.646 8.43 4.82 10.78
12/12/2020 8:45:00 PM 9.04 48.272 0.645 8.43 4.56 10.73
12/12/2020 9:00:00 PM 9.05 48.29 0.645 8.42 4.25 10.69
12/12/2020 9:15:00 PM 9.06 48.308 0.646 8.41 5.45 10.63
12/12/2020 9:30:00 PM 9.07 48.326 0.646 8.41 5.93 10.56
12/12/2020 9:45:00 PM 9.09 48.362 0.646 8.4 5.45 10.51
12/12/2020 10:00:00 PM 9.1 48.38 0.646 8.4 4.4 10.47
12/12/2020 10:15:00 PM 9.11 48.398 0.647 8.4 4.1 10.43
12/12/2020 10:30:00 PM 9.12 48.416 0.646 8.39 5.57 10.41
12/12/2020 10:45:00 PM 9.13 48.434 0.647 8.39 4.35 10.37
12/12/2020 11:00:00 PM 9.14 48.452 0.646 8.39 5.1 10.34
12/12/2020 11:15:00 PM 9.14 48.452 0.646 8.38 4.95 10.32
12/12/2020 11:30:00 PM 9.15 48.47 0.646 8.39 4.12 10.3
12/12/2020 11:45:00 PM 9.14 48.452 0.647 8.38 4.98 10.27
12/13/2020 12:00:00 AM 9.14 48.452 0.646 8.38 4.76 10.24
12/13/2020 12:15:00 AM 9.13 48.434 0.646 8.38 6.48 10.22
12/13/2020 12:30:00 AM 9.13 48.434 0.646 8.38 4.65 10.18
12/13/2020 12:45:00 AM 9.14 48.452 0.646 8.38 4.24 10.15
12/13/2020 1:00:00 AM 9.14 48.452 0.646 8.37 8.92 10.13
12/13/2020 1:15:00 AM 9.14 48.452 0.646 8.37 4.82 10.1
12/13/2020 1:30:00 AM 9.15 48.47 0.646 8.37 4.35 10.07
12/13/2020 1:45:00 AM 9.15 48.47 0.646 8.36 4.31 10.05
12/13/2020 2:00:00 AM 9.15 48.47 0.646 8.36 4.65 10.02
12/13/2020 2:15:00 AM 9.14 48.452 0.646 8.36 5.97 10
12/13/2020 2:30:00 AM 9.12 48.416 0.646 8.36 10.31 9.97
12/13/2020 2:45:00 AM 9.1 48.38 0.646 8.36 4.23 9.95
12/13/2020 3:00:00 AM 9.09 48.362 0.646 8.35 4.67 9.94
12/13/2020 3:15:00 AM 9.07 48.326 0.646 8.35 4.09 9.92
12/13/2020 3:30:00 AM 9.06 48.308 0.646 8.35 4.63 9.92
12/13/2020 4:00:00 AM 9.04 48.272 0.646 8.35 5.17 9.9
12/13/2020 4:15:00 AM 9.03 48.254 0.646 8.35 8.12 9.9
12/13/2020 4:30:00 AM 9.01 48.218 0.646 8.35 5.92 9.89
12/13/2020 4:45:00 AM 9 48.2 0.646 8.35 6.01 9.89
12/13/2020 5:00:00 AM 8.98 48.164 0.646 8.35 6.12 9.88
12/13/2020 5:15:00 AM 8.96 48.128 0.646 8.35 6.75 9.88
12/13/2020 5:30:00 AM 8.94 48.092 0.646 8.35 5.51 9.87
12/13/2020 5:45:00 AM 8.92 48.056 0.646 8.35 6.72 9.87
12/13/2020 6:00:00 AM 8.91 48.038 0.646 8.35 8.7 9.86
12/13/2020 6:15:00 AM 8.89 48.002 0.646 8.35 10.59 9.85
12/13/2020 6:30:00 AM 8.88 47.984 0.646 8.35 6.41 9.86
12/13/2020 6:45:00 AM 8.88 47.984 0.646 8.34 5.9 9.85
12/13/2020 7:00:00 AM 8.87 47.966 0.645 8.34 6.45 9.84
12/13/2020 7:15:00 AM 8.88 47.984 0.645 8.34 5.19 9.84
12/13/2020 7:30:00 AM 8.87 47.966 0.645 8.34 5.52 9.85
12/13/2020 7:45:00 AM 8.86 47.948 0.645 8.34 4.76 9.87
12/13/2020 8:00:00 AM 8.84 47.912 0.645 8.34 4.81 9.93
12/13/2020 8:15:00 AM 8.82 47.876 0.644 8.34 4.99 10.02
12/13/2020 8:30:00 AM 8.81 47.858 0.644 8.35 4.53 10.16
12/13/2020 8:45:00 AM 8.8 47.84 0.644 8.36 4.83 10.33
12/13/2020 9:00:00 AM 8.8 47.84 0.644 8.36 4.55 10.54
12/13/2020 9:15:00 AM 8.83 47.894 0.644 8.37 5.48 10.79
12/13/2020 9:30:00 AM 8.88 47.984 0.643 8.38 5.15 11.11
12/13/2020 9:45:00 AM 8.96 48.128 0.643 8.4 4.73 11.48
12/13/2020 10:00:00 AM 9.06 48.308 0.642 8.41 4.43 11.9
12/13/2020 10:15:00 AM 9.15 48.47 0.642 8.43 6.04 12.25
12/13/2020 10:30:00 AM 9.24 48.632 0.641 8.45 4.77 12.56
12/13/2020 10:45:00 AM 9.31 48.758 0.641 8.47 4.1 12.85
12/13/2020 11:00:00 AM 9.34 48.812 0.64 8.49 4.06 12.97
12/13/2020 11:15:00 AM 9.37 48.866 0.64 8.5 4.08 13.08
12/13/2020 11:30:00 AM 9.43 48.974 0.639 8.52 3.73 13.29
12/13/2020 11:45:00 AM 9.49 49.082 0.639 8.53 3.95 13.48
12/13/2020 12:00:00 PM 9.54 49.172 0.638 8.55 6.59 13.67
12/13/2020 12:15:00 PM 9.6 49.28 0.638 8.56 4.12 13.88
12/13/2020 12:30:00 PM 9.66 49.388 0.637 8.58 3.7 14.13
12/13/2020 12:45:00 PM 9.7 49.46 0.636 8.59 4.14 14.28
12/13/2020 1:00:00 PM 9.73 49.514 0.636 8.61 4.11 14.35
12/13/2020 1:15:00 PM 9.78 49.604 0.635 8.62 4.66 14.48
12/13/2020 1:30:00 PM 9.79 49.622 0.635 8.62 3.95 14.53
12/13/2020 1:45:00 PM 9.79 49.622 0.635 8.64 3.89 14.52
12/13/2020 2:00:00 PM 9.79 49.622 0.634 8.64 4.84 14.49
12/13/2020 2:15:00 PM 9.82 49.676 0.634 8.65 4.45 14.52
12/13/2020 2:30:00 PM 9.85 49.73 0.634 8.66 5.29 14.52
12/13/2020 2:45:00 PM 9.84 49.712 0.634 8.66 4.75 14.5
12/13/2020 3:00:00 PM 9.83 49.694 0.634 8.66 7.01 14.4
12/13/2020 3:15:00 PM 9.81 49.658 0.635 8.66 4.45 14.25
12/13/2020 3:30:00 PM 9.8 49.64 0.636 8.67 4.99 14.11
12/13/2020 3:45:00 PM 9.78 49.604 0.636 8.66 4.9 13.89
12/13/2020 4:00:00 PM 9.76 49.568 0.637 8.65 6.56 13.66
12/13/2020 4:15:00 PM 9.74 49.532 0.637 8.64 4.73 13.45
12/13/2020 4:30:00 PM 9.72 49.496 0.638 8.63 4.22 13.21
12/13/2020 4:45:00 PM 9.69 49.442 0.639 8.62 3.81 12.92
12/13/2020 5:00:00 PM 9.67 49.406 0.639 8.61 4.92 12.63
12/13/2020 5:15:00 PM 9.66 49.388 0.64 8.59 4.53 12.39
12/13/2020 5:30:00 PM 9.64 49.352 0.64 8.58 3.92 12.15
12/13/2020 5:45:00 PM 9.61 49.298 0.641 8.56 4.26 11.93
12/13/2020 6:00:00 PM 9.58 49.244 0.641 8.55 4.73 11.74
12/13/2020 6:15:00 PM 9.55 49.19 0.642 8.54 4.39 11.59
12/13/2020 6:30:00 PM 9.51 49.118 0.642 8.53 5.38 11.45
12/13/2020 6:45:00 PM 9.47 49.046 0.643 8.52 4.97 11.31
12/13/2020 7:00:00 PM 9.42 48.956 0.643 8.51 6.68 11.2
12/13/2020 7:15:00 PM 9.38 48.884 0.643 8.5 5.63 11.1
12/13/2020 7:30:00 PM 9.34 48.812 0.644 8.49 6.7 10.99
12/13/2020 7:45:00 PM 9.31 48.758 0.644 8.48 5.31 10.93
12/13/2020 8:00:00 PM 9.27 48.686 0.644 8.48 5.08 10.86
12/13/2020 8:15:00 PM 9.23 48.614 0.644 8.47 3.98 10.8
12/13/2020 8:30:00 PM 9.19 48.542 0.645 8.47 5.26 10.76
12/13/2020 8:45:00 PM 9.16 48.488 0.645 8.46 4.53 10.72
12/13/2020 9:00:00 PM 9.12 48.416 0.645 8.46 3.72 10.68
12/13/2020 9:15:00 PM 9.08 48.344 0.645 8.46 4.84 10.63
12/13/2020 9:30:00 PM 9.04 48.272 0.645 8.46 7.08 10.58
12/13/2020 9:45:00 PM 9.01 48.218 0.645 8.45 4.69 10.53
12/13/2020 10:00:00 PM 8.98 48.164 0.645 8.45 5.4 10.5
12/13/2020 10:15:00 PM 8.94 48.092 0.645 8.45 4.71 10.47
12/13/2020 10:30:00 PM 8.91 48.038 0.645 8.45 5.84 10.44
12/13/2020 10:45:00 PM 8.87 47.966 0.645 8.45 5.97 10.4
12/13/2020 11:00:00 PM 8.83 47.894 0.645 8.44 6 10.38
12/13/2020 11:15:00 PM 8.79 47.822 0.645 8.44 5.9 10.36
12/13/2020 11:30:00 PM 8.76 47.768 0.645 8.44 5.41 10.33
12/13/2020 11:45:00 PM 8.72 47.696 0.645 8.44 6.92 10.3
12/14/2020 12:00:00 AM 8.68 47.624 0.645 8.44 6.86 10.27
12/14/2020 12:15:00 AM 8.65 47.57 0.591 8.43 6.25 10.25
12/14/2020 12:30:00 AM 8.62 47.516 0.536 8.43 5.79 10.22
12/14/2020 12:45:00 AM 8.59 47.462 0.524 8.43 6.74 10.21
12/14/2020 1:00:00 AM 8.57 47.426 0.586 8.43 9.53 10.17
12/14/2020 1:15:00 AM 8.55 47.39 0.649 8.42 7.02 10.15
12/14/2020 1:30:00 AM 8.53 47.354 0.649 8.42 6.07 10.12
12/14/2020 1:45:00 AM 8.52 47.336 0.649 8.42 6.54 10.11
12/14/2020 2:00:00 AM 8.5 47.3 0.649 8.41 5.17 10.08
12/14/2020 2:15:00 AM 8.49 47.282 0.649 8.41 6.52 10.05
12/14/2020 2:30:00 AM 8.48 47.264 0.65 8.41 5.27 10.04
12/14/2020 2:45:00 AM 8.47 47.246 0.65 8.4 5.64 10.03
12/14/2020 3:00:00 AM 8.46 47.228 0.65 8.41 7.01 10.01
12/14/2020 3:15:00 AM 8.45 47.21 0.65 8.4 6.58 10.01
12/14/2020 3:30:00 AM 8.44 47.192 0.65 8.4 5.26 9.99
12/14/2020 3:45:00 AM 8.43 47.174 0.65 8.4 7.59 9.99
12/14/2020 4:00:00 AM 8.42 47.156 0.65 8.39 6.58 9.97
12/14/2020 4:15:00 AM 8.41 47.138 0.65 8.39 7.22 9.96
12/14/2020 4:30:00 AM 8.41 47.138 0.65 8.39 8.46 9.95
12/14/2020 4:45:00 AM 8.41 47.138 0.65 8.39 5.78 9.93
12/14/2020 5:00:00 AM 8.41 47.138 0.65 8.38 7.23 9.93
12/14/2020 5:15:00 AM 8.41 47.138 0.65 8.38 7.98 9.92
12/14/2020 5:30:00 AM 8.41 47.138 0.649 8.38 5.13 9.93
12/14/2020 5:45:00 AM 8.41 47.138 0.649 8.38 5.9 9.95
12/14/2020 6:00:00 AM 8.39 47.102 0.647 8.38 7.34 9.97
12/14/2020 6:15:00 AM 8.37 47.066 0.646 8.38 6.25 9.97
12/14/2020 6:30:00 AM 8.35 47.03 0.646 8.38 6.67 9.98
12/14/2020 6:45:00 AM 8.34 47.012 0.645 8.38 7.26 9.98
12/14/2020 7:00:00 AM 8.33 46.994 0.644 8.38 6.47 9.99
12/14/2020 7:15:00 AM 8.33 46.994 0.644 8.38 6.09 9.99
12/14/2020 7:30:00 AM 8.32 46.976 0.643 8.37 4.91 10
12/14/2020 7:45:00 AM 8.31 46.958 0.642 8.38 6.16 10
12/14/2020 8:00:00 AM 8.3 46.94 0.642 8.37 4.92 10
12/14/2020 8:15:00 AM 8.27 46.886 0.641 8.37 5.96 10.03
12/14/2020 8:30:00 AM 8.24 46.832 0.64 8.37 6.88 10.04
12/14/2020 8:45:00 AM 8.2 46.76 0.639 8.38 6.53 10.08
12/14/2020 9:00:00 AM 8.16 46.688 0.637 8.38 5.91 10.14
12/14/2020 9:15:00 AM 8.11 46.598 0.637 8.38 5.97 10.2
12/14/2020 9:30:00 AM 8.06 46.508 0.637 8.39 5.64 10.25
12/14/2020 9:45:00 AM 8 46.4 0.637 8.39 5.95 10.29
12/14/2020 10:00:00 AM 7.93 46.274 0.637 8.4 6.22 10.36
12/14/2020 10:15:00 AM 7.84 46.112 0.637 8.4 5.01 10.43
12/14/2020 10:30:00 AM 7.77 45.986 0.636 8.41 5.8 10.51
12/14/2020 10:45:00 AM 7.72 45.896 0.636 8.41 5.77 10.58
12/14/2020 11:00:00 AM 7.7 45.86 0.636 8.42 5.73 10.66
12/14/2020 11:15:00 AM 7.68 45.824 0.634 8.42 6.27 10.77
12/14/2020 11:30:00 AM 7.68 45.824 0.634 8.43 6.16 10.89
12/14/2020 11:45:00 AM 7.69 45.842 0.633 8.43 5.42 11
12/14/2020 12:00:00 PM 7.68 45.824 0.632 8.44 5.88 11.1
12/14/2020 12:15:00 PM 7.67 45.806 0.631 8.44 5.53 11.17
12/14/2020 12:30:00 PM 7.67 45.806 0.631 8.44 6.89 11.24
12/14/2020 12:45:00 PM 7.7 45.86 0.63 8.45 6.46 11.39
12/14/2020 1:00:00 PM 7.74 45.932 0.629 8.46 5.33 11.59
12/14/2020 1:15:00 PM 7.79 46.022 0.628 8.47 6.12 11.75
12/14/2020 1:30:00 PM 7.84 46.112 0.627 8.46 5.8 11.93
12/14/2020 1:45:00 PM 7.89 46.202 0.626 8.47 7.02 12.11
12/14/2020 2:00:00 PM 7.93 46.274 0.625 8.48 5.1 12.24
12/14/2020 2:15:00 PM 7.95 46.31 0.624 8.49 6.38 12.27
12/14/2020 2:30:00 PM 7.98 46.364 0.622 8.49 6.47 12.35
12/14/2020 2:45:00 PM 8.01 46.418 0.621 8.5 6.51 12.49
12/14/2020 3:00:00 PM 8.03 46.454 0.619 8.51 6.35 12.64
12/14/2020 3:15:00 PM 8.04 46.472 0.618 8.52 6.82 12.63
12/14/2020 3:30:00 PM 8.06 46.508 0.617 8.52 6.82 12.58
12/14/2020 3:45:00 PM 8.07 46.526 0.616 8.52 6.59 12.51
12/14/2020 4:00:00 PM 8.06 46.508 0.616 8.52 6.35 12.37
12/14/2020 4:15:00 PM 8.04 46.472 0.616 8.51 7.68 12.24
12/14/2020 4:30:00 PM 8.04 46.472 0.616 8.51 6.57 12.07
12/14/2020 4:45:00 PM 8.02 46.436 0.616 8.5 6.85 11.92
12/14/2020 5:00:00 PM 7.97 46.346 0.617 8.49 9.83 11.71
12/14/2020 5:15:00 PM 7.94 46.292 0.617 8.48 10.44 11.59
12/14/2020 5:30:00 PM 7.9 46.22 0.618 8.48 9.86 11.46
12/14/2020 5:45:00 PM 7.86 46.148 0.619 8.47 7.58 11.36
12/14/2020 6:00:00 PM 7.84 46.112 0.62 8.46 12.36 11.25
12/14/2020 6:15:00 PM 7.83 46.094 0.621 8.46 11.71 11.17
12/14/2020 6:30:00 PM 7.82 46.076 0.622 8.45 7.14 11.11
12/14/2020 6:45:00 PM 7.81 46.058 0.623 8.45 9.65 11.09
12/14/2020 7:00:00 PM 7.8 46.04 0.624 8.44 12.06 11.03
12/14/2020 7:15:00 PM 7.76 45.968 0.624 8.44 9.68 11
12/14/2020 7:30:00 PM 7.72 45.896 0.625 8.44 8.06 10.96
12/14/2020 7:45:00 PM 7.68 45.824 0.625 8.44 8.37 10.92
12/14/2020 8:00:00 PM 7.64 45.752 0.625 8.44 7.88 10.9
12/14/2020 8:15:00 PM 7.59 45.662 0.625 8.44 7.05 10.87
12/14/2020 8:30:00 PM 7.55 45.59 0.625 8.44 15.83 10.85
12/14/2020 8:45:00 PM 7.51 45.518 0.625 8.44 9.8 10.84
12/14/2020 9:00:00 PM 7.47 45.446 0.625 8.44 9.26 10.82
12/14/2020 9:15:00 PM 7.43 45.374 0.625 8.44 6.66 10.8
12/14/2020 9:30:00 PM 7.39 45.302 0.625 8.44 6.77 10.78
12/14/2020 9:45:00 PM 7.36 45.248 0.626 8.43 5.67 10.76
12/14/2020 10:00:00 PM 7.34 45.212 0.626 8.43 5.31 10.75
12/14/2020 10:15:00 PM 7.32 45.176 0.627 8.43 7.74 10.72
12/14/2020 10:30:00 PM 7.3 45.14 0.627 8.43 6.74 10.7
12/14/2020 10:45:00 PM 7.29 45.122 0.626 8.43 6.74 10.67
12/14/2020 11:00:00 PM 7.26 45.068 0.625 8.42 7.91 10.66
12/14/2020 11:15:00 PM 7.23 45.014 0.623 8.42 6.65 10.62
12/14/2020 11:30:00 PM 7.2 44.96 0.621 8.42 6.2 10.57
12/14/2020 11:45:00 PM 7.17 44.906 0.617 8.42 7.47 10.55
12/15/2020 12:00:00 AM 7.13 44.834 0.613 8.41 6.07 10.51
12/15/2020 12:15:00 AM 7.09 44.762 0.608 8.41 6.8 10.47
12/15/2020 12:30:00 AM 7.05 44.69 0.602 8.41 7.04 10.44
12/15/2020 12:45:00 AM 7.01 44.618 0.597 8.4 7.23 10.42
12/15/2020 1:00:00 AM 6.98 44.564 0.591 8.4 6.52 10.4
12/15/2020 1:15:00 AM 6.95 44.51 0.587 8.39 6.63 10.37
12/15/2020 1:30:00 AM 6.93 44.474 0.582 8.39 7.83 10.35
12/15/2020 1:45:00 AM 6.92 44.456 0.578 8.38 9.28 10.34
12/15/2020 2:00:00 AM 6.89 44.402 0.575 8.38 7.94 10.33
12/15/2020 2:15:00 AM 6.87 44.366 0.572 8.37 8.13 10.33
12/15/2020 2:30:00 AM 6.84 44.312 0.57 8.37 7.98 10.34
12/15/2020 2:45:00 AM 6.82 44.276 0.568 8.37 7.04 10.35
12/15/2020 3:00:00 AM 6.79 44.222 0.566 8.36 8.14 10.35
12/15/2020 3:15:00 AM 6.76 44.168 0.565 8.36 8.24 10.36
12/15/2020 3:30:00 AM 6.73 44.114 0.564 8.36 9.3 10.38
12/15/2020 3:45:00 AM 6.7 44.06 0.563 8.36 9.74 10.39
12/15/2020 4:00:00 AM 6.67 44.006 0.562 8.35 9.63 10.39
12/15/2020 4:15:00 AM 6.64 43.952 0.562 8.35 7.78 10.4
12/15/2020 4:30:00 AM 6.62 43.916 0.561 8.35 7.97 10.41
12/15/2020 4:45:00 AM 6.59 43.862 0.561 8.35 10.02 10.43
12/15/2020 5:00:00 AM 6.56 43.808 0.561 8.34 8.13 10.44
12/15/2020 5:15:00 AM 6.53 43.754 0.561 8.35 9.57 10.45
12/15/2020 5:30:00 AM 6.51 43.718 0.562 8.35 8.83 10.46
12/15/2020 5:45:00 AM 6.48 43.664 0.563 8.35 30.44 10.48
12/15/2020 6:00:00 AM 6.45 43.61 0.563 8.35 10.31 10.49
12/15/2020 6:15:00 AM 6.43 43.574 0.565 8.35 8.54 10.51
12/15/2020 6:30:00 AM 6.4 43.52 0.566 8.35 8.68 10.51
12/15/2020 6:45:00 AM 6.38 43.484 0.567 8.35 9.21 10.51
12/15/2020 7:00:00 AM 6.37 43.466 0.569 8.35 9.38 10.53
12/15/2020 7:15:00 AM 6.35 43.43 0.571 8.35 8.97 10.55
12/15/2020 7:30:00 AM 6.33 43.394 0.573 8.35 6.92 10.56
12/15/2020 7:45:00 AM 6.32 43.376 0.575 8.35 9.33 10.61
12/15/2020 8:00:00 AM 6.32 43.376 0.577 8.35 7.99 10.67
12/15/2020 8:15:00 AM 6.33 43.394 0.578 8.35 7.29 10.75
12/15/2020 8:30:00 AM 6.34 43.412 0.58 8.35 7.2 10.89
12/15/2020 8:45:00 AM 6.35 43.43 0.581 8.36 6.51 11.06
12/15/2020 9:00:00 AM 6.37 43.466 0.582 8.37 6.66 11.3
12/15/2020 9:15:00 AM 6.39 43.502 0.583 8.38 6.26 11.55
12/15/2020 9:30:00 AM 6.42 43.556 0.584 8.39 7.88 11.84
12/15/2020 9:45:00 AM 6.42 43.556 0.584 8.41 7.17 12.14
12/15/2020 10:00:00 AM 6.43 43.574 0.584 8.43 5.92 12.45
12/15/2020 10:15:00 AM 6.44 43.592 0.584 8.45 6.14 12.76
12/15/2020 10:30:00 AM 6.44 43.592 0.585 8.46 5.67 13.03
12/15/2020 10:45:00 AM 6.44 43.592 0.585 8.48 9.26 13.27
12/15/2020 11:00:00 AM 6.45 43.61 0.585 8.5 7.27 13.52
12/15/2020 11:15:00 AM 6.48 43.664 0.585 8.52 5.86 13.76
12/15/2020 11:30:00 AM 6.54 43.772 0.586 8.54 5.4 14.01
12/15/2020 11:45:00 AM 6.62 43.916 0.586 8.55 5.01 14.25
12/15/2020 12:00:00 PM 6.7 44.06 0.587 8.57 5.14 14.43
12/15/2020 12:15:00 PM 6.76 44.168 0.588 8.58 33.21 14.52
12/15/2020 12:30:00 PM 6.83 44.294 0.59 8.59 5.07 14.62
12/15/2020 12:45:00 PM 6.9 44.42 0.592 8.6 4.96 14.66
12/15/2020 1:00:00 PM 6.95 44.51 0.594 8.6 5.36 14.68
12/15/2020 1:15:00 PM 7 44.6 0.596 8.61 5.4 14.75
12/15/2020 1:30:00 PM 7.05 44.69 0.598 8.62 4.83 14.84
12/15/2020 1:45:00 PM 7.11 44.798 0.6 8.62 4.46 14.95
12/15/2020 2:00:00 PM 7.14 44.852 0.602 8.63 5.58 15.03
12/15/2020 2:15:00 PM 7.16 44.888 0.604 8.64 4.73 15.09
12/15/2020 2:30:00 PM 7.17 44.906 0.606 8.65 4.31 15.11
12/15/2020 2:45:00 PM 7.18 44.924 0.608 8.66 4.31 15.09
12/15/2020 3:00:00 PM 7.18 44.924 0.61 8.66 4.72 15.07
12/15/2020 3:15:00 PM 7.17 44.906 0.611 8.67 4.69 14.97
12/15/2020 3:30:00 PM 7.15 44.87 0.613 8.67 4.21 14.86
12/15/2020 3:45:00 PM 7.13 44.834 0.615 8.67 3.66 14.69
12/15/2020 4:00:00 PM 7.11 44.798 0.616 8.66 4.45 14.5
12/15/2020 4:15:00 PM 7.09 44.762 0.618 8.66 3.35 14.29
12/15/2020 4:30:00 PM 7.08 44.744 0.619 8.65 4.43 14.04
12/15/2020 4:45:00 PM 7.06 44.708 0.62 8.64 4.94 13.77
12/15/2020 5:00:00 PM 7.04 44.672 0.621 8.62 3.81 13.52
12/15/2020 5:15:00 PM 7.03 44.654 0.622 8.61 4.7 13.3
12/15/2020 5:30:00 PM 7.01 44.618 0.623 8.6 4.97 13.09
12/15/2020 5:45:00 PM 6.97 44.546 0.624 8.59 4.12 12.89
12/15/2020 6:00:00 PM 6.93 44.474 0.624 8.58 5.5 12.75
12/15/2020 6:15:00 PM 6.87 44.366 0.625 8.57 5.25 12.64
12/15/2020 6:30:00 PM 6.82 44.276 0.626 8.56 4.93 12.53
12/15/2020 6:45:00 PM 6.77 44.186 0.627 8.55 4.34 12.44
12/15/2020 7:00:00 PM 6.73 44.114 0.627 8.55 4.49 12.35
12/15/2020 7:15:00 PM 6.69 44.042 0.628 8.54 4 12.26
12/15/2020 7:30:00 PM 6.65 43.97 0.629 8.53 3.95 12.19
12/15/2020 7:45:00 PM 6.61 43.898 0.629 8.53 6.99 12.1
12/15/2020 8:00:00 PM 6.57 43.826 0.63 8.53 4.09 12.01
12/15/2020 8:15:00 PM 6.53 43.754 0.63 8.52 3.92 11.93
12/15/2020 8:30:00 PM 6.49 43.682 0.631 8.51 3.16 11.86
12/15/2020 8:45:00 PM 6.46 43.628 0.632 8.51 3.32 11.8
12/15/2020 9:00:00 PM 6.42 43.556 0.632 8.51 3.5 11.73
12/15/2020 9:15:00 PM 6.39 43.502 0.633 8.5 3.66 11.66
12/15/2020 9:30:00 PM 6.35 43.43 0.634 8.5 3.35 11.58
12/15/2020 9:45:00 PM 6.31 43.358 0.635 8.49 2.52 11.53
12/15/2020 10:00:00 PM 6.28 43.304 0.635 8.49 2.9 11.48
12/15/2020 10:15:00 PM 6.25 43.25 0.636 8.49 3.35 11.43
12/15/2020 10:30:00 PM 6.23 43.214 0.637 8.48 2.73 11.39
12/15/2020 10:45:00 PM 6.2 43.16 0.637 8.48 3.37 11.33
12/15/2020 11:00:00 PM 6.18 43.124 0.638 8.48 3.12 11.29
12/15/2020 11:15:00 PM 6.17 43.106 0.638 8.47 2.96 11.26
12/15/2020 11:30:00 PM 6.15 43.07 0.639 8.47 4.08 11.22
12/15/2020 11:45:00 PM 6.13 43.034 0.64 8.46 3.53 11.19
12/16/2020 12:00:00 AM 6.12 43.016 0.64 8.46 3.97 11.14
12/16/2020 12:15:00 AM 6.1 42.98 0.64 8.46 3.28 11.11
12/16/2020 12:30:00 AM 6.09 42.962 0.641 8.46 2.95 11.06
12/16/2020 12:45:00 AM 6.08 42.944 0.641 8.45 3.53 11.03
12/16/2020 1:00:00 AM 6.07 42.926 0.641 8.45 3.81 10.98
12/16/2020 1:15:00 AM 6.05 42.89 0.642 8.45 3.31 10.93
12/16/2020 1:30:00 AM 6.03 42.854 0.642 8.45 3.28 10.89
12/16/2020 1:45:00 AM 6.02 42.836 0.643 8.44 4.52 10.84
12/16/2020 2:00:00 AM 6 42.8 0.643 8.44 6.1 10.8
12/16/2020 2:15:00 AM 5.98 42.764 0.644 8.43 3.47 10.77
12/16/2020 2:30:00 AM 5.95 42.71 0.644 8.43 3.14 10.75
12/16/2020 2:45:00 AM 5.93 42.674 0.644 8.43 3.69 10.74
12/16/2020 3:00:00 AM 5.9 42.62 0.645 8.43 4.92 10.74
12/16/2020 3:15:00 AM 5.87 42.566 0.645 8.42 4.22 10.72
12/16/2020 3:30:00 AM 5.85 42.53 0.645 8.42 3.69 10.75
12/16/2020 3:45:00 AM 5.82 42.476 0.646 8.42 11.29 10.74
12/16/2020 4:00:00 AM 5.81 42.458 0.647 8.42 3.49 10.74
12/16/2020 4:15:00 AM 5.8 42.44 0.648 8.42 4.79 10.75
12/16/2020 4:30:00 AM 5.78 42.404 0.648 8.42 3.18 10.74
12/16/2020 4:45:00 AM 5.76 42.368 0.649 8.41 3.41 10.74
12/16/2020 5:00:00 AM 5.74 42.332 0.649 8.41 4.25 10.74
12/16/2020 5:15:00 AM 5.73 42.314 0.65 8.41 4.01 10.74
12/16/2020 5:30:00 AM 5.72 42.296 0.65 8.41 4.91 10.73
12/16/2020 5:45:00 AM 5.7 42.26 0.65 8.41 5.26 10.73
12/16/2020 6:00:00 AM 5.68 42.224 0.651 8.41 4.33 10.73
12/16/2020 6:15:00 AM 5.65 42.17 0.651 8.4 3.3 10.72
12/16/2020 6:30:00 AM 5.64 42.152 0.651 8.41 3.47 10.72
12/16/2020 6:45:00 AM 5.63 42.134 0.651 8.4 3.57 10.72
12/16/2020 7:00:00 AM 5.61 42.098 0.651 8.4 3.98 10.73
12/16/2020 7:15:00 AM 5.59 42.062 0.651 8.4 3.9 10.74
12/16/2020 7:30:00 AM 5.57 42.026 0.651 8.41 4.5 10.74
12/16/2020 7:45:00 AM 5.56 42.008 0.651 8.4 3.74 10.77
12/16/2020 8:00:00 AM 5.55 41.99 0.651 8.4 3.21 10.79
12/16/2020 8:15:00 AM 5.54 41.972 0.65 8.4 4.32 10.85
12/16/2020 8:30:00 AM 5.53 41.954 0.65 8.41 3.54 10.9
12/16/2020 8:45:00 AM 5.53 41.954 0.65 8.41 2.98 10.98
12/16/2020 9:00:00 AM 5.53 41.954 0.65 8.41 2.87 11.1
12/16/2020 9:15:00 AM 5.53 41.954 0.65 8.42 3.2 11.21
12/16/2020 9:30:00 AM 5.53 41.954 0.65 8.42 2.61 11.35
12/16/2020 9:45:00 AM 5.52 41.936 0.65 8.43 2.78 11.51
12/16/2020 10:00:00 AM 5.52 41.936 0.65 8.43 2.62 11.69
12/16/2020 10:15:00 AM 5.51 41.918 0.65 8.44 2.26 11.88
12/16/2020 10:30:00 AM 5.51 41.918 0.65 8.45 2.78 12.01
12/16/2020 10:45:00 AM 5.51 41.918 0.651 8.46 2.71 12.09
12/16/2020 11:00:00 AM 5.52 41.936 0.651 8.47 3.03 12.23
12/16/2020 11:15:00 AM 5.53 41.954 0.651 8.48 3.39 12.34
12/16/2020 11:30:00 AM 5.54 41.972 0.651 8.48 2.24 12.4
12/16/2020 11:45:00 AM 5.54 41.972 0.651 8.49 2.76 12.44
12/16/2020 12:00:00 PM 5.52 41.936 0.651 8.49 2.51 12.52
12/16/2020 12:15:00 PM 5.5 41.9 0.651 8.5 2.66 12.59
12/16/2020 12:30:00 PM 5.47 41.846 0.651 8.51 4.17 12.62
12/16/2020 12:45:00 PM 5.47 41.846 0.651 8.51 3.64 12.65
12/16/2020 1:00:00 PM 5.47 41.846 0.651 8.52 3.44 12.76
12/16/2020 1:15:00 PM 5.48 41.864 0.651 8.52 3.38 12.89
12/16/2020 1:30:00 PM 5.46 41.828 0.652 8.53 4.34 13.01
12/16/2020 1:45:00 PM 5.43 41.774 0.653 8.54 4.16 13.01
12/16/2020 2:00:00 PM 5.45 41.81 0.651 8.55 4.17 13.01
12/16/2020 2:15:00 PM 5.49 41.882 0.647 8.55 3.89 13.06
12/16/2020 2:30:00 PM 5.59 42.062 0.644 8.55 5.28 13.01
12/16/2020 2:45:00 PM 5.66 42.188 0.644 8.54 6.47 12.92
12/16/2020 3:00:00 PM 5.66 42.188 0.648 8.54 7.68 12.81
12/16/2020 3:15:00 PM 5.61 42.098 0.654 8.53 5.74 12.74
12/16/2020 3:30:00 PM 5.51 41.918 0.658 8.54 6.57 12.67
12/16/2020 3:45:00 PM 5.4 41.72 0.66 8.54 5.52 12.61
12/16/2020 4:00:00 PM 5.31 41.558 0.661 8.55 6.58 12.53
12/16/2020 4:15:00 PM 5.2 41.36 0.661 8.55 7.05 12.44
12/16/2020 4:30:00 PM 5.07 41.126 0.661 8.56 5.81 12.36
12/16/2020 4:45:00 PM 4.93 40.874 0.661 8.56 8.65 12.27
12/16/2020 5:00:00 PM 4.65 40.37 0.66 8.56 6.59 12.19
12/16/2020 5:15:00 PM 4.38 39.884 0.658 8.58 8.09 12.13
12/16/2020 5:30:00 PM 4.19 39.542 0.657 8.58 8.39 12.11
12/16/2020 5:45:00 PM 3.87 38.966 0.655 8.59 6.98 12.09
12/16/2020 6:00:00 PM 3.64 38.552 0.654 8.59 7.19 12.07
12/16/2020 6:15:00 PM 3.61 38.498 0.654 8.59 8.94 12.06
12/16/2020 6:30:00 PM 3.61 38.498 0.654 8.58 5.5 12.05
12/16/2020 6:45:00 PM 3.56 38.408 0.653 8.58 5.61 12.04
12/16/2020 7:00:00 PM 3.57 38.426 0.652 8.57 11.77 12.03
12/16/2020 7:15:00 PM 3.58 38.444 0.649 8.56 6.4 12.01
12/16/2020 7:30:00 PM 3.59 38.462 0.646 8.56 5.64 11.99
12/16/2020 7:45:00 PM 3.58 38.444 0.643 8.55 5.68 11.97
12/16/2020 8:00:00 PM 3.61 38.498 0.641 8.55 7.52 11.95
12/16/2020 8:15:00 PM 3.59 38.462 0.639 8.54 7.59 11.95
12/16/2020 8:30:00 PM 3.57 38.426 0.639 8.54 5.88 11.92
12/16/2020 8:45:00 PM 3.58 38.444 0.639 8.54 5.39 11.93
12/16/2020 9:00:00 PM 3.63 38.534 0.639 8.54 6.23 11.92
12/16/2020 9:15:00 PM 3.66 38.588 0.639 8.53 6.72 11.91
12/16/2020 9:30:00 PM 3.69 38.642 0.639 8.53 5.85 11.9
12/16/2020 9:45:00 PM 3.69 38.642 0.638 8.52 5.71 11.9
12/16/2020 10:00:00 PM 3.67 38.606 0.638 8.53 4.94 11.91
12/16/2020 10:15:00 PM 3.6 38.48 0.637 8.52 6.92 11.9
12/16/2020 10:30:00 PM 3.53 38.354 0.636 8.52 6.21 11.88
12/16/2020 10:45:00 PM 3.49 38.282 0.636 8.53 6.5 11.91
12/16/2020 11:00:00 PM 3.34 38.012 0.635 8.53 5.66 11.93
12/16/2020 11:15:00 PM 3.19 37.742 0.634 8.53 6.42 11.93
12/16/2020 11:30:00 PM 3.09 37.562 0.633 8.54 5.62 11.92
12/16/2020 11:45:00 PM 3.03 37.454 0.633 8.53 6.93 11.94
12/17/2020 12:00:00 AM 2.96 37.328 0.632 8.53 5.68 11.93
12/17/2020 12:15:00 AM 2.94 37.292 0.632 8.53 5.83 11.93
12/17/2020 12:30:00 AM 2.91 37.238 0.631 8.53 7.46 11.93
12/17/2020 12:45:00 AM 2.85 37.13 0.631 8.53 9.08 11.94
12/17/2020 1:00:00 AM 2.8 37.04 0.63 8.53 6.57 11.97
12/17/2020 1:15:00 AM 2.74 36.932 0.63 8.53 6.68 11.95
12/17/2020 1:30:00 AM 2.67 36.806 0.629 8.54 8.65 11.97
12/17/2020 1:45:00 AM 2.57 36.626 0.629 8.53 5.9 11.99
12/17/2020 2:00:00 AM 2.49 36.482 0.628 8.54 5.49 12.02
12/17/2020 2:15:00 AM 2.45 36.41 0.628 8.54 7.2 12.02
12/17/2020 2:30:00 AM 2.45 36.41 0.629 8.53 6.14 12.06
12/17/2020 2:45:00 AM 2.44 36.392 0.629 8.53 7.19 12.04
12/17/2020 3:00:00 AM 2.46 36.428 0.63 8.53 6.09 12.06
12/17/2020 3:15:00 AM 2.51 36.518 0.631 8.53 5.94 12.05
12/17/2020 3:30:00 AM 2.54 36.572 0.632 8.52 10.03 12.05
12/17/2020 3:45:00 AM 2.59 36.662 0.632 8.52 4.41 12.07
12/17/2020 4:00:00 AM 2.64 36.752 0.632 8.51 5.14 12.06
12/17/2020 4:15:00 AM 2.7 36.86 0.633 8.5 5.61 12.06
12/17/2020 4:30:00 AM 2.75 36.95 0.633 8.5 5.5 12.06
12/17/2020 4:45:00 AM 2.81 37.058 0.634 8.49 5.41 12.04
12/17/2020 5:00:00 AM 2.88 37.184 0.634 8.49 5.45 12.03
12/17/2020 5:15:00 AM 2.94 37.292 0.634 8.48 7.05 12.01
12/17/2020 5:30:00 AM 3 37.4 0.634 8.48 5.88 12.01
12/17/2020 5:45:00 AM 3.1 37.58 0.633 8.47 5.64 11.98
12/17/2020 6:00:00 AM 3.22 37.796 0.633 8.47 6.39 11.97
12/17/2020 6:15:00 AM 3.28 37.904 0.634 8.46 7.17 11.94
12/17/2020 6:30:00 AM 3.27 37.886 0.638 8.46 6.99 11.95
12/17/2020 6:45:00 AM 3.18 37.724 0.642 8.46 12.15 12.01
12/17/2020 7:00:00 AM 3.09 37.562 0.643 8.46 5.86 12.05
12/17/2020 7:15:00 AM 3.04 37.472 0.642 8.47 5.68 12.08
12/17/2020 7:30:00 AM 3.03 37.454 0.64 8.48 4.32 12.1
12/17/2020 7:45:00 AM 3.04 37.472 0.637 8.48 7.78 12.13
12/17/2020 8:00:00 AM 3.07 37.526 0.634 8.48 7.5 12.17
12/17/2020 8:15:00 AM 3.1 37.58 0.633 8.48 9.72 12.26
12/17/2020 8:30:00 AM 3.12 37.616 0.632 8.48 6.55 12.38
12/17/2020 8:45:00 AM 3.16 37.688 0.631 8.48 6.12 12.51
12/17/2020 9:00:00 AM 3.19 37.742 0.63 8.49 6.64 12.67
12/17/2020 9:15:00 AM 3.23 37.814 0.63 8.49 6.04 12.83
12/17/2020 9:30:00 AM 3.28 37.904 0.63 8.5 6.77 13.05
12/17/2020 9:45:00 AM 3.33 37.994 0.629 8.51 6.7 13.27
12/17/2020 10:00:00 AM 3.4 38.12 0.629 8.52 5.69 13.53
12/17/2020 10:15:00 AM 3.48 38.264 0.629 8.54 5.68 13.77
12/17/2020 10:30:00 AM 3.57 38.426 0.628 8.55 6.01 13.99
12/17/2020 10:45:00 AM 3.65 38.57 0.628 8.57 5.69 14.22
12/17/2020 11:00:00 AM 3.71 38.678 0.628 8.58 4.83 14.45
12/17/2020 11:15:00 AM 3.74 38.732 0.629 8.59 7.29 14.63
12/17/2020 11:30:00 AM 3.79 38.822 0.63 8.61 4.88 14.78
12/17/2020 11:45:00 AM 3.86 38.948 0.63 8.62 5.15 14.91
12/17/2020 12:00:00 PM 3.96 39.128 0.631 8.62 6.29 14.99
12/17/2020 12:15:00 PM 4.05 39.29 0.632 8.62 4.44 15.1
12/17/2020 12:30:00 PM 4.18 39.524 0.632 8.63 5.59 15.14
12/17/2020 12:45:00 PM 4.37 39.866 0.631 8.64 4.63 15.2
12/17/2020 1:00:00 PM 4.56 40.208 0.63 8.64 5.12 15.25
12/17/2020 1:15:00 PM 4.74 40.532 0.63 8.64 5.13 15.27
12/17/2020 1:30:00 PM 4.87 40.766 0.63 8.65 6.09 15.28
12/17/2020 1:45:00 PM 4.97 40.946 0.63 8.66 5.21 15.3
12/17/2020 2:00:00 PM 5.04 41.072 0.629 8.66 5.38 15.3
12/17/2020 2:15:00 PM 5.08 41.144 0.629 8.67 5.81 15.28
12/17/2020 2:30:00 PM 5.11 41.198 0.629 8.68 5.45 15.24
12/17/2020 2:45:00 PM 5.13 41.234 0.629 8.68 4.96 15.18
12/17/2020 3:00:00 PM 5.13 41.234 0.629 8.69 7.49 15.12
12/17/2020 3:15:00 PM 5.13 41.234 0.628 8.69 4.96 15.02
12/17/2020 3:30:00 PM 5.11 41.198 0.628 8.69 5.34 14.9
12/17/2020 3:45:00 PM 5.09 41.162 0.628 8.69 4.7 14.75
12/17/2020 4:00:00 PM 5.07 41.126 0.628 8.69 5.25 14.59
12/17/2020 4:15:00 PM 5.06 41.108 0.629 8.68 5.05 14.42
12/17/2020 4:30:00 PM 5.05 41.09 0.629 8.67 4.92 14.21
12/17/2020 4:45:00 PM 5.06 41.108 0.629 8.66 4.71 14.03
12/17/2020 5:00:00 PM 5.07 41.126 0.63 8.65 4.65 13.79
12/17/2020 5:15:00 PM 5.1 41.18 0.63 8.64 5.04 13.59
12/17/2020 5:30:00 PM 5.13 41.234 0.631 8.63 5.21 13.41
12/17/2020 5:45:00 PM 5.15 41.27 0.631 8.61 5.06 13.25
12/17/2020 6:00:00 PM 5.19 41.342 0.631 8.6 5.15 13.11
12/17/2020 6:15:00 PM 5.22 41.396 0.632 8.59 4.72 13.01
12/17/2020 6:30:00 PM 5.24 41.432 0.631 8.58 6.45 12.94
12/17/2020 6:45:00 PM 5.27 41.486 0.632 8.57 6.36 12.84
12/17/2020 7:00:00 PM 5.29 41.522 0.631 8.57 6.52 12.77
12/17/2020 7:15:00 PM 5.31 41.558 0.631 8.56 6.5 12.69
12/17/2020 7:30:00 PM 5.33 41.594 0.631 8.56 6.3 12.6
12/17/2020 7:45:00 PM 5.34 41.612 0.631 8.55 6.1 12.54
12/17/2020 8:00:00 PM 5.34 41.612 0.631 8.55 8.21 12.47
12/17/2020 8:15:00 PM 5.35 41.63 0.63 8.54 6.35 12.38
12/17/2020 8:30:00 PM 5.36 41.648 0.63 8.54 10.73 12.35
12/17/2020 8:45:00 PM 5.36 41.648 0.63 8.53 6.72 12.28
12/17/2020 9:00:00 PM 5.37 41.666 0.629 8.53 6.03 12.22
12/17/2020 9:15:00 PM 5.37 41.666 0.629 8.53 8.34 12.14
12/17/2020 9:30:00 PM 5.36 41.648 0.63 8.52 6.16 12.09
12/17/2020 9:45:00 PM 5.35 41.63 0.63 8.52 8.54 12.05
12/17/2020 10:00:00 PM 5.33 41.594 0.631 8.52 6.04 12
12/17/2020 10:15:00 PM 5.32 41.576 0.632 8.51 7.41 11.95
12/17/2020 10:30:00 PM 5.31 41.558 0.634 8.51 7.41 11.9
12/17/2020 10:45:00 PM 5.31 41.558 0.636 8.5 8.57 11.85
12/17/2020 11:00:00 PM 5.3 41.54 0.637 8.5 7.19 11.81
12/17/2020 11:15:00 PM 5.29 41.522 0.639 8.5 7.22 11.77
12/17/2020 11:30:00 PM 5.27 41.486 0.64 8.49 6.6 11.72
12/17/2020 11:45:00 PM 5.26 41.468 0.641 8.49 13.27 11.68
12/18/2020 12:00:00 AM 5.24 41.432 0.641 8.49 9.11 11.65
12/18/2020 12:15:00 AM 5.23 41.414 0.642 8.49 10.26 11.61
12/18/2020 12:30:00 AM 5.21 41.378 0.642 8.48 15.68 11.58
12/18/2020 12:45:00 AM 5.2 41.36 0.641 8.48 8.58 11.54
12/18/2020 1:00:00 AM 5.18 41.324 0.641 8.48 8.88 11.52
12/18/2020 1:15:00 AM 5.17 41.306 0.641 8.48 8.59 11.48
12/18/2020 1:30:00 AM 5.16 41.288 0.641 8.47 7.11 11.46
12/18/2020 1:45:00 AM 5.16 41.288 0.64 8.47 8.27 11.43
12/18/2020 2:00:00 AM 5.15 41.27 0.64 8.47 7.6 11.4
12/18/2020 2:15:00 AM 5.12 41.216 0.64 8.47 8.64 11.4
12/18/2020 2:30:00 AM 5.1 41.18 0.639 8.46 9.03 11.38
12/18/2020 2:45:00 AM 5.09 41.162 0.639 8.46 9.59 11.38
12/18/2020 3:00:00 AM 5.07 41.126 0.638 8.46 7.33 11.37
12/18/2020 3:15:00 AM 5.06 41.108 0.638 8.46 8.2 11.36
12/18/2020 3:30:00 AM 5.05 41.09 0.637 8.46 8.86 11.36
12/18/2020 3:45:00 AM 5.06 41.108 0.637 8.46 8.58 11.35
12/18/2020 4:00:00 AM 5.06 41.108 0.636 8.45 10.12 11.35
12/18/2020 4:15:00 AM 5.07 41.126 0.635 8.45 6.43 11.35
12/18/2020 4:30:00 AM 5.12 41.216 0.635 8.45 10.29 11.35
12/18/2020 4:45:00 AM 5.15 41.27 0.637 8.44 10.13 11.33
12/18/2020 5:00:00 AM 5.12 41.216 0.642 8.44 8.21 11.35
12/18/2020 5:15:00 AM 5.05 41.09 0.645 8.44 8 11.35
12/18/2020 5:30:00 AM 4.98 40.964 0.646 8.45 8.63 11.36
12/18/2020 5:45:00 AM 4.95 40.91 0.645 8.45 11.56 11.38
12/18/2020 6:00:00 AM 4.95 40.91 0.642 8.45 8.43 11.36
12/18/2020 6:15:00 AM 4.97 40.946 0.64 8.45 7.93 11.35
12/18/2020 6:30:00 AM 4.99 40.982 0.638 8.44 6.94 11.36
12/18/2020 6:45:00 AM 5 41 0.637 8.44 15.6 11.34
12/18/2020 7:00:00 AM 5.01 41.018 0.636 8.44 9.48 11.34
12/18/2020 7:15:00 AM 5.02 41.036 0.636 8.44 6.81 11.32
12/18/2020 7:30:00 AM 5.03 41.054 0.636 8.43 7.08 11.33
12/18/2020 7:45:00 AM 5.04 41.072 0.637 8.43 5.45 11.35
12/18/2020 8:00:00 AM 5.05 41.09 0.637 8.44 7.04 11.4
12/18/2020 8:15:00 AM 5.07 41.126 0.638 8.44 8.27 11.49
12/18/2020 8:30:00 AM 5.09 41.162 0.638 8.44 7.73 11.61
12/18/2020 8:45:00 AM 5.12 41.216 0.638 8.44 7.39 11.77
12/18/2020 9:00:00 AM 5.16 41.288 0.639 8.45 6.96 11.98
12/18/2020 9:15:00 AM 5.2 41.36 0.64 8.46 6.6 12.21
12/18/2020 9:30:00 AM 5.25 41.45 0.64 8.47 5.62 12.46
12/18/2020 9:45:00 AM 5.31 41.558 0.641 8.48 6.43 12.7
12/18/2020 10:00:00 AM 5.38 41.684 0.641 8.49 7.91 12.95
12/18/2020 10:15:00 AM 5.44 41.792 0.642 8.51 10.23 13.17
12/18/2020 10:30:00 AM 5.5 41.9 0.643 8.51 9.27 13.4
12/18/2020 10:45:00 AM 5.57 42.026 0.643 8.53 9.91 13.62
12/18/2020 11:00:00 AM 5.62 42.116 0.644 8.54 12.55 13.84
12/18/2020 11:15:00 AM 5.69 42.242 0.645 8.56 9.28 14.04
12/18/2020 11:30:00 AM 5.78 42.404 0.646 8.57 7.28 14.3
12/18/2020 11:45:00 AM 5.84 42.512 0.646 8.59 9.02 14.53
12/18/2020 12:00:00 PM 5.92 42.656 0.647 8.6 12.67 14.69
12/18/2020 12:15:00 PM 5.99 42.782 0.648 8.62 11.01 14.83
12/18/2020 12:30:00 PM 6.04 42.872 0.65 8.63 9.64 14.93
12/18/2020 12:45:00 PM 6.06 42.908 0.651 8.64 8.66 14.97
12/18/2020 1:00:00 PM 6.08 42.944 0.653 8.64 9.86 15
12/18/2020 1:15:00 PM 6.1 42.98 0.654 8.65 12.06 15.03
12/18/2020 1:30:00 PM 6.13 43.034 0.656 8.66 10.56 15.06
12/18/2020 1:45:00 PM 6.17 43.106 0.657 8.67 9.06 15.15
12/18/2020 2:00:00 PM 6.22 43.196 0.658 8.67 8.03 15.19
12/18/2020 2:15:00 PM 6.24 43.232 0.66 8.68 12.72 15.25
12/18/2020 2:30:00 PM 6.23 43.214 0.661 8.68 8.95 15.24
12/18/2020 2:45:00 PM 6.29 43.322 0.661 8.69 11.52 15.24
12/18/2020 3:00:00 PM 6.36 43.448 0.662 8.69 8.98 15.31
12/18/2020 3:15:00 PM 6.39 43.502 0.663 8.69 8.89 15.35
12/18/2020 3:30:00 PM 6.37 43.466 0.664 8.7 8.82 15.26
12/18/2020 3:45:00 PM 6.35 43.43 0.664 8.7 8.79 15.14
12/18/2020 4:00:00 PM 6.3 43.34 0.665 8.7 7.99 14.95
12/18/2020 4:15:00 PM 6.24 43.232 0.665 8.69 9.13 14.68
12/18/2020 4:30:00 PM 6.19 43.142 0.665 8.69 10.09 14.42
12/18/2020 4:45:00 PM 6.13 43.034 0.666 8.68 9 14.16
12/18/2020 5:00:00 PM 6.09 42.962 0.666 8.67 9.26 13.89
12/18/2020 5:15:00 PM 6.04 42.872 0.666 8.66 8.1 13.64
12/18/2020 5:30:00 PM 6 42.8 0.666 8.64 7.98 13.41
12/18/2020 5:45:00 PM 5.97 42.746 0.665 8.63 8.05 13.22
12/18/2020 6:00:00 PM 5.94 42.692 0.665 8.62 8.46 13.08
12/18/2020 6:15:00 PM 5.91 42.638 0.665 8.61 6.18 12.96
12/18/2020 6:30:00 PM 5.89 42.602 0.664 8.6 8.04 12.83
12/18/2020 6:45:00 PM 5.86 42.548 0.664 8.59 9.37 12.73
12/18/2020 7:00:00 PM 5.83 42.494 0.664 8.58 7.61 12.65
12/18/2020 7:15:00 PM 5.8 42.44 0.663 8.58 6.53 12.57
12/18/2020 7:30:00 PM 5.77 42.386 0.662 8.57 6.8 12.49
12/18/2020 7:45:00 PM 5.74 42.332 0.662 8.57 6.08 12.42
12/18/2020 8:00:00 PM 5.71 42.278 0.661 8.56 7.94 12.37
12/18/2020 8:15:00 PM 5.67 42.206 0.661 8.56 6.66 12.29
12/18/2020 8:30:00 PM 5.63 42.134 0.661 8.56 8.19 12.23
12/18/2020 8:45:00 PM 5.59 42.062 0.66 8.55 8.46 12.18
12/18/2020 9:00:00 PM 5.54 41.972 0.659 8.55 6.15 12.12
12/18/2020 9:15:00 PM 5.5 41.9 0.659 8.55 5.69 12.07
12/18/2020 9:30:00 PM 5.46 41.828 0.659 8.55 7.02 12.02
12/18/2020 9:45:00 PM 5.41 41.738 0.659 8.54 7.68 11.95
12/18/2020 10:00:00 PM 5.36 41.648 0.658 8.54 6.32 11.91
12/18/2020 10:15:00 PM 5.32 41.576 0.658 8.53 6.5 11.87
12/18/2020 10:30:00 PM 5.27 41.486 0.658 8.53 7.45 11.84
12/18/2020 10:45:00 PM 5.25 41.45 0.657 8.53 5.45 11.81
12/18/2020 11:00:00 PM 5.24 41.432 0.656 8.53 7.99 11.76
12/18/2020 11:15:00 PM 5.2 41.36 0.659 8.52 10.36 11.75
12/18/2020 11:30:00 PM 5.12 41.216 0.664 8.52 7.8 11.74
12/18/2020 11:45:00 PM 5 41 0.668 8.52 7.37 11.75
12/19/2020 12:00:00 AM 4.9 40.82 0.669 8.52 7.27 11.73
12/19/2020 12:15:00 AM 4.84 40.712 0.668 8.52 9.36 11.72
12/19/2020 12:30:00 AM 4.81 40.658 0.665 8.52 6.71 11.7
12/19/2020 12:45:00 AM 4.78 40.604 0.663 8.52 8.63 11.65
12/19/2020 1:00:00 AM 4.76 40.568 0.662 8.52 7.63 11.61
12/19/2020 1:15:00 AM 4.73 40.514 0.661 8.51 6.97 11.6
12/19/2020 1:30:00 AM 4.71 40.478 0.661 8.51 6.27 11.58
12/19/2020 1:45:00 AM 4.69 40.442 0.661 8.51 6.21 11.56
12/19/2020 2:00:00 AM 4.67 40.406 0.66 8.5 7.37 11.54
12/19/2020 2:15:00 AM 4.64 40.352 0.66 8.5 7.94 11.52
12/19/2020 2:30:00 AM 4.61 40.298 0.66 8.49 7.76 11.51
12/19/2020 2:45:00 AM 4.58 40.244 0.66 8.49 6.54 11.5
12/19/2020 3:00:00 AM 4.54 40.172 0.661 8.49 5.6 11.49
12/19/2020 3:15:00 AM 4.52 40.136 0.661 8.48 8.28 11.47
12/19/2020 3:30:00 AM 4.48 40.064 0.661 8.49 8.29 11.48
12/19/2020 3:45:00 AM 4.46 40.028 0.662 8.48 9.7 11.47
12/19/2020 4:00:00 AM 4.44 39.992 0.662 8.48 7.36 11.45
12/19/2020 4:15:00 AM 4.41 39.938 0.662 8.48 11.24 11.45
12/19/2020 4:30:00 AM 4.39 39.902 0.662 8.48 10.08 11.45
12/19/2020 4:45:00 AM 4.37 39.866 0.663 8.47 9.28 11.43
12/19/2020 5:00:00 AM 4.34 39.812 0.663 8.47 5.71 11.43
12/19/2020 5:15:00 AM 4.31 39.758 0.663 8.47 7.21 11.44
12/19/2020 5:30:00 AM 4.28 39.704 0.663 8.47 6.53 11.43
12/19/2020 5:45:00 AM 4.26 39.668 0.663 8.47 23.77 11.45
12/19/2020 6:00:00 AM 4.22 39.596 0.663 8.47 6.06 11.46
12/19/2020 6:15:00 AM 4.2 39.56 0.663 8.47 6.15 11.46
12/19/2020 6:30:00 AM 4.16 39.488 0.663 8.47 6.85 11.46
12/19/2020 6:45:00 AM 4.13 39.434 0.663 8.47 6.39 11.49
12/19/2020 7:00:00 AM 4.08 39.344 0.663 8.47 5.53 11.51
12/19/2020 7:15:00 AM 4.05 39.29 0.663 8.46 7.01 11.53
12/19/2020 7:30:00 AM 4.02 39.236 0.663 8.47 5.93 11.56
12/19/2020 7:45:00 AM 3.99 39.182 0.663 8.47 5.96 11.59
12/19/2020 8:00:00 AM 3.96 39.128 0.663 8.47 6.63 11.66
12/19/2020 8:15:00 AM 3.94 39.092 0.663 8.47 6.32 11.78
12/19/2020 8:30:00 AM 3.93 39.074 0.663 8.47 5.14 11.94
12/19/2020 8:45:00 AM 3.94 39.092 0.662 8.48 5.35 12.14
12/19/2020 9:00:00 AM 3.94 39.092 0.662 8.49 8.53 12.37
12/19/2020 9:15:00 AM 3.95 39.11 0.662 8.5 5.19 12.59
12/19/2020 9:30:00 AM 3.97 39.146 0.662 8.5 6.86 12.78
12/19/2020 9:45:00 AM 3.99 39.182 0.662 8.51 5.87 12.99
12/19/2020 10:00:00 AM 4.04 39.272 0.662 8.52 6.93 13.21
12/19/2020 10:15:00 AM 4.1 39.38 0.662 8.54 12.82 13.44
12/19/2020 10:30:00 AM 4.16 39.488 0.662 8.55 5.95 13.7
12/19/2020 10:45:00 AM 4.24 39.632 0.661 8.56 7.94 13.94
12/19/2020 11:00:00 AM 4.33 39.794 0.661 8.57 7.67 14.23
12/19/2020 11:15:00 AM 4.42 39.956 0.661 8.58 5.32 14.43
12/19/2020 11:30:00 AM 4.51 40.118 0.661 8.6 5.6 14.65
12/19/2020 11:45:00 AM 4.59 40.262 0.661 8.61 7.48 14.83
12/19/2020 12:00:00 PM 4.67 40.406 0.661 8.63 6.97 15.01
12/19/2020 12:15:00 PM 4.75 40.55 0.662 8.64 6.65 15.17
12/19/2020 12:30:00 PM 4.83 40.694 0.662 8.65 5.32 15.28
12/19/2020 12:45:00 PM 4.9 40.82 0.662 8.66 5.78 15.41
12/19/2020 1:00:00 PM 4.98 40.964 0.663 8.67 5.52 15.53
12/19/2020 1:15:00 PM 5.07 41.126 0.663 8.68 5.76 15.64
12/19/2020 1:30:00 PM 5.13 41.234 0.664 8.69 5.42 15.74
12/19/2020 1:45:00 PM 5.19 41.342 0.665 8.7 5.56 15.8
12/19/2020 2:00:00 PM 5.23 41.414 0.666 8.7 5.42 15.84
12/19/2020 2:15:00 PM 5.27 41.486 0.667 8.71 6.59 15.85
12/19/2020 2:30:00 PM 5.3 41.54 0.668 8.72 5.54 15.85
12/19/2020 2:45:00 PM 5.32 41.576 0.669 8.72 7.19 15.8
12/19/2020 3:00:00 PM 5.34 41.612 0.671 8.72 6.05 15.75
12/19/2020 3:15:00 PM 5.36 41.648 0.672 8.73 5.6 15.71
12/19/2020 3:30:00 PM 5.37 41.666 0.674 8.73 5.41 15.61
12/19/2020 3:45:00 PM 5.38 41.684 0.675 8.73 5.48 15.48
12/19/2020 4:00:00 PM 5.38 41.684 0.676 8.73 6.35 15.33
12/19/2020 4:15:00 PM 5.37 41.666 0.678 8.72 5.39 15.14
12/19/2020 4:30:00 PM 5.36 41.648 0.679 8.71 6.45 14.9
12/19/2020 4:45:00 PM 5.34 41.612 0.68 8.71 5.08 14.66
12/19/2020 5:00:00 PM 5.32 41.576 0.68 8.7 5.12 14.41
12/19/2020 5:15:00 PM 5.31 41.558 0.681 8.68 5.26 14.16
12/19/2020 5:30:00 PM 5.3 41.54 0.681 8.67 6 13.94
12/19/2020 5:45:00 PM 5.3 41.54 0.682 8.66 8.04 13.73
12/19/2020 6:00:00 PM 5.3 41.54 0.681 8.65 6.18 13.56
12/19/2020 6:15:00 PM 5.29 41.522 0.681 8.64 7.66 13.4
12/19/2020 6:30:00 PM 5.26 41.468 0.681 8.63 6.81 13.25
12/19/2020 6:45:00 PM 5.24 41.432 0.681 8.62 6.61 13.12
12/19/2020 7:00:00 PM 5.2 41.36 0.68 8.61 10.16 13.02
12/19/2020 7:15:00 PM 5.17 41.306 0.68 8.61 5.58 12.93
12/19/2020 7:30:00 PM 5.14 41.252 0.68 8.6 6.33 12.83
12/19/2020 7:45:00 PM 5.11 41.198 0.679 8.59 6.11 12.75
12/19/2020 8:00:00 PM 5.09 41.162 0.678 8.59 6.3 12.68
12/19/2020 8:15:00 PM 5.07 41.126 0.678 8.58 6.47 12.61
12/19/2020 8:30:00 PM 5.06 41.108 0.677 8.58 5.91 12.56
12/19/2020 8:45:00 PM 5.06 41.108 0.676 8.57 7.99 12.5
12/19/2020 9:00:00 PM 5.06 41.108 0.675 8.57 6.43 12.42
12/19/2020 9:15:00 PM 5.06 41.108 0.674 8.56 6.88 12.37
12/19/2020 9:30:00 PM 5.06 41.108 0.674 8.56 9.42 12.3
12/19/2020 9:45:00 PM 5.05 41.09 0.673 8.55 6.4 12.25
12/19/2020 10:00:00 PM 5.05 41.09 0.672 8.55 5.36 12.2
12/19/2020 10:15:00 PM 5.04 41.072 0.671 8.55 7.31 12.14
12/19/2020 10:30:00 PM 5.03 41.054 0.67 8.54 10.56 12.11
12/19/2020 10:45:00 PM 5.02 41.036 0.67 8.54 5.84 12.07
12/19/2020 11:00:00 PM 5.01 41.018 0.669 8.54 5.79 12.02
12/19/2020 11:15:00 PM 5.02 41.036 0.669 8.54 6.41 11.97
12/19/2020 11:30:00 PM 5.02 41.036 0.668 8.53 5.75 11.91
12/19/2020 11:45:00 PM 5.02 41.036 0.668 8.53 6.07 11.87
12/20/2020 12:00:00 AM 5.02 41.036 0.668 8.53 6.03 11.83
12/20/2020 12:15:00 AM 5.02 41.036 0.668 8.52 6.92 11.79
12/20/2020 12:30:00 AM 5.02 41.036 0.668 8.52 7.02 11.75
12/20/2020 12:45:00 AM 5.03 41.054 0.668 8.51 6.27 11.71
12/20/2020 1:00:00 AM 5.03 41.054 0.668 8.51 6.99 11.67
12/20/2020 1:15:00 AM 5.04 41.072 0.668 8.51 5.23 11.64
12/20/2020 1:30:00 AM 5.04 41.072 0.668 8.51 6.01 11.61
12/20/2020 1:45:00 AM 5.05 41.09 0.668 8.5 12.08 11.57
12/20/2020 2:00:00 AM 5.06 41.108 0.669 8.5 5.07 11.54
12/20/2020 2:15:00 AM 5.07 41.126 0.669 8.49 5.32 11.52
12/20/2020 2:30:00 AM 5.08 41.144 0.668 8.49 6.37 11.5
12/20/2020 2:45:00 AM 5.09 41.162 0.668 8.49 5.62 11.47
12/20/2020 3:00:00 AM 5.09 41.162 0.668 8.48 7.87 11.44
12/20/2020 3:15:00 AM 5.1 41.18 0.668 8.48 8.94 11.43
12/20/2020 3:30:00 AM 5.11 41.198 0.667 8.48 5.64 11.41
12/20/2020 3:45:00 AM 5.12 41.216 0.667 8.47 6.99 11.39
12/20/2020 4:00:00 AM 5.13 41.234 0.667 8.48 5.16 11.38
12/20/2020 4:15:00 AM 5.14 41.252 0.667 8.47 4.33 11.35
12/20/2020 4:30:00 AM 5.15 41.27 0.666 8.47 5.26 11.35
12/20/2020 4:45:00 AM 5.15 41.27 0.666 8.46 6.2 11.33
12/20/2020 5:00:00 AM 5.16 41.288 0.666 8.46 5.13 11.3
12/20/2020 5:15:00 AM 5.17 41.306 0.666 8.46 5.7 11.31
12/20/2020 5:30:00 AM 5.18 41.324 0.666 8.47 5.4 11.3
12/20/2020 5:45:00 AM 5.19 41.342 0.666 8.47 9.06 11.27
12/20/2020 6:00:00 AM 5.2 41.36 0.667 8.47 7.34 11.26
12/20/2020 6:15:00 AM 5.21 41.378 0.667 8.46 5.66 11.23
12/20/2020 6:30:00 AM 5.23 41.414 0.667 8.46 5.21 11.2
12/20/2020 6:45:00 AM 5.24 41.432 0.668 8.46 5.57 11.21
12/20/2020 7:00:00 AM 5.26 41.468 0.668 8.46 6.48 11.19
12/20/2020 7:15:00 AM 5.29 41.522 0.669 8.45 7.16 11.16
12/20/2020 7:30:00 AM 5.31 41.558 0.669 8.45 7.39 11.16
12/20/2020 7:45:00 AM 5.33 41.594 0.669 8.45 6.28 11.16
12/20/2020 8:00:00 AM 5.36 41.648 0.669 8.45 9.08 11.16
12/20/2020 8:15:00 AM 5.41 41.738 0.668 8.45 7.66 11.21
12/20/2020 8:30:00 AM 5.46 41.828 0.669 8.45 7.39 11.27
12/20/2020 8:45:00 AM 5.48 41.864 0.672 8.45 8.49 11.38
12/20/2020 9:00:00 AM 5.45 41.81 0.678 8.45 7.35 11.53
12/20/2020 9:15:00 AM 5.42 41.756 0.682 8.46 6.69 11.75
12/20/2020 9:30:00 AM 5.41 41.738 0.683 8.47 6.2 12.01
12/20/2020 9:45:00 AM 5.43 41.774 0.681 8.48 6.6 12.24
12/20/2020 10:00:00 AM 5.47 41.846 0.677 8.49 5.8 12.38
12/20/2020 10:15:00 AM 5.53 41.954 0.673 8.51 5.35 12.59
12/20/2020 10:30:00 AM 5.6 42.08 0.67 8.51 5.31 12.82
12/20/2020 10:45:00 AM 5.65 42.17 0.668 8.53 4.93 13.02
12/20/2020 11:00:00 AM 5.7 42.26 0.667 8.54 5.39 13.2
12/20/2020 11:15:00 AM 5.76 42.368 0.666 8.55 5.14 13.45
12/20/2020 11:30:00 AM 5.83 42.494 0.665 8.57 4.92 13.77
12/20/2020 11:45:00 AM 5.87 42.566 0.666 8.58 5.25 14.01
12/20/2020 12:00:00 PM 5.89 42.602 0.666 8.6 4.78 14.18
12/20/2020 12:15:00 PM 5.92 42.656 0.666 8.61 5.41 14.34
12/20/2020 12:30:00 PM 5.97 42.746 0.667 8.62 4.77 14.48
12/20/2020 12:45:00 PM 6.02 42.836 0.666 8.63 5.44 14.61
12/20/2020 1:00:00 PM 6.09 42.962 0.666 8.65 5 14.76
12/20/2020 1:15:00 PM 6.19 43.142 0.664 8.65 6.18 14.96
12/20/2020 1:30:00 PM 6.3 43.34 0.662 8.67 5.57 15.17
12/20/2020 1:45:00 PM 6.4 43.52 0.66 8.68 5.93 15.3
12/20/2020 2:00:00 PM 6.5 43.7 0.659 8.69 5.36 15.42
12/20/2020 2:15:00 PM 6.58 43.844 0.658 8.7 5.89 15.52
12/20/2020 2:30:00 PM 6.65 43.97 0.657 8.71 5.5 15.59
12/20/2020 2:45:00 PM 6.71 44.078 0.656 8.72 5.88 15.64
12/20/2020 3:00:00 PM 6.76 44.168 0.655 8.73 6.18 15.67
12/20/2020 3:15:00 PM 6.78 44.204 0.655 8.73 5.76 15.59
12/20/2020 3:30:00 PM 6.8 44.24 0.655 8.74 8.76 15.43
12/20/2020 3:45:00 PM 6.81 44.258 0.655 8.74 5.61 15.23
12/20/2020 4:00:00 PM 6.81 44.258 0.654 8.73 5.8 14.98
12/20/2020 4:15:00 PM 6.8 44.24 0.654 8.73 6.77 14.73
12/20/2020 4:30:00 PM 6.79 44.222 0.655 8.72 5.81 14.44
12/20/2020 4:45:00 PM 6.78 44.204 0.655 8.71 7.03 14.13
12/20/2020 5:00:00 PM 6.77 44.186 0.655 8.7 6.13 13.84
12/20/2020 5:15:00 PM 6.76 44.168 0.655 8.68 7 13.51
12/20/2020 5:30:00 PM 6.77 44.186 0.656 8.67 6.32 13.28
12/20/2020 5:45:00 PM 6.77 44.186 0.656 8.65 6.75 13.03
12/20/2020 6:00:00 PM 6.78 44.204 0.656 8.64 12.46 12.83
12/20/2020 6:15:00 PM 6.79 44.222 0.656 8.62 6.48 12.65
12/20/2020 6:30:00 PM 6.8 44.24 0.656 8.61 7.27 12.5
12/20/2020 6:45:00 PM 6.81 44.258 0.656 8.6 10.33 12.37
12/20/2020 7:00:00 PM 6.84 44.312 0.656 8.59 10.03 12.21
12/20/2020 7:15:00 PM 6.86 44.348 0.658 8.58 7.01 12.1
12/20/2020 7:30:00 PM 6.85 44.33 0.662 8.57 7.22 12.01
12/20/2020 7:45:00 PM 6.81 44.258 0.667 8.56 7.32 11.96
12/20/2020 8:00:00 PM 6.78 44.204 0.669 8.56 8.32 11.91
12/20/2020 8:15:00 PM 6.77 44.186 0.667 8.56 7.8 11.86
12/20/2020 8:30:00 PM 6.77 44.186 0.664 8.55 7.98 11.78
12/20/2020 8:45:00 PM 6.79 44.222 0.662 8.55 8.2 11.7
12/20/2020 9:00:00 PM 6.8 44.24 0.66 8.54 6.5 11.65
12/20/2020 9:15:00 PM 6.82 44.276 0.658 8.54 6.13 11.57
12/20/2020 9:30:00 PM 6.84 44.312 0.657 8.53 7.92 11.52
12/20/2020 9:45:00 PM 6.85 44.33 0.657 8.52 6.46 11.45
12/20/2020 10:00:00 PM 6.86 44.348 0.656 8.55 6.13 11.39
12/20/2020 10:15:00 PM 6.87 44.366 0.655 8.55 6.27 11.34
12/20/2020 10:30:00 PM 6.88 44.384 0.655 8.54 7.96 11.27
12/20/2020 10:45:00 PM 6.89 44.402 0.655 8.53 6.55 11.23
12/20/2020 11:00:00 PM 6.9 44.42 0.655 8.52 12.03 11.16
12/20/2020 11:15:00 PM 6.9 44.42 0.655 8.52 7.34 11.13
12/20/2020 11:30:00 PM 6.9 44.42 0.654 8.51 10.19 11.08
12/20/2020 11:45:00 PM 6.91 44.438 0.655 8.51 6.01 11.02
12/21/2020 12:00:00 AM 6.91 44.438 0.655 8.5 7.16 10.97
12/21/2020 12:15:00 AM 6.91 44.438 0.654 8.5 7.27 10.93
12/21/2020 12:30:00 AM 6.91 44.438 0.655 8.49 6.24 10.88
12/21/2020 12:45:00 AM 6.91 44.438 0.654 8.49 5.94 10.85
12/21/2020 1:00:00 AM 6.91 44.438 0.654 8.48 7.79 10.81
12/21/2020 1:15:00 AM 6.91 44.438 0.655 8.48 7.29 10.77
12/21/2020 1:30:00 AM 6.91 44.438 0.655 8.47 8.2 10.75
12/21/2020 1:45:00 AM 6.91 44.438 0.655 8.47 6.95 10.72
12/21/2020 2:00:00 AM 6.91 44.438 0.654 8.47 8.2 10.7
12/21/2020 2:15:00 AM 6.91 44.438 0.655 8.47 6.98 10.66
12/21/2020 2:30:00 AM 6.91 44.438 0.655 8.46 6.31 10.64
12/21/2020 2:45:00 AM 6.91 44.438 0.655 8.46 7.7 10.62
12/21/2020 3:00:00 AM 6.9 44.42 0.655 8.45 7.82 10.59
12/21/2020 3:15:00 AM 6.91 44.438 0.655 8.45 10.68 10.57
12/21/2020 3:30:00 AM 6.91 44.438 0.655 8.45 7.01 10.54
12/21/2020 3:45:00 AM 6.9 44.42 0.655 8.45 9.07 10.52
12/21/2020 4:00:00 AM 6.91 44.438 0.656 8.45 6.93 10.51
12/21/2020 4:15:00 AM 6.92 44.456 0.656 8.44 7.17 10.48
12/21/2020 4:30:00 AM 6.92 44.456 0.656 8.44 7.28 10.46
12/21/2020 4:45:00 AM 6.92 44.456 0.656 8.44 9.44 10.45
12/21/2020 5:00:00 AM 6.92 44.456 0.656 8.44 11.76 10.42
12/21/2020 5:15:00 AM 6.93 44.474 0.657 8.43 5.91 10.4
12/21/2020 5:30:00 AM 6.94 44.492 0.657 8.43 7.27 10.39
12/21/2020 5:45:00 AM 6.94 44.492 0.657 8.43 5.84 10.38
12/21/2020 6:00:00 AM 6.95 44.51 0.658 8.43 6.37 10.36
12/21/2020 6:15:00 AM 6.96 44.528 0.657 8.43 7.4 10.35
12/21/2020 6:30:00 AM 6.97 44.546 0.658 8.42 6.51 10.33
12/21/2020 6:45:00 AM 6.98 44.564 0.658 8.43 6.66 10.32
12/21/2020 7:00:00 AM 6.99 44.582 0.658 8.42 5.85 10.3
12/21/2020 7:15:00 AM 7 44.6 0.658 8.42 9.11 10.31
12/21/2020 7:30:00 AM 7 44.6 0.658 8.42 11.25 10.3
12/21/2020 7:45:00 AM 7.01 44.618 0.658 8.42 5.48 10.29
12/21/2020 8:00:00 AM 7.02 44.636 0.659 8.42 5.81 10.31
12/21/2020 8:15:00 AM 7.03 44.654 0.658 8.41 6.26 10.35
12/21/2020 8:30:00 AM 7.05 44.69 0.659 8.42 9.64 10.42
12/21/2020 8:45:00 AM 7.07 44.726 0.659 8.42 8.97 10.52
12/21/2020 9:00:00 AM 7.09 44.762 0.658 8.42 6.12 10.71
12/21/2020 9:15:00 AM 7.11 44.798 0.658 8.42 5.91 10.88
12/21/2020 9:30:00 AM 7.14 44.852 0.658 8.44 5.69 11.14
12/21/2020 9:45:00 AM 7.18 44.924 0.657 8.45 5.95 11.48
12/21/2020 10:00:00 AM 7.23 45.014 0.656 8.46 5.74 11.82
12/21/2020 10:15:00 AM 7.28 45.104 0.656 8.48 6.41 12.18
12/21/2020 10:30:00 AM 7.35 45.23 0.655 8.49 6.01 12.58
12/21/2020 10:45:00 AM 7.42 45.356 0.654 8.51 5.84 12.91
12/21/2020 11:00:00 AM 7.48 45.464 0.653 8.53 5.97 13.2
12/21/2020 11:15:00 AM 7.55 45.59 0.652 8.55 4.96 13.53
12/21/2020 11:30:00 AM 7.62 45.716 0.651 8.57 4.97 13.83
12/21/2020 11:45:00 AM 7.67 45.806 0.651 8.59 5.15 14.08
12/21/2020 12:00:00 PM 7.72 45.896 0.65 8.61 7.26 14.31
12/21/2020 12:15:00 PM 7.78 46.004 0.649 8.63 4.93 14.52
12/21/2020 12:30:00 PM 7.84 46.112 0.648 8.65 5.46 14.73
12/21/2020 12:45:00 PM 7.9 46.22 0.648 8.66 5.4 14.91
12/21/2020 1:00:00 PM 7.95 46.31 0.648 8.68 5.03 15.06
12/21/2020 1:15:00 PM 8 46.4 0.648 8.69 5.4 15.14
12/21/2020 1:30:00 PM 8.04 46.472 0.648 8.7 5.26 15.23
12/21/2020 1:45:00 PM 8.06 46.508 0.647 8.71 6.02 15.24
12/21/2020 2:00:00 PM 8.08 46.544 0.648 8.71 8.17 15.23
12/21/2020 2:15:00 PM 8.1 46.58 0.647 8.72 5.51 15.23
12/21/2020 2:30:00 PM 8.11 46.598 0.647 8.73 5.85 15.25
12/21/2020 2:45:00 PM 8.12 46.616 0.647 8.74 6.1 15.21
12/21/2020 3:00:00 PM 8.12 46.616 0.647 8.74 7.68 15.15
12/21/2020 3:15:00 PM 8.14 46.652 0.647 8.75 5.35 15.13
12/21/2020 3:30:00 PM 8.14 46.652 0.647 8.75 6.8 15.04
12/21/2020 3:45:00 PM 8.13 46.634 0.647 8.75 5.87 14.89
12/21/2020 4:00:00 PM 8.11 46.598 0.647 8.75 10.77 14.62
12/21/2020 4:15:00 PM 8.09 46.562 0.648 8.74 5.15 14.34
12/21/2020 4:30:00 PM 8.06 46.508 0.649 8.73 5.13 14.01
12/21/2020 4:45:00 PM 8.03 46.454 0.65 8.72 5.35 13.73
12/21/2020 5:00:00 PM 7.99 46.382 0.651 8.7 6.37 13.42
12/21/2020 5:15:00 PM 7.96 46.328 0.652 8.7 6.97 13.14
12/21/2020 5:30:00 PM 7.94 46.292 0.653 8.68 6.68 12.88
12/21/2020 5:45:00 PM 7.92 46.256 0.653 8.66 4.82 12.67
12/21/2020 6:00:00 PM 7.9 46.22 0.654 8.65 6.12 12.46
12/21/2020 6:15:00 PM 7.89 46.202 0.655 8.64 5.21 12.27
12/21/2020 6:30:00 PM 7.87 46.166 0.655 8.62 5.56 12.1
12/21/2020 6:45:00 PM 7.86 46.148 0.655 8.61 5.62 11.96
12/21/2020 7:00:00 PM 7.85 46.13 0.656 8.6 5.18 11.81
12/21/2020 7:15:00 PM 7.84 46.112 0.656 8.58 4.71 11.7
12/21/2020 7:30:00 PM 7.82 46.076 0.656 8.57 6.3 11.59
12/21/2020 7:45:00 PM 7.81 46.058 0.656 8.56 4.72 11.52
12/21/2020 8:00:00 PM 7.79 46.022 0.655 8.55 5.42 11.42
12/21/2020 8:15:00 PM 7.77 45.986 0.655 8.54 7.82 11.34
12/21/2020 8:30:00 PM 7.76 45.968 0.654 8.54 6.24 11.26
12/21/2020 8:45:00 PM 7.74 45.932 0.653 8.53 7.19 11.19
12/21/2020 9:00:00 PM 7.73 45.914 0.653 8.53 5.8 11.12
12/21/2020 9:15:00 PM 7.71 45.878 0.653 8.52 5.5 11.06
12/21/2020 9:30:00 PM 7.7 45.86 0.653 8.51 6.19 11
12/21/2020 9:45:00 PM 7.69 45.842 0.653 8.51 5.32 10.95
12/21/2020 10:00:00 PM 7.68 45.824 0.653 8.51 7.07 10.9
12/21/2020 10:15:00 PM 7.67 45.806 0.653 8.5 5.62 10.85
12/21/2020 10:30:00 PM 7.66 45.788 0.653 8.5 6.36 10.8
12/21/2020 10:45:00 PM 7.65 45.77 0.653 8.49 11 10.75
12/21/2020 11:00:00 PM 7.64 45.752 0.653 8.49 5.78 10.71
12/21/2020 11:15:00 PM 7.64 45.752 0.653 8.49 7.07 10.68
12/21/2020 11:30:00 PM 7.63 45.734 0.653 8.48 6.3 10.64
12/21/2020 11:45:00 PM 7.62 45.716 0.652 8.48 6.36 10.61
12/22/2020 12:00:00 AM 7.61 45.698 0.652 8.47 6.81 10.56
12/22/2020 12:15:00 AM 7.6 45.68 0.652 8.47 5.33 10.52
12/22/2020 12:30:00 AM 7.6 45.68 0.653 8.46 5.72 10.48
12/22/2020 12:45:00 AM 7.59 45.662 0.653 8.46 6.31 10.42
12/22/2020 1:00:00 AM 7.59 45.662 0.652 8.45 7.09 10.39
12/22/2020 1:15:00 AM 7.58 45.644 0.652 8.45 5.25 10.35
12/22/2020 1:30:00 AM 7.57 45.626 0.653 8.44 5.6 10.32
12/22/2020 1:45:00 AM 7.56 45.608 0.653 8.44 6.25 10.27
12/22/2020 2:00:00 AM 7.56 45.608 0.653 8.44 5.19 10.24
12/22/2020 2:15:00 AM 7.55 45.59 0.653 8.43 5.75 10.22
12/22/2020 2:30:00 AM 7.55 45.59 0.652 8.43 7.2 10.2
12/22/2020 2:45:00 AM 7.55 45.59 0.652 8.43 6.38 10.18
12/22/2020 3:00:00 AM 7.54 45.572 0.652 8.42 7.82 10.16
12/22/2020 3:15:00 AM 7.54 45.572 0.652 8.42 5.06 10.14
12/22/2020 3:30:00 AM 7.54 45.572 0.652 8.41 5.68 10.13
12/22/2020 3:45:00 AM 7.54 45.572 0.652 8.41 7.11 10.11
12/22/2020 4:00:00 AM 7.53 45.554 0.652 8.41 7.48 10.09
12/22/2020 4:15:00 AM 7.53 45.554 0.652 8.41 6.98 10.07
12/22/2020 4:30:00 AM 7.53 45.554 0.652 8.41 7.66 10.07
12/22/2020 4:45:00 AM 7.52 45.536 0.652 8.41 16.1 10.05
12/22/2020 5:00:00 AM 7.52 45.536 0.652 8.41 11.34 10.03
12/22/2020 5:15:00 AM 7.52 45.536 0.652 8.41 5.93 10.02
12/22/2020 5:30:00 AM 7.52 45.536 0.652 8.41 6.78 10.02
12/22/2020 5:45:00 AM 7.52 45.536 0.651 8.4 4.9 10
12/22/2020 6:00:00 AM 7.52 45.536 0.651 8.4 6.52 10
12/22/2020 6:15:00 AM 7.52 45.536 0.652 8.4 7.03 10
12/22/2020 6:30:00 AM 7.52 45.536 0.652 8.4 9.37 9.98
12/22/2020 6:45:00 AM 7.51 45.518 0.652 8.4 6.1 9.97
12/22/2020 7:00:00 AM 7.51 45.518 0.652 8.4 5.27 9.97
12/22/2020 7:15:00 AM 7.51 45.518 0.652 8.4 6.97 9.97
12/22/2020 7:30:00 AM 7.51 45.518 0.652 8.39 6.13 9.97
12/22/2020 7:45:00 AM 7.52 45.536 0.653 8.4 6.78 10
12/22/2020 8:00:00 AM 7.52 45.536 0.652 8.4 5.12 10.07
12/22/2020 8:15:00 AM 7.53 45.554 0.652 8.4 4.61 10.18
12/22/2020 8:30:00 AM 7.54 45.572 0.652 8.4 5.29 10.38
12/22/2020 8:45:00 AM 7.57 45.626 0.653 8.41 5.44 10.67
12/22/2020 9:00:00 AM 7.6 45.68 0.653 8.42 6.32 10.99
12/22/2020 9:15:00 AM 7.63 45.734 0.653 8.44 5.7 11.29
12/22/2020 9:30:00 AM 7.65 45.77 0.654 8.45 5.48 11.62
12/22/2020 9:45:00 AM 7.69 45.842 0.654 8.47 5.42 11.93
12/22/2020 10:00:00 AM 7.72 45.896 0.654 8.49 5.31 12.16
12/22/2020 10:15:00 AM 7.76 45.968 0.654 8.51 4.81 12.43
12/22/2020 10:30:00 AM 7.77 45.986 0.654 8.52 5.49 12.55
12/22/2020 10:45:00 AM 7.79 46.022 0.654 8.53 5.22 12.65
12/22/2020 11:00:00 AM 7.83 46.094 0.654 8.54 4.51 12.81
12/22/2020 11:15:00 AM 7.88 46.184 0.654 8.55 4.81 13.08
12/22/2020 11:30:00 AM 7.95 46.31 0.654 8.57 5.17 13.46
12/22/2020 11:45:00 AM 7.98 46.364 0.655 8.59 6.94 13.63
12/22/2020 12:00:00 PM 8.02 46.436 0.656 8.6 5.78 13.75
12/22/2020 12:15:00 PM 8.08 46.544 0.656 8.62 5.27 13.87
12/22/2020 12:30:00 PM 8.16 46.688 0.657 8.63 5.35 14.13
12/22/2020 12:45:00 PM 8.23 46.814 0.658 8.65 4.97 14.42
12/22/2020 1:00:00 PM 8.26 46.868 0.659 8.66 6.03 14.65
12/22/2020 1:15:00 PM 8.27 46.886 0.66 8.68 5.66 14.85
12/22/2020 1:30:00 PM 8.27 46.886 0.661 8.7 6.26 15
12/22/2020 1:45:00 PM 8.26 46.868 0.664 8.72 5.75 15.04
12/22/2020 2:00:00 PM 8.29 46.922 0.666 8.73 4.72 15.17
12/22/2020 2:15:00 PM 8.34 47.012 0.669 8.74 5.6 15.37
12/22/2020 2:30:00 PM 8.38 47.084 0.671 8.76 4.87 15.57
12/22/2020 2:45:00 PM 8.38 47.084 0.674 8.77 5.52 15.62
12/22/2020 3:00:00 PM 8.35 47.03 0.678 8.77 5.34 15.5
12/22/2020 3:15:00 PM 8.32 46.976 0.682 8.77 5.65 15.15
12/22/2020 3:30:00 PM 8.31 46.958 0.686 8.76 5.12 14.85
12/22/2020 3:45:00 PM 8.3 46.94 0.688 8.76 5.14 14.73
12/22/2020 4:00:00 PM 8.27 46.886 0.69 8.75 5.45 14.6
12/22/2020 4:15:00 PM 8.22 46.796 0.691 8.74 6.03 14.3
12/22/2020 4:30:00 PM 8.19 46.742 0.691 8.74 5.33 14.03
12/22/2020 4:45:00 PM 8.17 46.706 0.691 8.72 6.7 13.76
12/22/2020 5:00:00 PM 8.16 46.688 0.692 8.71 6.77 13.42
12/22/2020 5:15:00 PM 8.14 46.652 0.692 8.69 6.65 13.11
12/22/2020 5:30:00 PM 8.14 46.652 0.692 8.67 5.66 12.84
12/22/2020 5:45:00 PM 8.13 46.634 0.692 8.66 7.66 12.63
12/22/2020 6:00:00 PM 8.13 46.634 0.691 8.64 5.82 12.42
12/22/2020 6:15:00 PM 8.12 46.616 0.691 8.62 5.81 12.25
12/22/2020 6:30:00 PM 8.11 46.598 0.691 8.61 6.36 12.07
12/22/2020 6:45:00 PM 8.11 46.598 0.69 8.6 5.47 11.94
12/22/2020 7:00:00 PM 8.1 46.58 0.689 8.59 6.09 11.82
12/22/2020 7:15:00 PM 8.09 46.562 0.689 8.58 6.69 11.7
12/22/2020 7:30:00 PM 8.06 46.508 0.688 8.56 11.08 11.59
12/22/2020 7:45:00 PM 8.03 46.454 0.686 8.55 6.39 11.48
12/22/2020 8:00:00 PM 8 46.4 0.684 8.55 5.46 11.37
12/22/2020 8:15:00 PM 7.97 46.346 0.681 8.54 6.67 11.31
12/22/2020 8:30:00 PM 7.92 46.256 0.68 8.54 5.9 11.25
12/22/2020 8:45:00 PM 7.87 46.166 0.678 8.53 10.44 11.19
12/22/2020 9:00:00 PM 7.83 46.094 0.677 8.53 7.22 11.13
12/22/2020 9:15:00 PM 7.78 46.004 0.676 8.52 7.55 11.08
12/22/2020 9:30:00 PM 7.75 45.95 0.675 8.52 5.52 11.04
12/22/2020 9:45:00 PM 7.73 45.914 0.674 8.52 5.45 10.99
12/22/2020 10:00:00 PM 7.73 45.914 0.674 8.51 4.91 10.93
12/22/2020 10:15:00 PM 7.71 45.878 0.673 8.5 6.81 10.9
12/22/2020 10:30:00 PM 7.7 45.86 0.672 8.5 7.76 10.85
12/22/2020 10:45:00 PM 7.68 45.824 0.672 8.49 5.07 10.81
12/22/2020 11:00:00 PM 7.65 45.77 0.672 8.49 8.75 10.75
12/22/2020 11:15:00 PM 7.63 45.734 0.672 8.48 6.25 10.73
12/22/2020 11:30:00 PM 7.59 45.662 0.672 8.48 6.23 10.7
12/22/2020 11:45:00 PM 7.56 45.608 0.673 8.48 7.43 10.66
12/23/2020 12:00:00 AM 7.54 45.572 0.674 8.47 8.21 10.63
12/23/2020 12:15:00 AM 7.52 45.536 0.674 8.47 5.7 10.58
12/23/2020 12:30:00 AM 7.49 45.482 0.675 8.47 6.39 10.56
12/23/2020 12:45:00 AM 7.46 45.428 0.676 8.47 7.72 10.52
12/23/2020 1:00:00 AM 7.43 45.374 0.676 8.46 7.08 10.49
12/23/2020 1:15:00 AM 7.41 45.338 0.676 8.45 6.76 10.45
12/23/2020 1:30:00 AM 7.38 45.284 0.677 8.45 6.7 10.45
12/23/2020 1:45:00 AM 7.35 45.23 0.677 8.45 6.95 10.44
12/23/2020 2:00:00 AM 7.32 45.176 0.678 8.44 7.51 10.42
12/23/2020 2:15:00 AM 7.3 45.14 0.677 8.44 7.1 10.4
12/23/2020 2:30:00 AM 7.27 45.086 0.677 8.44 8.11 10.4
12/23/2020 2:45:00 AM 7.24 45.032 0.677 8.43 6.11 10.38
12/23/2020 3:00:00 AM 7.21 44.978 0.677 8.43 6.19 10.38
12/23/2020 3:15:00 AM 7.17 44.906 0.677 8.43 8.61 10.36
12/23/2020 3:30:00 AM 7.15 44.87 0.676 8.43 6.92 10.35
12/23/2020 3:45:00 AM 7.12 44.816 0.676 8.42 7.8 10.34
12/23/2020 4:00:00 AM 7.08 44.744 0.676 8.42 7.99 10.35
12/23/2020 4:15:00 AM 7.05 44.69 0.676 8.42 8.06 10.32
12/23/2020 4:30:00 AM 7.02 44.636 0.675 8.42 9.78 10.32
12/23/2020 4:45:00 AM 6.99 44.582 0.675 8.42 8.57 10.32
12/23/2020 5:00:00 AM 6.96 44.528 0.675 8.41 10.08 10.31
12/23/2020 5:15:00 AM 6.94 44.492 0.674 8.42 8.54 10.32
12/23/2020 5:30:00 AM 6.91 44.438 0.674 8.41 6.52 10.31
12/23/2020 5:45:00 AM 6.88 44.384 0.674 8.41 8.76 10.32
12/23/2020 6:00:00 AM 6.85 44.33 0.674 8.41 10.32 10.33
12/23/2020 6:15:00 AM 6.81 44.258 0.674 8.41 7.95 10.35
12/23/2020 6:30:00 AM 6.78 44.204 0.674 8.41 9.34 10.36
12/23/2020 6:45:00 AM 6.75 44.15 0.674 8.42 8.33 10.38
12/23/2020 7:00:00 AM 6.72 44.096 0.675 8.41 8.05 10.4
12/23/2020 7:15:00 AM 6.68 44.024 0.675 8.41 7.98 10.41
12/23/2020 7:30:00 AM 6.65 43.97 0.676 8.41 7.82 10.43
12/23/2020 7:45:00 AM 6.63 43.934 0.676 8.41 8.26 10.48
12/23/2020 8:00:00 AM 6.6 43.88 0.677 8.41 6.61 10.55
12/23/2020 8:15:00 AM 6.58 43.844 0.679 8.42 7.81 10.65
12/23/2020 8:30:00 AM 6.56 43.808 0.679 8.42 7.43 10.8
12/23/2020 8:45:00 AM 6.55 43.79 0.68 8.43 6.67 10.97
12/23/2020 9:00:00 AM 6.55 43.79 0.681 8.43 6.61 11.17
12/23/2020 9:15:00 AM 6.57 43.826 0.682 8.44 7.16 11.39
12/23/2020 9:30:00 AM 6.59 43.862 0.682 8.45 5.5 11.66
12/23/2020 9:45:00 AM 6.61 43.898 0.683 8.46 6.5 11.93
12/23/2020 10:00:00 AM 6.66 43.988 0.684 8.47 5.79 12.23
12/23/2020 10:15:00 AM 6.72 44.096 0.684 8.48 6.62 12.51
12/23/2020 10:30:00 AM 6.78 44.204 0.685 8.49 5.66 12.8
12/23/2020 10:45:00 AM 6.87 44.366 0.685 8.5 6.69 13.06
12/23/2020 11:00:00 AM 6.97 44.546 0.683 8.51 5.93 13.33
12/23/2020 11:15:00 AM 7.08 44.744 0.68 8.53 6.42 13.61
12/23/2020 11:30:00 AM 7.2 44.96 0.678 8.54 9.36 13.95
12/23/2020 11:45:00 AM 7.31 45.158 0.678 8.55 7.83 14.29
12/23/2020 12:00:00 PM 7.42 45.356 0.677 8.57 10.15 14.6
12/23/2020 12:15:00 PM 7.51 45.518 0.677 8.59 6.89 14.87
12/23/2020 12:30:00 PM 7.58 45.644 0.676 8.61 8.85 15.04
12/23/2020 12:45:00 PM 7.63 45.734 0.677 8.62 8.03 15.21
12/23/2020 1:00:00 PM 7.66 45.788 0.678 8.64 7.39 15.32
12/23/2020 1:15:00 PM 7.71 45.878 0.678 8.66 7.1 15.43
12/23/2020 1:30:00 PM 7.75 45.95 0.679 8.67 6.5 15.56
12/23/2020 1:45:00 PM 7.76 45.968 0.678 8.69 7.42 15.62
12/23/2020 2:00:00 PM 7.79 46.022 0.678 8.7 6.67 15.64
12/23/2020 2:15:00 PM 7.81 46.058 0.678 8.71 6.66 15.61
12/23/2020 2:30:00 PM 7.82 46.076 0.676 8.71 6.78 15.57
12/23/2020 2:45:00 PM 7.84 46.112 0.674 8.71 6.53 15.53
12/23/2020 3:00:00 PM 7.85 46.13 0.672 8.72 7.42 15.48
12/23/2020 3:15:00 PM 7.84 46.112 0.67 8.73 6.72 15.37
12/23/2020 3:30:00 PM 7.83 46.094 0.669 8.72 5.87 15.25
12/23/2020 3:45:00 PM 7.83 46.094 0.669 8.72 7.25 15.18
12/23/2020 4:00:00 PM 7.81 46.058 0.668 8.72 7.05 15
12/23/2020 4:15:00 PM 7.77 45.986 0.668 8.72 10.13 14.77
12/23/2020 4:30:00 PM 7.74 45.932 0.669 8.71 5.94 14.53
12/23/2020 4:45:00 PM 7.7 45.86 0.67 8.71 6.82 14.29
12/23/2020 5:00:00 PM 7.66 45.788 0.67 8.69 6.11 13.96
12/23/2020 5:15:00 PM 7.62 45.716 0.67 8.68 8.69 13.66
12/23/2020 5:30:00 PM 7.59 45.662 0.669 8.67 8.02 13.41
12/23/2020 5:45:00 PM 7.56 45.608 0.669 8.65 7.55 13.16
12/23/2020 6:00:00 PM 7.54 45.572 0.668 8.64 7.96 12.97
12/23/2020 6:15:00 PM 7.53 45.554 0.667 8.62 8.62 12.81
12/23/2020 6:30:00 PM 7.53 45.554 0.665 8.61 7.17 12.65
12/23/2020 6:45:00 PM 7.52 45.536 0.663 8.6 6.91 12.54
12/23/2020 7:00:00 PM 7.5 45.5 0.662 8.59 8.22 12.45
12/23/2020 7:15:00 PM 7.48 45.464 0.662 8.58 6.19 12.36
12/23/2020 7:30:00 PM 7.46 45.428 0.661 8.57 7.73 12.27
12/23/2020 7:45:00 PM 7.44 45.392 0.661 8.56 7.4 12.18
12/23/2020 8:00:00 PM 7.42 45.356 0.661 8.56 6.3 12.1
12/23/2020 8:15:00 PM 7.39 45.302 0.663 8.55 7.26 12.02
12/23/2020 8:30:00 PM 7.38 45.284 0.663 8.55 6.36 11.92
12/23/2020 8:45:00 PM 7.36 45.248 0.663 8.55 6.26 11.81
12/23/2020 9:00:00 PM 7.35 45.23 0.663 8.54 5.43 11.68
12/23/2020 9:15:00 PM 7.34 45.212 0.663 8.53 5.67 11.58
12/23/2020 9:30:00 PM 7.33 45.194 0.663 8.53 6.03 11.48
12/23/2020 9:45:00 PM 7.33 45.194 0.662 8.52 8.2 11.39
12/23/2020 10:00:00 PM 7.33 45.194 0.661 8.52 5.48 11.32
12/23/2020 10:15:00 PM 7.33 45.194 0.661 8.51 5.65 11.26
12/23/2020 10:30:00 PM 7.33 45.194 0.661 8.51 9.77 11.19
12/23/2020 10:45:00 PM 7.33 45.194 0.661 8.5 7.95 11.13
12/23/2020 11:00:00 PM 7.33 45.194 0.66 8.49 5.56 11.08
12/23/2020 11:15:00 PM 7.33 45.194 0.659 8.49 6.07 11.04
12/23/2020 11:30:00 PM 7.34 45.212 0.659 8.48 6.07 10.98
12/23/2020 11:45:00 PM 7.33 45.194 0.659 8.48 5.1 10.93
12/24/2020 12:00:00 AM 7.32 45.176 0.658 8.47 5.69 10.88
12/24/2020 12:15:00 AM 7.31 45.158 0.658 8.47 9.37 10.85
12/24/2020 12:30:00 AM 7.29 45.122 0.658 8.47 6.84 10.8
12/24/2020 12:45:00 AM 7.28 45.104 0.658 8.46 5.67 10.77
12/24/2020 1:00:00 AM 7.27 45.086 0.658 8.46 6.81 10.73
12/24/2020 1:15:00 AM 7.28 45.104 0.658 8.45 5.94 10.7
12/24/2020 1:30:00 AM 7.3 45.14 0.657 8.45 5.81 10.66
12/24/2020 1:45:00 AM 7.32 45.176 0.658 8.44 7.01 10.64
12/24/2020 2:00:00 AM 7.34 45.212 0.659 8.43 5.38 10.6
12/24/2020 2:15:00 AM 7.37 45.266 0.659 8.43 5.89 10.56
12/24/2020 2:30:00 AM 7.39 45.302 0.659 8.43 5.78 10.53
12/24/2020 2:45:00 AM 7.41 45.338 0.659 8.42 4.43 10.5
12/24/2020 3:00:00 AM 7.43 45.374 0.659 8.42 7.26 10.47
12/24/2020 3:15:00 AM 7.46 45.428 0.659 8.41 6.92 10.44
12/24/2020 3:30:00 AM 7.48 45.464 0.659 8.41 5.74 10.41
12/24/2020 3:45:00 AM 7.5 45.5 0.659 8.4 4.78 10.39
12/24/2020 4:00:00 AM 7.51 45.518 0.659 8.4 6.51 10.37
12/24/2020 4:15:00 AM 7.53 45.554 0.658 8.39 6.48 10.34
12/24/2020 4:30:00 AM 7.54 45.572 0.658 8.39 7.51 10.32
12/24/2020 4:45:00 AM 7.55 45.59 0.658 8.39 6.6 10.3
12/24/2020 5:00:00 AM 7.56 45.608 0.658 8.39 6.37 10.28
12/24/2020 5:15:00 AM 7.57 45.626 0.658 8.39 5.91 10.26
12/24/2020 5:30:00 AM 7.58 45.644 0.658 8.38 8.97 10.26
12/24/2020 5:45:00 AM 7.59 45.662 0.657 8.38 7.57 10.25
12/24/2020 6:00:00 AM 7.6 45.68 0.657 8.38 7.29 10.24
12/24/2020 6:15:00 AM 7.6 45.68 0.656 8.37 6.75 10.24
12/24/2020 6:30:00 AM 7.61 45.698 0.656 8.38 6.92 10.22
12/24/2020 6:45:00 AM 7.61 45.698 0.656 8.38 10.58 10.22
12/24/2020 7:00:00 AM 7.61 45.698 0.655 8.37 6.97 10.21
12/24/2020 7:15:00 AM 7.62 45.716 0.655 8.37 6.11 10.19
12/24/2020 7:30:00 AM 7.63 45.734 0.655 8.37 7 10.21
12/24/2020 7:45:00 AM 7.63 45.734 0.655 8.37 6.2 10.19
12/24/2020 8:00:00 AM 7.64 45.752 0.655 8.37 6.66 10.2
12/24/2020 8:15:00 AM 7.65 45.77 0.654 8.37 5.71 10.24
12/24/2020 8:30:00 AM 7.65 45.77 0.653 8.37 5.14 10.29
12/24/2020 8:45:00 AM 7.66 45.788 0.651 8.37 7.78 10.38
12/24/2020 9:00:00 AM 7.67 45.806 0.649 8.38 6.31 10.46
12/24/2020 9:15:00 AM 7.68 45.824 0.648 8.38 5.77 10.56
12/24/2020 9:30:00 AM 7.69 45.842 0.647 8.38 7.61 10.65
12/24/2020 9:45:00 AM 7.71 45.878 0.646 8.39 6.64 10.73
12/24/2020 10:00:00 AM 7.74 45.932 0.645 8.39 5.84 10.87
12/24/2020 10:15:00 AM 7.77 45.986 0.645 8.4 7.09 11
12/24/2020 10:30:00 AM 7.79 46.022 0.644 8.4 6.88 11.17
12/24/2020 10:45:00 AM 7.82 46.076 0.643 8.41 8.31 11.33
12/24/2020 11:00:00 AM 7.84 46.112 0.642 8.42 8.05 11.44
12/24/2020 11:15:00 AM 7.86 46.148 0.641 8.42 9.87 11.54
12/24/2020 11:30:00 AM 7.87 46.166 0.639 8.43 7.87 11.61
12/24/2020 11:45:00 AM 7.88 46.184 0.638 8.43 9.82 11.68
12/24/2020 12:00:00 PM 7.88 46.184 0.636 8.44 10.43 11.7
12/24/2020 12:15:00 PM 7.89 46.202 0.634 8.44 9.55 11.74
12/24/2020 12:30:00 PM 7.91 46.238 0.632 8.45 13.76 11.79
12/24/2020 12:45:00 PM 7.91 46.238 0.63 8.45 10.97 11.79
12/24/2020 1:00:00 PM 7.92 46.256 0.627 8.45 12.72 11.75
12/24/2020 1:15:00 PM 7.92 46.256 0.625 8.45 14.79 11.67
12/24/2020 1:30:00 PM 7.92 46.256 0.622 8.45 14.22 11.59
12/24/2020 1:45:00 PM 7.91 46.238 0.618 8.44 17.89 11.51
12/24/2020 2:00:00 PM 7.9 46.22 0.616 8.45 27.37 11.45
12/24/2020 2:15:00 PM 7.89 46.202 0.618 8.44 30.66 11.4
12/24/2020 2:30:00 PM 7.85 46.13 0.621 8.43 32.48 11.35
12/24/2020 2:45:00 PM 7.81 46.058 0.621 8.43 36.24 11.34
12/24/2020 3:00:00 PM 7.78 46.004 0.619 8.43 31.79 11.32
12/24/2020 3:15:00 PM 7.75 45.95 0.616 8.42 32.9 11.27
12/24/2020 3:30:00 PM 7.74 45.932 0.612 8.42 32.99 11.22
12/24/2020 3:45:00 PM 7.73 45.914 0.609 8.42 34.95 11.15
12/24/2020 4:00:00 PM 7.75 45.95 0.609 8.41 30.28 11.08
12/24/2020 4:15:00 PM 7.8 46.04 0.608 8.4 28.92 11.04
12/24/2020 4:30:00 PM 7.87 46.166 0.605 8.39 30.89 10.97
12/24/2020 4:45:00 PM 7.94 46.292 0.6 8.38 44.8 10.88
12/24/2020 5:00:00 PM 8.03 46.454 0.595 8.37 37.81 10.81
12/24/2020 5:15:00 PM 8.1 46.58 0.59 8.35 36.21 10.77
12/24/2020 5:30:00 PM 8.19 46.742 0.583 8.34 50.97 10.72
12/24/2020 5:45:00 PM 8.27 46.886 0.577 8.33 74.54 10.68
12/24/2020 6:00:00 PM 8.33 46.994 0.571 8.32 66.83 10.65
12/24/2020 6:15:00 PM 8.33 46.994 0.561 8.32 62.44 10.66
12/24/2020 6:30:00 PM 8.31 46.958 0.55 8.31 124.1 10.63
12/24/2020 6:45:00 PM 8.33 46.994 0.541 8.31 288.6 10.56
12/24/2020 7:00:00 PM 8.39 47.102 0.537 8.31 146.6 10.49
12/24/2020 7:15:00 PM 8.45 47.21 0.537 8.3 247.8 10.42
12/24/2020 7:30:00 PM 8.49 47.282 0.537 8.29 219.6 10.37
12/24/2020 7:45:00 PM 8.53 47.354 0.534 8.29 153.5 10.34
12/24/2020 8:00:00 PM 8.59 47.462 0.528 8.3 191.5 10.26
12/24/2020 8:15:00 PM 8.64 47.552 0.522 8.3 239.4 10.2
12/24/2020 8:30:00 PM 8.68 47.624 0.515 8.3 245.3 10.16
12/24/2020 8:45:00 PM 8.66 47.588 0.504 8.3 310 10.13
12/24/2020 9:00:00 PM 8.54 47.372 0.486 8.31 321.4 10.16
12/24/2020 9:15:00 PM 8.4 47.12 0.457 8.32 278.8 10.22
12/24/2020 9:30:00 PM 8.31 46.958 0.427 8.32 292.1 10.27
12/24/2020 9:45:00 PM 8.21 46.778 0.4 8.32 154.8 10.3
12/24/2020 10:00:00 PM 8.14 46.652 0.381 8.32 182.6 10.32
12/24/2020 10:15:00 PM 8.09 46.562 0.367 8.32 222.6 10.39
12/24/2020 10:30:00 PM 8.05 46.49 0.361 8.31 312.9 10.42
12/24/2020 10:45:00 PM 8.05 46.49 0.354 8.3 315.3 10.39
12/24/2020 11:00:00 PM 8.08 46.544 0.352 8.3 170.3 10.37
12/24/2020 11:15:00 PM 8.13 46.634 0.353 8.3 306 10.34
12/24/2020 11:30:00 PM 8.2 46.76 0.355 8.28 157.8 10.26
12/24/2020 11:45:00 PM 8.26 46.868 0.352 8.26 209.9 10.18
12/25/2020 12:00:00 AM 8.34 47.012 0.348 8.25 271.6 10.13
12/25/2020 12:15:00 AM 8.48 47.264 0.345 8.23 273.1 10.05
12/25/2020 12:30:00 AM 8.58 47.444 0.341 8.21 417.4 10.02
12/25/2020 12:45:00 AM 8.7 47.66 0.337 8.2 485 9.98
12/25/2020 1:00:00 AM 8.79 47.822 0.33 8.19 401.6 9.92
12/25/2020 1:15:00 AM 8.87 47.966 0.327 8.18 385.6 9.86
12/25/2020 1:30:00 AM 8.91 48.038 0.324 8.17 392.7 9.87
12/25/2020 1:45:00 AM 8.95 48.11 0.325 8.19 367.3 9.89
12/25/2020 2:00:00 AM 8.99 48.182 0.326 8.22 321.4 9.87
12/25/2020 2:15:00 AM 9.02 48.236 0.326 8.24 341.8 9.83
12/25/2020 2:30:00 AM 9.04 48.272 0.325 8.24 435.8 9.8
12/25/2020 2:45:00 AM 9.06 48.308 0.326 8.23 411.7 9.79
12/25/2020 3:00:00 AM 9.08 48.344 0.327 8.22 418.7 9.8
12/25/2020 3:15:00 AM 9.13 48.434 0.324 8.2 378.1 9.75
12/25/2020 3:30:00 AM 9.16 48.488 0.322 8.19 426 9.74
12/25/2020 3:45:00 AM 9.17 48.506 0.322 8.18 340.9 9.74
12/25/2020 4:00:00 AM 9.18 48.524 0.321 8.17 240.2 9.71
12/25/2020 4:15:00 AM 9.19 48.542 0.32 8.16 326 9.66
12/25/2020 4:30:00 AM 9.2 48.56 0.32 8.15 230.5 9.64
12/25/2020 4:45:00 AM 9.22 48.596 0.322 8.14 257.5 9.65
12/25/2020 5:00:00 AM 9.23 48.614 0.322 8.14 226.8 9.63
12/25/2020 5:15:00 AM 9.25 48.65 0.322 8.13 200.1 9.57
12/25/2020 5:30:00 AM 9.26 48.668 0.324 8.12 216.7 9.56
12/25/2020 5:45:00 AM 9.26 48.668 0.328 8.11 196.5 9.53
12/25/2020 6:00:00 AM 9.25 48.65 0.329 8.1 184.5 9.5
12/25/2020 6:15:00 AM 9.25 48.65 0.331 8.1 262.8 9.47
12/25/2020 6:30:00 AM 9.25 48.65 0.333 8.09 339.4 9.46
12/25/2020 6:45:00 AM 9.29 48.722 0.332 8.09 310.3 9.4
12/25/2020 7:00:00 AM 9.34 48.812 0.328 8.09 317.8 9.28
12/25/2020 7:15:00 AM 9.37 48.866 0.326 8.09 329.1 9.21
12/25/2020 7:30:00 AM 9.36 48.848 0.323 8.09 228.7 9.19
12/25/2020 7:45:00 AM 9.34 48.812 0.322 8.09 236.6 9.23
12/25/2020 8:00:00 AM 9.31 48.758 0.32 8.09 358.7 9.22
12/25/2020 8:15:00 AM 9.25 48.65 0.317 8.09 316 9.22
12/25/2020 8:30:00 AM 9.19 48.542 0.315 8.09 295 9.23
12/25/2020 8:45:00 AM 9.12 48.416 0.314 8.1 328.5 9.23
12/25/2020 9:00:00 AM 9.06 48.308 0.314 8.1 293.1 9.29
12/25/2020 9:15:00 AM 9 48.2 0.315 8.1 362.8 9.28
12/25/2020 9:30:00 AM 8.91 48.038 0.315 8.1 285.5 9.31
12/25/2020 9:45:00 AM 8.83 47.894 0.316 8.1 254.8 9.33
12/25/2020 10:00:00 AM 8.75 47.75 0.319 8.1 285.8 9.38
12/25/2020 10:15:00 AM 8.68 47.624 0.321 8.1 233.4 9.39
12/25/2020 10:30:00 AM 8.61 47.498 0.323 8.1 259.9 9.41
12/25/2020 10:45:00 AM 8.54 47.372 0.325 8.09 217.9 9.43
12/25/2020 11:00:00 AM 8.47 47.246 0.327 8.1 230.1 9.46
12/25/2020 11:15:00 AM 8.41 47.138 0.33 8.1 251.2 9.49
12/25/2020 11:30:00 AM 8.36 47.048 0.333 8.1 200.4 9.52
12/25/2020 11:45:00 AM 8.3 46.94 0.334 8.1 224.8 9.54
12/25/2020 12:00:00 PM 8.25 46.85 0.336 8.1 203.2 9.57
12/25/2020 12:15:00 PM 8.2 46.76 0.338 8.1 211.3 9.59
12/25/2020 12:30:00 PM 8.16 46.688 0.341 8.1 186.9 9.62
12/25/2020 12:45:00 PM 8.13 46.634 0.344 8.09 216 9.66
12/25/2020 1:00:00 PM 8.09 46.562 0.346 8.09 220.1 9.69
12/25/2020 1:15:00 PM 8.03 46.454 0.348 8.09 258.4 9.72
12/25/2020 1:30:00 PM 7.99 46.382 0.351 8.09 208.9 9.76
12/25/2020 1:45:00 PM 7.96 46.328 0.354 8.09 166.9 9.79
12/25/2020 2:00:00 PM 7.93 46.274 0.356 8.09 222.9 9.84
12/25/2020 2:15:00 PM 7.9 46.22 0.358 8.09 190.4 9.89
12/25/2020 2:30:00 PM 7.87 46.166 0.36 8.09 202.5 9.94
12/25/2020 2:45:00 PM 7.85 46.13 0.361 8.09 213.4 9.96
12/25/2020 3:00:00 PM 7.82 46.076 0.366 8.1 181.6 9.99
12/25/2020 3:15:00 PM 7.79 46.022 0.368 8.1 172.8 10.01
12/25/2020 3:30:00 PM 7.75 45.95 0.37 8.1 169.8 10.03
12/25/2020 3:45:00 PM 7.73 45.914 0.318 8.1 181.1 10.08
12/25/2020 4:00:00 PM 7.69 45.842 0.32 8.1 300.1 10.09
12/25/2020 4:15:00 PM 7.65 45.77 0.325 8.1 177.5 10.12
12/25/2020 4:30:00 PM 7.61 45.698 0.324 8.11 163.2 10.14
12/25/2020 4:45:00 PM 7.57 45.626 0.386 8.11 163.5 10.18
12/25/2020 5:00:00 PM 7.53 45.554 0.39 8.11 141 10.2
12/25/2020 5:15:00 PM 7.5 45.5 0.393 8.11 158.2 10.21
12/25/2020 5:30:00 PM 7.46 45.428 0.394 8.12 149.6 10.21
12/25/2020 5:45:00 PM 7.42 45.356 0.396 8.12 160.8 10.22
12/25/2020 6:00:00 PM 7.39 45.302 0.399 8.12 174 10.24
12/25/2020 6:15:00 PM 7.35 45.23 0.403 8.12 132.8 10.26
12/25/2020 6:30:00 PM 7.32 45.176 0.407 8.12 141.5 10.25
12/25/2020 6:45:00 PM 7.29 45.122 0.409 8.13 113.9 10.25
12/25/2020 7:00:00 PM 7.26 45.068 0.41 8.13 128.4 10.26
12/25/2020 7:15:00 PM 7.22 44.996 0.413 8.13 135.7 10.28
12/25/2020 7:30:00 PM 7.2 44.96 0.418 8.13 126.4 10.29
12/25/2020 7:45:00 PM 7.17 44.906 0.421 8.13 116.3 10.31
12/25/2020 8:00:00 PM 7.13 44.834 0.422 8.13 137.6 10.32
12/25/2020 8:15:00 PM 7.09 44.762 0.425 8.14 149.1 10.33
12/25/2020 8:30:00 PM 7.07 44.726 0.428 8.14 146.9 10.38
12/25/2020 8:45:00 PM 7.05 44.69 0.433 8.14 123.5 10.4
12/25/2020 9:00:00 PM 7.04 44.672 0.438 8.14 118.7 10.4
12/25/2020 9:15:00 PM 7.01 44.618 0.44 8.14 118.2 10.42
12/25/2020 9:30:00 PM 6.99 44.582 0.443 8.14 118.6 10.44
12/25/2020 9:45:00 PM 6.96 44.528 0.447 8.15 121.2 10.45
12/25/2020 10:00:00 PM 6.95 44.51 0.451 8.15 171.8 10.46
12/25/2020 10:15:00 PM 6.93 44.474 0.452 8.15 91.89 10.45
12/25/2020 10:30:00 PM 6.91 44.438 0.455 8.15 105.1 10.43
12/25/2020 10:45:00 PM 6.89 44.402 0.458 8.15 92.61 10.43
12/25/2020 11:00:00 PM 6.88 44.384 0.461 8.16 82.17 10.47
12/25/2020 11:15:00 PM 6.86 44.348 0.465 8.16 93.93 10.47
12/25/2020 11:30:00 PM 6.85 44.33 0.468 8.16 104.7 10.49
12/25/2020 11:45:00 PM 6.82 44.276 0.468 8.16 94.39 10.5
12/26/2020 12:00:00 AM 6.8 44.24 0.47 8.16 83.06 10.52
12/26/2020 12:15:00 AM 6.79 44.222 0.472 8.17 90.11 10.54
12/26/2020 12:30:00 AM 6.77 44.186 0.475 8.17 75.77 10.6
12/26/2020 12:45:00 AM 6.76 44.168 0.48 8.17 76.99 10.63
12/26/2020 1:00:00 AM 6.74 44.132 0.483 8.18 78.5 10.64
12/26/2020 1:15:00 AM 6.71 44.078 0.484 8.18 92.11 10.6
12/26/2020 1:30:00 AM 6.7 44.06 0.486 8.18 84.09 10.63
12/26/2020 1:45:00 AM 6.68 44.024 0.489 8.18 77.05 10.63
12/26/2020 2:00:00 AM 6.68 44.024 0.492 8.18 98.23 10.64
12/26/2020 2:15:00 AM 6.68 44.024 0.493 8.19 79.81 10.64
12/26/2020 2:30:00 AM 6.66 43.988 0.494 8.18 85.48 10.65
12/26/2020 2:45:00 AM 6.65 43.97 0.496 8.19 96.43 10.65
12/26/2020 3:00:00 AM 6.64 43.952 0.497 8.19 68.98 10.67
12/26/2020 3:15:00 AM 6.62 43.916 0.499 8.19 79.73 10.67
12/26/2020 3:30:00 AM 6.6 43.88 0.502 8.2 67.32 10.68
12/26/2020 3:45:00 AM 6.59 43.862 0.504 8.19 74.41 10.69
12/26/2020 4:00:00 AM 6.59 43.862 0.503 8.2 69.99 10.7
12/26/2020 4:15:00 AM 6.57 43.826 0.504 8.2 65.95 10.73
12/26/2020 4:30:00 AM 6.56 43.808 0.506 8.2 69.84 10.75
12/26/2020 4:45:00 AM 6.56 43.808 0.507 8.2 70.03 10.77
12/26/2020 5:00:00 AM 6.55 43.79 0.51 8.2 69.03 10.78
12/26/2020 5:15:00 AM 6.54 43.772 0.512 8.2 65.94 10.77
12/26/2020 5:30:00 AM 6.54 43.772 0.513 8.2 62.79 10.78
12/26/2020 5:45:00 AM 6.53 43.754 0.513 8.21 76.08 10.79
12/26/2020 6:00:00 AM 6.53 43.754 0.514 8.21 52.34 10.81
12/26/2020 6:15:00 AM 6.5 43.7 0.516 8.21 62.95 10.81
12/26/2020 6:30:00 AM 6.48 43.664 0.518 8.21 93.06 10.81
12/26/2020 6:45:00 AM 6.48 43.664 0.518 8.21 64.05 10.83
12/26/2020 7:00:00 AM 6.47 43.646 0.518 8.22 65.39 10.84
12/26/2020 7:15:00 AM 6.47 43.646 0.519 8.22 66.08 10.84
12/26/2020 7:30:00 AM 6.46 43.628 0.52 8.22 60.79 10.89
12/26/2020 7:45:00 AM 6.45 43.61 0.522 8.22 72.02 10.88
12/26/2020 8:00:00 AM 6.45 43.61 0.525 8.22 63.27 10.87
12/26/2020 8:15:00 AM 6.45 43.61 0.524 8.22 69.97 10.89
12/26/2020 8:30:00 AM 6.45 43.61 0.524 8.23 62.91 10.9
12/26/2020 8:45:00 AM 6.45 43.61 0.525 8.22 65.94 10.93
12/26/2020 9:00:00 AM 6.46 43.628 0.526 8.23 60.6 10.95
12/26/2020 9:15:00 AM 6.47 43.646 0.527 8.23 52.3 10.99
12/26/2020 9:30:00 AM 6.46 43.628 0.529 8.24 67.73 11
12/26/2020 9:45:00 AM 6.48 43.664 0.531 8.23 50.54 11.01
12/26/2020 10:00:00 AM 6.52 43.736 0.531 8.24 56.08 11.03
12/26/2020 10:15:00 AM 6.57 43.826 0.531 8.23 53.01 11.08
12/26/2020 10:30:00 AM 6.58 43.844 0.532 8.23 48.21 11.09
12/26/2020 10:45:00 AM 6.6 43.88 0.535 8.23 61 11.1
12/26/2020 11:00:00 AM 6.62 43.916 0.535 8.23 50.4 11.11
12/26/2020 11:15:00 AM 6.65 43.97 0.535 8.23 88.55 11.13
12/26/2020 11:30:00 AM 6.69 44.042 0.535 8.23 60.39 11.15
12/26/2020 11:45:00 AM 6.74 44.132 0.535 8.23 71.7 11.18
12/26/2020 12:00:00 PM 6.75 44.15 0.536 8.23 55.49 11.19
12/26/2020 12:15:00 PM 6.77 44.186 0.539 8.23 63.15 11.21
12/26/2020 12:30:00 PM 6.81 44.258 0.539 8.24 72.27 11.22
12/26/2020 12:45:00 PM 6.83 44.294 0.539 8.24 81.3 11.22
12/26/2020 1:00:00 PM 6.85 44.33 0.539 8.24 52.1 11.24
12/26/2020 1:15:00 PM 6.89 44.402 0.539 8.24 60.96 11.26
12/26/2020 1:30:00 PM 6.92 44.456 0.54 8.24 65.13 11.28
12/26/2020 1:45:00 PM 6.94 44.492 0.541 8.24 1405 11.27
12/26/2020 2:00:00 PM 6.96 44.528 0.543 8.24 61.45 11.28
12/26/2020 2:15:00 PM 6.99 44.582 0.543 8.25 69.62 11.3
12/26/2020 2:30:00 PM 7.02 44.636 0.543 8.25 64.05 11.31
12/26/2020 2:45:00 PM 7.02 44.636 0.544 8.25 65.69 11.3
12/26/2020 3:00:00 PM 7.03 44.654 0.546 8.25 64.84 11.3
12/26/2020 3:15:00 PM 7.04 44.672 0.545 8.25 101.2 11.29
12/26/2020 3:30:00 PM 7.05 44.69 0.544 8.26 113.3 11.28
12/26/2020 3:45:00 PM 7.05 44.69 0.544 8.26 116.8 11.25
12/26/2020 4:00:00 PM 7.07 44.726 0.544 8.26 72.94 11.22
12/26/2020 4:15:00 PM 7.06 44.708 0.545 8.27 62.28 11.23
12/26/2020 4:30:00 PM 7.05 44.69 0.546 8.26 1558 11.2
12/26/2020 4:45:00 PM 7.06 44.708 0.547 8.27 99.09 11.18
12/26/2020 5:00:00 PM 7.08 44.744 0.547 8.27 60.09 11.18
12/26/2020 5:15:00 PM 7.08 44.744 0.547 8.27 74.25 11.16
12/26/2020 5:30:00 PM 7.07 44.726 0.549 8.27 98.54 11.13
12/26/2020 5:45:00 PM 7.07 44.726 0.55 8.27 136.8 11.1
12/26/2020 6:00:00 PM 7.08 44.744 0.549 8.27 85.2 11.08
12/26/2020 6:15:00 PM 7.08 44.744 0.549 8.27 66.36 11.06
12/26/2020 6:30:00 PM 7.08 44.744 0.548 8.27 85.31 11.05
12/26/2020 6:45:00 PM 7.09 44.762 0.549 8.27 65.66 11.04
12/26/2020 7:00:00 PM 7.09 44.762 0.549 8.27 60.86 11.03
12/26/2020 7:15:00 PM 7.06 44.708 0.551 8.27 57.41 11
12/26/2020 7:30:00 PM 7.05 44.69 0.552 8.28 57.78 10.98
12/26/2020 7:45:00 PM 7.06 44.708 0.552 8.27 47.67 10.97
12/26/2020 8:00:00 PM 7.06 44.708 0.551 8.28 68.68 10.96
12/26/2020 8:15:00 PM 7.06 44.708 0.551 8.28 49.18 10.94
12/26/2020 8:30:00 PM 7.05 44.69 0.551 8.28 69.75 10.94
12/26/2020 8:45:00 PM 7.05 44.69 0.552 8.27 72.68 10.94
12/26/2020 9:00:00 PM 7.03 44.654 0.552 8.27 82.98 10.94
12/26/2020 9:15:00 PM 6.99 44.582 0.554 8.28 95.85 10.91
12/26/2020 9:30:00 PM 6.96 44.528 0.555 8.27 82.86 10.89
12/26/2020 9:45:00 PM 6.95 44.51 0.555 8.28 37.72 10.87
12/26/2020 10:00:00 PM 6.95 44.51 0.554 8.28 254.4 10.88
12/26/2020 10:15:00 PM 6.92 44.456 0.554 8.28 41.69 10.86
12/26/2020 10:30:00 PM 6.9 44.42 0.556 8.28 39.46 10.85
12/26/2020 10:45:00 PM 6.9 44.42 0.557 8.28 38.45 10.83
12/26/2020 11:00:00 PM 6.91 44.438 0.556 8.28 42.64 10.85
12/26/2020 11:15:00 PM 6.92 44.456 0.556 8.28 47.72 10.87
12/26/2020 11:30:00 PM 6.94 44.492 0.556 8.28 37.29 10.88
12/26/2020 11:45:00 PM 6.96 44.528 0.557 8.28 43.75 10.89
12/27/2020 12:00:00 AM 6.94 44.492 0.558 8.27 128.5 10.89
12/27/2020 12:15:00 AM 6.92 44.456 0.56 8.28 50.82 10.88
12/27/2020 12:30:00 AM 6.92 44.456 0.56 8.28 41.85 10.87
12/27/2020 12:45:00 AM 6.93 44.474 0.56 8.28 40.67 10.86
12/27/2020 1:00:00 AM 6.93 44.474 0.559 8.28 41.76 10.86
12/27/2020 1:15:00 AM 6.94 44.492 0.56 8.27 36.13 10.85
12/27/2020 1:30:00 AM 6.95 44.51 0.56 8.27 38.56 10.85
12/27/2020 1:45:00 AM 6.95 44.51 0.56 8.27 43.56 10.88
12/27/2020 2:00:00 AM 6.92 44.456 0.562 8.27 43.92 10.85
12/27/2020 2:15:00 AM 6.9 44.42 0.563 8.27 33.6 10.85
12/27/2020 2:30:00 AM 6.91 44.438 0.564 8.27 41.08 10.85
12/27/2020 2:45:00 AM 6.92 44.456 0.564 8.27 42.68 10.88
12/27/2020 3:00:00 AM 6.9 44.42 0.564 8.27 39.07 10.89
12/27/2020 3:15:00 AM 6.88 44.384 0.565 8.26 30.85 10.87
12/27/2020 3:30:00 AM 6.89 44.402 0.566 8.27 34.96 10.87
12/27/2020 3:45:00 AM 6.89 44.402 0.566 8.27 46.43 10.86
12/27/2020 4:00:00 AM 6.89 44.402 0.565 8.26 30.13 10.86
12/27/2020 4:15:00 AM 6.89 44.402 0.565 8.26 34.24 10.86
12/27/2020 4:30:00 AM 6.9 44.42 0.564 8.26 42.65 10.9
12/27/2020 4:45:00 AM 6.9 44.42 0.564 8.27 33.78 10.91
12/27/2020 5:00:00 AM 6.87 44.366 0.565 8.26 43.2 10.9
12/27/2020 5:15:00 AM 6.86 44.348 0.566 8.26 38.14 10.88
12/27/2020 5:30:00 AM 6.88 44.384 0.566 8.26 35.53 10.87
12/27/2020 5:45:00 AM 6.89 44.402 0.565 8.26 1605 10.88
12/27/2020 6:00:00 AM 6.9 44.42 0.564 8.26 38.36 10.88
12/27/2020 6:15:00 AM 6.89 44.402 0.564 8.26 38.64 10.89
12/27/2020 6:30:00 AM 6.89 44.402 0.564 8.26 35.02 10.92
12/27/2020 6:45:00 AM 6.88 44.384 0.564 8.26 33.02 10.94
12/27/2020 7:00:00 AM 6.84 44.312 0.565 8.26 31.05 10.93
12/27/2020 7:15:00 AM 6.83 44.294 0.566 8.26 26.59 10.9
12/27/2020 7:30:00 AM 6.83 44.294 0.566 8.27 36.97 10.93
12/27/2020 7:45:00 AM 6.84 44.312 0.566 8.27 28.71 10.95
12/27/2020 8:00:00 AM 6.82 44.276 0.566 8.27 36.67 10.96
12/27/2020 8:15:00 AM 6.8 44.24 0.566 8.27 39.08 10.94
12/27/2020 8:30:00 AM 6.81 44.258 0.566 8.27 40.94 10.95
12/27/2020 8:45:00 AM 6.82 44.276 0.566 8.27 33.66 10.97
12/27/2020 9:00:00 AM 6.85 44.33 0.565 8.27 34.38 10.99
12/27/2020 9:15:00 AM 6.88 44.384 0.565 8.27 37.26 11
12/27/2020 9:30:00 AM 6.94 44.492 0.565 8.27 36.85 11.04
12/27/2020 9:45:00 AM 6.97 44.546 0.565 8.27 33.59 11.09
12/27/2020 10:00:00 AM 6.98 44.564 0.566 8.27 30.95 11.08
12/27/2020 10:15:00 AM 7.03 44.654 0.566 8.27 34.86 11.12
12/27/2020 10:30:00 AM 7.09 44.762 0.567 8.27 35.24 11.17
12/27/2020 10:45:00 AM 7.12 44.816 0.566 8.27 49.69 11.17
12/27/2020 11:00:00 AM 7.17 44.906 0.567 8.27 34.86 11.21
12/27/2020 11:15:00 AM 7.23 45.014 0.567 8.27 37.22 11.26
12/27/2020 11:30:00 AM 7.29 45.122 0.566 8.27 35.5 11.27
12/27/2020 11:45:00 AM 7.35 45.23 0.566 8.27 33.61 11.3
12/27/2020 12:00:00 PM 7.41 45.338 0.565 8.26 33.9 11.35
12/27/2020 12:15:00 PM 7.44 45.392 0.566 8.27 30.36 11.35
12/27/2020 12:30:00 PM 7.47 45.446 0.567 8.27 47.98 11.33
12/27/2020 12:45:00 PM 7.52 45.536 0.567 8.27 29.97 11.36
12/27/2020 1:00:00 PM 7.58 45.644 0.567 8.27 32.91 11.39
12/27/2020 1:15:00 PM 7.6 45.68 0.567 8.27 29.03 11.4
12/27/2020 1:30:00 PM 7.64 45.752 0.568 8.27 26.47 11.39
12/27/2020 1:45:00 PM 7.68 45.824 0.569 8.27 32.34 11.39
12/27/2020 2:00:00 PM 7.71 45.878 0.568 8.28 29.19 11.4
12/27/2020 2:15:00 PM 7.74 45.932 0.567 8.28 28.47 11.39
12/27/2020 2:30:00 PM 7.77 45.986 0.566 8.28 63.76 11.39
12/27/2020 2:45:00 PM 7.79 46.022 0.566 8.29 34.46 11.38
12/27/2020 3:00:00 PM 7.81 46.058 0.567 8.29 29.88 11.39
12/27/2020 3:15:00 PM 7.81 46.058 0.567 8.29 32.4 11.38
12/27/2020 3:30:00 PM 7.81 46.058 0.568 8.29 31.17 11.37
12/27/2020 3:45:00 PM 7.82 46.076 0.57 8.29 25.03 11.36
12/27/2020 4:00:00 PM 7.83 46.094 0.569 8.29 31.39 11.32
12/27/2020 4:15:00 PM 7.85 46.13 0.569 8.29 28.2 11.31
12/27/2020 4:30:00 PM 7.86 46.148 0.568 8.29 29.65 11.29
12/27/2020 4:45:00 PM 7.87 46.166 0.568 8.3 29.16 11.24
12/27/2020 5:00:00 PM 7.87 46.166 0.568 8.3 35.09 11.22
12/27/2020 5:15:00 PM 7.88 46.184 0.568 8.3 39.35 11.2
12/27/2020 5:30:00 PM 7.89 46.202 0.569 8.3 35.27 11.17
12/27/2020 5:45:00 PM 7.88 46.184 0.57 8.3 35.55 11.13
12/27/2020 6:00:00 PM 7.87 46.166 0.571 8.3 34.5 11.08
12/27/2020 6:15:00 PM 7.87 46.166 0.571 8.29 31.27 11.04
12/27/2020 6:30:00 PM 7.88 46.184 0.571 8.29 37.28 10.99
12/27/2020 6:45:00 PM 7.9 46.22 0.571 8.29 36.86 10.96
12/27/2020 7:00:00 PM 7.9 46.22 0.571 8.29 29.72 10.92
12/27/2020 7:15:00 PM 7.91 46.238 0.571 8.29 33.11 10.89
12/27/2020 7:30:00 PM 7.91 46.238 0.571 8.28 29.93 10.89
12/27/2020 7:45:00 PM 7.91 46.238 0.572 8.28 30.83 10.89
12/27/2020 8:00:00 PM 7.9 46.22 0.573 8.28 31.12 10.84
12/27/2020 8:15:00 PM 7.9 46.22 0.574 8.28 32.32 10.82
12/27/2020 8:30:00 PM 7.91 46.238 0.574 8.28 24.29 10.83
12/27/2020 8:45:00 PM 7.91 46.238 0.573 8.28 32.27 10.83
12/27/2020 9:00:00 PM 7.9 46.22 0.574 8.28 24.4 10.78
12/27/2020 9:15:00 PM 7.89 46.202 0.575 8.28 29.97 10.78
12/27/2020 9:30:00 PM 7.9 46.22 0.575 8.28 26.29 10.77
12/27/2020 9:45:00 PM 7.89 46.202 0.575 8.27 32.88 10.74
12/27/2020 10:00:00 PM 7.89 46.202 0.574 8.28 26.92 10.75
12/27/2020 10:15:00 PM 7.88 46.184 0.574 8.28 32.44 10.72
12/27/2020 10:30:00 PM 7.87 46.166 0.574 8.27 31.42 10.69
12/27/2020 10:45:00 PM 7.87 46.166 0.573 8.27 29.01 10.66
12/27/2020 11:00:00 PM 7.86 46.148 0.573 8.27 26.02 10.67
12/27/2020 11:15:00 PM 7.84 46.112 0.573 8.27 25.63 10.63
12/27/2020 11:30:00 PM 7.83 46.094 0.575 8.27 43.06 10.59
12/27/2020 11:45:00 PM 7.83 46.094 0.575 8.27 32.39 10.59
12/28/2020 12:00:00 AM 7.84 46.112 0.575 8.27 31.52 10.57
12/28/2020 12:15:00 AM 7.85 46.13 0.574 8.27 29.45 10.58
12/28/2020 12:30:00 AM 7.86 46.148 0.574 8.27 26.84 10.61
12/28/2020 12:45:00 AM 7.87 46.166 0.574 8.27 27.09 10.64
12/28/2020 1:00:00 AM 7.88 46.184 0.575 8.27 34.25 10.68
12/28/2020 1:15:00 AM 7.87 46.166 0.574 8.27 32.6 10.7
12/28/2020 1:30:00 AM 7.85 46.13 0.576 8.27 26.79 10.67
12/28/2020 1:45:00 AM 7.85 46.13 0.577 8.27 29.62 10.66
12/28/2020 2:00:00 AM 7.85 46.13 0.576 8.27 27.8 10.68
12/28/2020 2:15:00 AM 7.85 46.13 0.576 8.27 29.26 10.71
12/28/2020 2:30:00 AM 7.83 46.094 0.577 8.27 23.82 10.69
12/28/2020 2:45:00 AM 7.81 46.058 0.577 8.27 25.14 10.66
12/28/2020 3:00:00 AM 7.82 46.076 0.578 8.27 21.63 10.65
12/28/2020 3:15:00 AM 7.82 46.076 0.578 8.27 21.09 10.63
12/28/2020 3:30:00 AM 7.83 46.094 0.577 8.27 20.86 10.62
12/28/2020 3:45:00 AM 7.83 46.094 0.577 8.27 17.92 10.6
12/28/2020 4:00:00 AM 7.83 46.094 0.577 8.27 17.68 10.59
12/28/2020 4:15:00 AM 7.84 46.112 0.577 8.27 25.56 10.61
12/28/2020 4:30:00 AM 7.84 46.112 0.577 8.26 26.77 10.65
12/28/2020 4:45:00 AM 7.82 46.076 0.577 8.27 18.56 10.63
12/28/2020 5:00:00 AM 7.81 46.058 0.578 8.27 21.54 10.61
12/28/2020 5:15:00 AM 7.82 46.076 0.579 8.27 24.98 10.6
12/28/2020 5:30:00 AM 7.83 46.094 0.578 8.26 25.83 10.61
12/28/2020 5:45:00 AM 7.84 46.112 0.578 8.26 20.71 10.62
12/28/2020 6:00:00 AM 7.84 46.112 0.578 8.26 24.2 10.63
12/28/2020 6:15:00 AM 7.85 46.13 0.578 8.26 26.1 10.63
12/28/2020 6:30:00 AM 7.86 46.148 0.577 8.26 28.69 10.62
12/28/2020 6:45:00 AM 7.86 46.148 0.577 8.26 25.03 10.65
12/28/2020 7:00:00 AM 7.85 46.13 0.582 8.26 24.25 10.68
12/28/2020 7:15:00 AM 7.84 46.112 0.583 8.26 27.93 10.64
12/28/2020 7:30:00 AM 7.85 46.13 0.584 8.26 28.14 10.64
12/28/2020 7:45:00 AM 7.86 46.148 0.584 8.26 23.98 10.69
12/28/2020 8:00:00 AM 7.85 46.13 0.582 8.26 26.54 10.72
12/28/2020 8:15:00 AM 7.83 46.094 0.583 8.26 20.5 10.68
12/28/2020 8:30:00 AM 7.83 46.094 0.584 8.26 20.51 10.69
12/28/2020 8:45:00 AM 7.86 46.148 0.583 8.26 28.81 10.69
12/28/2020 9:00:00 AM 7.89 46.202 0.585 8.25 25.53 10.73
12/28/2020 9:15:00 AM 7.91 46.238 0.582 8.26 42.75 10.75
12/28/2020 9:30:00 AM 7.95 46.31 0.581